<?xml version="1.0" encoding="UTF-8" standalone="no" ?>
<gpx xmlns="http://www.topografix.com/GPX/1/1" xmlns:xsi="http://www.w3.org/2001/XMLSchema-instance" xsi:schemaLocation="http://www.topografix.com/GPX/1/1 http://www.topografix.com/GPX/1/1/gpx.xsd" version="1.1" creator="VisuGPX - https://www.visugpx.com">
  <metadata>
    <name>Pourrieres- Puits d'Auzon 33km</name>
    <desc><![CDATA[Parcours au départ de Pourrières vers puits d'Auzon. Montée raide sur les 3 premiers km, puis parcours sans réelles difficultés. Quelques courts passages un peu techniques]]></desc>
  </metadata>
  <trk>
    <name><![CDATA[2021-03-21 08:33]]></name>
    <extensions>
      <line xmlns="http://www.topografix.com/GPX/gpx_style/0/2">
        <color>0000FF</color>
        <width>4</width>
      </line>
    </extensions>
    <trkseg>
      <trkpt lat="43.50656" lon="5.73432">
        <ele>261.17</ele>
        <time>2021-03-21T07:42:11Z</time>
      </trkpt>
      <trkpt lat="43.50674" lon="5.7342">
        <ele>264.57</ele>
        <time>2021-03-21T07:42:19Z</time>
      </trkpt>
      <trkpt lat="43.50691" lon="5.73411">
        <ele>267.11</ele>
        <time>2021-03-21T07:42:26Z</time>
      </trkpt>
      <trkpt lat="43.50709" lon="5.73402">
        <ele>269.53</ele>
        <time>2021-03-21T07:42:33Z</time>
      </trkpt>
      <trkpt lat="43.50725" lon="5.73392">
        <ele>270.33</ele>
        <time>2021-03-21T07:42:40Z</time>
      </trkpt>
      <trkpt lat="43.50743" lon="5.73382">
        <ele>270.28</ele>
        <time>2021-03-21T07:42:46Z</time>
      </trkpt>
      <trkpt lat="43.5076" lon="5.73372">
        <ele>270.79</ele>
        <time>2021-03-21T07:42:52Z</time>
      </trkpt>
      <trkpt lat="43.50778" lon="5.73361">
        <ele>269.1</ele>
        <time>2021-03-21T07:42:58Z</time>
      </trkpt>
      <trkpt lat="43.50797" lon="5.7335">
        <ele>269.3</ele>
        <time>2021-03-21T07:43:05Z</time>
      </trkpt>
      <trkpt lat="43.50816" lon="5.7334">
        <ele>270.6</ele>
        <time>2021-03-21T07:43:12Z</time>
      </trkpt>
      <trkpt lat="43.50833" lon="5.73329">
        <ele>270.74</ele>
        <time>2021-03-21T07:43:18Z</time>
      </trkpt>
      <trkpt lat="43.50851" lon="5.7332">
        <ele>270.1</ele>
        <time>2021-03-21T07:43:23Z</time>
      </trkpt>
      <trkpt lat="43.50872" lon="5.73314">
        <ele>269.92</ele>
        <time>2021-03-21T07:43:29Z</time>
      </trkpt>
      <trkpt lat="43.5089" lon="5.73313">
        <ele>269.92</ele>
        <time>2021-03-21T07:43:34Z</time>
      </trkpt>
      <trkpt lat="43.50911" lon="5.73314">
        <ele>271.02</ele>
        <time>2021-03-21T07:43:40Z</time>
      </trkpt>
      <trkpt lat="43.50931" lon="5.73316">
        <ele>271.52</ele>
        <time>2021-03-21T07:43:46Z</time>
      </trkpt>
      <trkpt lat="43.50952" lon="5.73319">
        <ele>271.51</ele>
        <time>2021-03-21T07:43:52Z</time>
      </trkpt>
      <trkpt lat="43.5097" lon="5.73324">
        <ele>271.21</ele>
        <time>2021-03-21T07:43:57Z</time>
      </trkpt>
      <trkpt lat="43.50991" lon="5.73328">
        <ele>272.18</ele>
        <time>2021-03-21T07:44:03Z</time>
      </trkpt>
      <trkpt lat="43.51011" lon="5.7333">
        <ele>275.69</ele>
        <time>2021-03-21T07:44:09Z</time>
      </trkpt>
      <trkpt lat="43.51028" lon="5.7332">
        <ele>274.24</ele>
        <time>2021-03-21T07:44:14Z</time>
      </trkpt>
      <trkpt lat="43.51048" lon="5.73311">
        <ele>273.69</ele>
        <time>2021-03-21T07:44:20Z</time>
      </trkpt>
      <trkpt lat="43.51066" lon="5.73303">
        <ele>274.1</ele>
        <time>2021-03-21T07:44:26Z</time>
      </trkpt>
      <trkpt lat="43.51084" lon="5.73294">
        <ele>275.42</ele>
        <time>2021-03-21T07:44:32Z</time>
      </trkpt>
      <trkpt lat="43.51104" lon="5.73284">
        <ele>277.29</ele>
        <time>2021-03-21T07:44:39Z</time>
      </trkpt>
      <trkpt lat="43.51123" lon="5.73279">
        <ele>279.24</ele>
        <time>2021-03-21T07:44:46Z</time>
      </trkpt>
      <trkpt lat="43.51143" lon="5.73276">
        <ele>280.56</ele>
        <time>2021-03-21T07:44:53Z</time>
      </trkpt>
      <trkpt lat="43.51162" lon="5.73273">
        <ele>280.2</ele>
        <time>2021-03-21T07:45:01Z</time>
      </trkpt>
      <trkpt lat="43.5118" lon="5.73264">
        <ele>284.12</ele>
        <time>2021-03-21T07:45:11Z</time>
      </trkpt>
      <trkpt lat="43.51197" lon="5.73249">
        <ele>286.35</ele>
        <time>2021-03-21T07:45:20Z</time>
      </trkpt>
      <trkpt lat="43.51214" lon="5.73234">
        <ele>287.94</ele>
        <time>2021-03-21T07:45:29Z</time>
      </trkpt>
      <trkpt lat="43.51231" lon="5.73223">
        <ele>288.24</ele>
        <time>2021-03-21T07:45:38Z</time>
      </trkpt>
      <trkpt lat="43.51246" lon="5.7321">
        <ele>287.77</ele>
        <time>2021-03-21T07:45:46Z</time>
      </trkpt>
      <trkpt lat="43.51264" lon="5.73202">
        <ele>289.88</ele>
        <time>2021-03-21T07:45:55Z</time>
      </trkpt>
      <trkpt lat="43.51282" lon="5.73193">
        <ele>292.33</ele>
        <time>2021-03-21T07:46:05Z</time>
      </trkpt>
      <trkpt lat="43.513" lon="5.7319">
        <ele>297.31</ele>
        <time>2021-03-21T07:46:15Z</time>
      </trkpt>
      <trkpt lat="43.51317" lon="5.73179">
        <ele>301.79</ele>
        <time>2021-03-21T07:46:24Z</time>
      </trkpt>
      <trkpt lat="43.51334" lon="5.73163">
        <ele>303.55</ele>
        <time>2021-03-21T07:46:31Z</time>
      </trkpt>
      <trkpt lat="43.51349" lon="5.73147">
        <ele>301.1</ele>
        <time>2021-03-21T07:46:39Z</time>
      </trkpt>
      <trkpt lat="43.51364" lon="5.73131">
        <ele>300.32</ele>
        <time>2021-03-21T07:46:48Z</time>
      </trkpt>
      <trkpt lat="43.51381" lon="5.73117">
        <ele>299.69</ele>
        <time>2021-03-21T07:46:56Z</time>
      </trkpt>
      <trkpt lat="43.514" lon="5.73107">
        <ele>300.32</ele>
        <time>2021-03-21T07:47:05Z</time>
      </trkpt>
      <trkpt lat="43.51417" lon="5.73099">
        <ele>301.6</ele>
        <time>2021-03-21T07:47:13Z</time>
      </trkpt>
      <trkpt lat="43.51435" lon="5.7309">
        <ele>303.45</ele>
        <time>2021-03-21T07:47:22Z</time>
      </trkpt>
      <trkpt lat="43.51451" lon="5.73076">
        <ele>305.83</ele>
        <time>2021-03-21T07:47:32Z</time>
      </trkpt>
      <trkpt lat="43.51467" lon="5.73061">
        <ele>310.54</ele>
        <time>2021-03-21T07:47:43Z</time>
      </trkpt>
      <trkpt lat="43.51482" lon="5.73043">
        <ele>313.71</ele>
        <time>2021-03-21T07:47:52Z</time>
      </trkpt>
      <trkpt lat="43.51497" lon="5.73024">
        <ele>315.51</ele>
        <time>2021-03-21T07:48:00Z</time>
      </trkpt>
      <trkpt lat="43.51511" lon="5.73006">
        <ele>315.52</ele>
        <time>2021-03-21T07:48:08Z</time>
      </trkpt>
      <trkpt lat="43.51524" lon="5.72987">
        <ele>314.17</ele>
        <time>2021-03-21T07:48:17Z</time>
      </trkpt>
      <trkpt lat="43.51539" lon="5.72971">
        <ele>313.81</ele>
        <time>2021-03-21T07:48:26Z</time>
      </trkpt>
      <trkpt lat="43.51557" lon="5.72967">
        <ele>317.66</ele>
        <time>2021-03-21T07:48:38Z</time>
      </trkpt>
      <trkpt lat="43.51578" lon="5.72964">
        <ele>320.76</ele>
        <time>2021-03-21T07:48:46Z</time>
      </trkpt>
      <trkpt lat="43.51597" lon="5.72951">
        <ele>324.69</ele>
        <time>2021-03-21T07:48:51Z</time>
      </trkpt>
      <trkpt lat="43.51616" lon="5.7294">
        <ele>324.51</ele>
        <time>2021-03-21T07:48:55Z</time>
      </trkpt>
      <trkpt lat="43.51635" lon="5.72937">
        <ele>326.51</ele>
        <time>2021-03-21T07:48:59Z</time>
      </trkpt>
      <trkpt lat="43.51656" lon="5.72933">
        <ele>325.29</ele>
        <time>2021-03-21T07:49:03Z</time>
      </trkpt>
      <trkpt lat="43.51678" lon="5.72928">
        <ele>319.81</ele>
        <time>2021-03-21T07:49:07Z</time>
      </trkpt>
      <trkpt lat="43.51696" lon="5.72925">
        <ele>316.24</ele>
        <time>2021-03-21T07:49:11Z</time>
      </trkpt>
      <trkpt lat="43.51717" lon="5.72922">
        <ele>311.28</ele>
        <time>2021-03-21T07:49:16Z</time>
      </trkpt>
      <trkpt lat="43.51738" lon="5.72919">
        <ele>304.8</ele>
        <time>2021-03-21T07:49:21Z</time>
      </trkpt>
      <trkpt lat="43.51759" lon="5.72916">
        <ele>300.53</ele>
        <time>2021-03-21T07:49:26Z</time>
      </trkpt>
      <trkpt lat="43.51778" lon="5.72914">
        <ele>299.87</ele>
        <time>2021-03-21T07:49:31Z</time>
      </trkpt>
      <trkpt lat="43.51796" lon="5.7291">
        <ele>299.2</ele>
        <time>2021-03-21T07:49:36Z</time>
      </trkpt>
      <trkpt lat="43.51817" lon="5.72907">
        <ele>295.1</ele>
        <time>2021-03-21T07:49:42Z</time>
      </trkpt>
      <trkpt lat="43.51837" lon="5.72904">
        <ele>293.81</ele>
        <time>2021-03-21T07:49:48Z</time>
      </trkpt>
      <trkpt lat="43.51855" lon="5.72901">
        <ele>294.93</ele>
        <time>2021-03-21T07:49:54Z</time>
      </trkpt>
      <trkpt lat="43.51874" lon="5.729">
        <ele>295.04</ele>
        <time>2021-03-21T07:50:01Z</time>
      </trkpt>
      <trkpt lat="43.51894" lon="5.729">
        <ele>296.79</ele>
        <time>2021-03-21T07:50:09Z</time>
      </trkpt>
      <trkpt lat="43.51913" lon="5.72898">
        <ele>302.86</ele>
        <time>2021-03-21T07:50:20Z</time>
      </trkpt>
      <trkpt lat="43.51931" lon="5.72899">
        <ele>303.68</ele>
        <time>2021-03-21T07:50:30Z</time>
      </trkpt>
      <trkpt lat="43.5195" lon="5.72902">
        <ele>306.58</ele>
        <time>2021-03-21T07:50:42Z</time>
      </trkpt>
      <trkpt lat="43.51968" lon="5.72904">
        <ele>312.71</ele>
        <time>2021-03-21T07:50:57Z</time>
      </trkpt>
      <trkpt lat="43.51986" lon="5.72913">
        <ele>317.65</ele>
        <time>2021-03-21T07:51:11Z</time>
      </trkpt>
      <trkpt lat="43.52004" lon="5.72918">
        <ele>321.66</ele>
        <time>2021-03-21T07:51:25Z</time>
      </trkpt>
      <trkpt lat="43.52022" lon="5.72911">
        <ele>323.39</ele>
        <time>2021-03-21T07:51:37Z</time>
      </trkpt>
      <trkpt lat="43.52041" lon="5.72908">
        <ele>326.82</ele>
        <time>2021-03-21T07:51:48Z</time>
      </trkpt>
      <trkpt lat="43.52059" lon="5.7291">
        <ele>330.38</ele>
        <time>2021-03-21T07:52:00Z</time>
      </trkpt>
      <trkpt lat="43.52077" lon="5.72918">
        <ele>326.68</ele>
        <time>2021-03-21T07:52:12Z</time>
      </trkpt>
      <trkpt lat="43.52092" lon="5.72934">
        <ele>326.31</ele>
        <time>2021-03-21T07:52:26Z</time>
      </trkpt>
      <trkpt lat="43.52109" lon="5.72945">
        <ele>329.92</ele>
        <time>2021-03-21T07:52:41Z</time>
      </trkpt>
      <trkpt lat="43.52128" lon="5.72949">
        <ele>332.07</ele>
        <time>2021-03-21T07:52:55Z</time>
      </trkpt>
      <trkpt lat="43.52147" lon="5.72952">
        <ele>333.05</ele>
        <time>2021-03-21T07:53:08Z</time>
      </trkpt>
      <trkpt lat="43.52166" lon="5.72949">
        <ele>334.3</ele>
        <time>2021-03-21T07:53:21Z</time>
      </trkpt>
      <trkpt lat="43.52184" lon="5.72945">
        <ele>336.7</ele>
        <time>2021-03-21T07:53:35Z</time>
      </trkpt>
      <trkpt lat="43.52202" lon="5.72938">
        <ele>340.5</ele>
        <time>2021-03-21T07:53:51Z</time>
      </trkpt>
      <trkpt lat="43.5222" lon="5.72929">
        <ele>342.56</ele>
        <time>2021-03-21T07:54:05Z</time>
      </trkpt>
      <trkpt lat="43.52238" lon="5.7292">
        <ele>344.52</ele>
        <time>2021-03-21T07:54:19Z</time>
      </trkpt>
      <trkpt lat="43.52257" lon="5.72916">
        <ele>346.01</ele>
        <time>2021-03-21T07:54:33Z</time>
      </trkpt>
      <trkpt lat="43.52276" lon="5.7291">
        <ele>347.3</ele>
        <time>2021-03-21T07:54:47Z</time>
      </trkpt>
      <trkpt lat="43.52294" lon="5.72915">
        <ele>349.86</ele>
        <time>2021-03-21T07:55:00Z</time>
      </trkpt>
      <trkpt lat="43.52313" lon="5.7291">
        <ele>351.15</ele>
        <time>2021-03-21T07:55:13Z</time>
      </trkpt>
      <trkpt lat="43.52331" lon="5.72906">
        <ele>351.48</ele>
        <time>2021-03-21T07:55:25Z</time>
      </trkpt>
      <trkpt lat="43.5235" lon="5.72902">
        <ele>350.31</ele>
        <time>2021-03-21T07:55:35Z</time>
      </trkpt>
      <trkpt lat="43.52369" lon="5.72901">
        <ele>347.77</ele>
        <time>2021-03-21T07:55:40Z</time>
      </trkpt>
      <trkpt lat="43.52388" lon="5.72897">
        <ele>347.17</ele>
        <time>2021-03-21T07:55:47Z</time>
      </trkpt>
      <trkpt lat="43.52407" lon="5.72897">
        <ele>348.38</ele>
        <time>2021-03-21T07:55:56Z</time>
      </trkpt>
      <trkpt lat="43.52425" lon="5.72902">
        <ele>350.05</ele>
        <time>2021-03-21T07:56:07Z</time>
      </trkpt>
      <trkpt lat="43.52443" lon="5.72908">
        <ele>351.93</ele>
        <time>2021-03-21T07:56:21Z</time>
      </trkpt>
      <trkpt lat="43.52461" lon="5.72915">
        <ele>356.06</ele>
        <time>2021-03-21T07:56:36Z</time>
      </trkpt>
      <trkpt lat="43.52479" lon="5.72921">
        <ele>358.62</ele>
        <time>2021-03-21T07:56:56Z</time>
      </trkpt>
      <trkpt lat="43.52497" lon="5.72927">
        <ele>362.19</ele>
        <time>2021-03-21T07:57:13Z</time>
      </trkpt>
      <trkpt lat="43.52516" lon="5.72922">
        <ele>362.92</ele>
        <time>2021-03-21T07:57:31Z</time>
      </trkpt>
      <trkpt lat="43.52526" lon="5.72942">
        <ele>366.7</ele>
        <time>2021-03-21T07:57:53Z</time>
      </trkpt>
      <trkpt lat="43.52523" lon="5.72969">
        <ele>368.6</ele>
        <time>2021-03-21T07:58:15Z</time>
      </trkpt>
      <trkpt lat="43.52523" lon="5.72994">
        <ele>370.3</ele>
        <time>2021-03-21T07:58:29Z</time>
      </trkpt>
      <trkpt lat="43.52525" lon="5.73019">
        <ele>373.78</ele>
        <time>2021-03-21T07:58:44Z</time>
      </trkpt>
      <trkpt lat="43.52524" lon="5.73045">
        <ele>377.28</ele>
        <time>2021-03-21T07:58:59Z</time>
      </trkpt>
      <trkpt lat="43.52522" lon="5.73071">
        <ele>380.68</ele>
        <time>2021-03-21T07:59:14Z</time>
      </trkpt>
      <trkpt lat="43.5252" lon="5.73096">
        <ele>384.09</ele>
        <time>2021-03-21T07:59:28Z</time>
      </trkpt>
      <trkpt lat="43.5252" lon="5.73121">
        <ele>386.5</ele>
        <time>2021-03-21T07:59:42Z</time>
      </trkpt>
      <trkpt lat="43.5252" lon="5.73147">
        <ele>388.92</ele>
        <time>2021-03-21T07:59:56Z</time>
      </trkpt>
      <trkpt lat="43.52522" lon="5.73172">
        <ele>391.28</ele>
        <time>2021-03-21T08:00:10Z</time>
      </trkpt>
      <trkpt lat="43.52527" lon="5.73197">
        <ele>393.7</ele>
        <time>2021-03-21T08:00:24Z</time>
      </trkpt>
      <trkpt lat="43.52531" lon="5.73223">
        <ele>396.54</ele>
        <time>2021-03-21T08:00:38Z</time>
      </trkpt>
      <trkpt lat="43.52536" lon="5.73248">
        <ele>399.12</ele>
        <time>2021-03-21T08:00:51Z</time>
      </trkpt>
      <trkpt lat="43.52547" lon="5.73267">
        <ele>402.67</ele>
        <time>2021-03-21T08:01:05Z</time>
      </trkpt>
      <trkpt lat="43.52566" lon="5.73266">
        <ele>405.59</ele>
        <time>2021-03-21T08:01:18Z</time>
      </trkpt>
      <trkpt lat="43.52583" lon="5.73254">
        <ele>406.72</ele>
        <time>2021-03-21T08:01:32Z</time>
      </trkpt>
      <trkpt lat="43.526" lon="5.73244">
        <ele>408.12</ele>
        <time>2021-03-21T08:01:45Z</time>
      </trkpt>
      <trkpt lat="43.52617" lon="5.73235">
        <ele>409.52</ele>
        <time>2021-03-21T08:01:57Z</time>
      </trkpt>
      <trkpt lat="43.52635" lon="5.73226">
        <ele>411.4</ele>
        <time>2021-03-21T08:04:27Z</time>
      </trkpt>
      <trkpt lat="43.52655" lon="5.73222">
        <ele>412.04</ele>
        <time>2021-03-21T08:04:39Z</time>
      </trkpt>
      <trkpt lat="43.52673" lon="5.73221">
        <ele>411.85</ele>
        <time>2021-03-21T08:04:49Z</time>
      </trkpt>
      <trkpt lat="43.52693" lon="5.73224">
        <ele>410.67</ele>
        <time>2021-03-21T08:04:58Z</time>
      </trkpt>
      <trkpt lat="43.52712" lon="5.7323">
        <ele>410.19</ele>
        <time>2021-03-21T08:05:06Z</time>
      </trkpt>
      <trkpt lat="43.52731" lon="5.73235">
        <ele>410.1</ele>
        <time>2021-03-21T08:05:13Z</time>
      </trkpt>
      <trkpt lat="43.52751" lon="5.7324">
        <ele>409.89</ele>
        <time>2021-03-21T08:05:20Z</time>
      </trkpt>
      <trkpt lat="43.5277" lon="5.73243">
        <ele>408.87</ele>
        <time>2021-03-21T08:05:26Z</time>
      </trkpt>
      <trkpt lat="43.5279" lon="5.73245">
        <ele>409.65</ele>
        <time>2021-03-21T08:05:33Z</time>
      </trkpt>
      <trkpt lat="43.52808" lon="5.73239">
        <ele>409.11</ele>
        <time>2021-03-21T08:05:39Z</time>
      </trkpt>
      <trkpt lat="43.52826" lon="5.7323">
        <ele>408.95</ele>
        <time>2021-03-21T08:05:44Z</time>
      </trkpt>
      <trkpt lat="43.52843" lon="5.73222">
        <ele>408.49</ele>
        <time>2021-03-21T08:05:49Z</time>
      </trkpt>
      <trkpt lat="43.52862" lon="5.73214">
        <ele>408.47</ele>
        <time>2021-03-21T08:05:55Z</time>
      </trkpt>
      <trkpt lat="43.52881" lon="5.73214">
        <ele>407.69</ele>
        <time>2021-03-21T08:06:01Z</time>
      </trkpt>
      <trkpt lat="43.52901" lon="5.73223">
        <ele>408.06</ele>
        <time>2021-03-21T08:06:07Z</time>
      </trkpt>
      <trkpt lat="43.52919" lon="5.73235">
        <ele>410.49</ele>
        <time>2021-03-21T08:06:13Z</time>
      </trkpt>
      <trkpt lat="43.52938" lon="5.73243">
        <ele>412.49</ele>
        <time>2021-03-21T08:06:21Z</time>
      </trkpt>
      <trkpt lat="43.52959" lon="5.7324">
        <ele>412.3</ele>
        <time>2021-03-21T08:06:29Z</time>
      </trkpt>
      <trkpt lat="43.52976" lon="5.73229">
        <ele>411.03</ele>
        <time>2021-03-21T08:06:37Z</time>
      </trkpt>
      <trkpt lat="43.52993" lon="5.73218">
        <ele>411.04</ele>
        <time>2021-03-21T08:06:45Z</time>
      </trkpt>
      <trkpt lat="43.53007" lon="5.73198">
        <ele>411.73</ele>
        <time>2021-03-21T08:06:53Z</time>
      </trkpt>
      <trkpt lat="43.53017" lon="5.73174">
        <ele>412.12</ele>
        <time>2021-03-21T08:07:01Z</time>
      </trkpt>
      <trkpt lat="43.53024" lon="5.7315">
        <ele>412.56</ele>
        <time>2021-03-21T08:07:08Z</time>
      </trkpt>
      <trkpt lat="43.5303" lon="5.73126">
        <ele>413.39</ele>
        <time>2021-03-21T08:07:15Z</time>
      </trkpt>
      <trkpt lat="43.5304" lon="5.73101">
        <ele>414.36</ele>
        <time>2021-03-21T08:07:23Z</time>
      </trkpt>
      <trkpt lat="43.53051" lon="5.73077">
        <ele>415.23</ele>
        <time>2021-03-21T08:07:31Z</time>
      </trkpt>
      <trkpt lat="43.5306" lon="5.73054">
        <ele>415.52</ele>
        <time>2021-03-21T08:07:38Z</time>
      </trkpt>
      <trkpt lat="43.53069" lon="5.73032">
        <ele>416.03</ele>
        <time>2021-03-21T08:07:45Z</time>
      </trkpt>
      <trkpt lat="43.53078" lon="5.73009">
        <ele>416.64</ele>
        <time>2021-03-21T08:07:52Z</time>
      </trkpt>
      <trkpt lat="43.53086" lon="5.72985">
        <ele>417.22</ele>
        <time>2021-03-21T08:07:59Z</time>
      </trkpt>
      <trkpt lat="43.53092" lon="5.72959">
        <ele>418</ele>
        <time>2021-03-21T08:08:06Z</time>
      </trkpt>
      <trkpt lat="43.53095" lon="5.72934">
        <ele>418.43</ele>
        <time>2021-03-21T08:08:13Z</time>
      </trkpt>
      <trkpt lat="43.53098" lon="5.72907">
        <ele>419.37</ele>
        <time>2021-03-21T08:08:20Z</time>
      </trkpt>
      <trkpt lat="43.531" lon="5.72879">
        <ele>419.6</ele>
        <time>2021-03-21T08:08:27Z</time>
      </trkpt>
      <trkpt lat="43.53102" lon="5.7285">
        <ele>419.18</ele>
        <time>2021-03-21T08:08:34Z</time>
      </trkpt>
      <trkpt lat="43.53107" lon="5.72824">
        <ele>419.74</ele>
        <time>2021-03-21T08:08:41Z</time>
      </trkpt>
      <trkpt lat="43.5311" lon="5.72796">
        <ele>420.02</ele>
        <time>2021-03-21T08:08:48Z</time>
      </trkpt>
      <trkpt lat="43.53116" lon="5.7277">
        <ele>420.55</ele>
        <time>2021-03-21T08:08:55Z</time>
      </trkpt>
      <trkpt lat="43.53122" lon="5.72744">
        <ele>420.84</ele>
        <time>2021-03-21T08:09:02Z</time>
      </trkpt>
      <trkpt lat="43.53137" lon="5.72729">
        <ele>419.98</ele>
        <time>2021-03-21T08:09:08Z</time>
      </trkpt>
      <trkpt lat="43.53155" lon="5.72714">
        <ele>418.8</ele>
        <time>2021-03-21T08:09:14Z</time>
      </trkpt>
      <trkpt lat="43.53173" lon="5.72703">
        <ele>418.92</ele>
        <time>2021-03-21T08:09:20Z</time>
      </trkpt>
      <trkpt lat="43.53188" lon="5.72689">
        <ele>419.58</ele>
        <time>2021-03-21T08:09:26Z</time>
      </trkpt>
      <trkpt lat="43.532" lon="5.72667">
        <ele>419.23</ele>
        <time>2021-03-21T08:09:32Z</time>
      </trkpt>
      <trkpt lat="43.53216" lon="5.7265">
        <ele>418.09</ele>
        <time>2021-03-21T08:09:38Z</time>
      </trkpt>
      <trkpt lat="43.53233" lon="5.72637">
        <ele>418.07</ele>
        <time>2021-03-21T08:09:44Z</time>
      </trkpt>
      <trkpt lat="43.5325" lon="5.72624">
        <ele>417.92</ele>
        <time>2021-03-21T08:09:50Z</time>
      </trkpt>
      <trkpt lat="43.53265" lon="5.72609">
        <ele>418.77</ele>
        <time>2021-03-21T08:09:56Z</time>
      </trkpt>
      <trkpt lat="43.5328" lon="5.72592">
        <ele>419</ele>
        <time>2021-03-21T08:10:02Z</time>
      </trkpt>
      <trkpt lat="43.53292" lon="5.72574">
        <ele>419.96</ele>
        <time>2021-03-21T08:10:08Z</time>
      </trkpt>
      <trkpt lat="43.53305" lon="5.72551">
        <ele>420.55</ele>
        <time>2021-03-21T08:10:15Z</time>
      </trkpt>
      <trkpt lat="43.53318" lon="5.72534">
        <ele>421.04</ele>
        <time>2021-03-21T08:10:21Z</time>
      </trkpt>
      <trkpt lat="43.53335" lon="5.72519">
        <ele>420.47</ele>
        <time>2021-03-21T08:10:27Z</time>
      </trkpt>
      <trkpt lat="43.53355" lon="5.72507">
        <ele>420</ele>
        <time>2021-03-21T08:10:33Z</time>
      </trkpt>
      <trkpt lat="43.53372" lon="5.72496">
        <ele>419.02</ele>
        <time>2021-03-21T08:10:38Z</time>
      </trkpt>
      <trkpt lat="43.53391" lon="5.72496">
        <ele>419.32</ele>
        <time>2021-03-21T08:10:43Z</time>
      </trkpt>
      <trkpt lat="43.53409" lon="5.72505">
        <ele>422.01</ele>
        <time>2021-03-21T08:10:49Z</time>
      </trkpt>
      <trkpt lat="43.53428" lon="5.72513">
        <ele>424.6</ele>
        <time>2021-03-21T08:10:55Z</time>
      </trkpt>
      <trkpt lat="43.53447" lon="5.72519">
        <ele>427.99</ele>
        <time>2021-03-21T08:11:02Z</time>
      </trkpt>
      <trkpt lat="43.53466" lon="5.72521">
        <ele>430.16</ele>
        <time>2021-03-21T08:11:09Z</time>
      </trkpt>
      <trkpt lat="43.53486" lon="5.72521">
        <ele>428.74</ele>
        <time>2021-03-21T08:11:16Z</time>
      </trkpt>
      <trkpt lat="43.53506" lon="5.72517">
        <ele>427.72</ele>
        <time>2021-03-21T08:11:23Z</time>
      </trkpt>
      <trkpt lat="43.53525" lon="5.72514">
        <ele>427.93</ele>
        <time>2021-03-21T08:11:30Z</time>
      </trkpt>
      <trkpt lat="43.53545" lon="5.72513">
        <ele>426.63</ele>
        <time>2021-03-21T08:11:37Z</time>
      </trkpt>
      <trkpt lat="43.53564" lon="5.72518">
        <ele>430.56</ele>
        <time>2021-03-21T08:11:45Z</time>
      </trkpt>
      <trkpt lat="43.53583" lon="5.72525">
        <ele>430.62</ele>
        <time>2021-03-21T08:11:51Z</time>
      </trkpt>
      <trkpt lat="43.53602" lon="5.72532">
        <ele>430.62</ele>
        <time>2021-03-21T08:11:57Z</time>
      </trkpt>
      <trkpt lat="43.53622" lon="5.72539">
        <ele>430.75</ele>
        <time>2021-03-21T08:12:03Z</time>
      </trkpt>
      <trkpt lat="43.53639" lon="5.72549">
        <ele>430.74</ele>
        <time>2021-03-21T08:12:08Z</time>
      </trkpt>
      <trkpt lat="43.53657" lon="5.72564">
        <ele>431.43</ele>
        <time>2021-03-21T08:12:14Z</time>
      </trkpt>
      <trkpt lat="43.53676" lon="5.72574">
        <ele>432.13</ele>
        <time>2021-03-21T08:12:20Z</time>
      </trkpt>
      <trkpt lat="43.53695" lon="5.72584">
        <ele>433.2</ele>
        <time>2021-03-21T08:12:26Z</time>
      </trkpt>
      <trkpt lat="43.53713" lon="5.72595">
        <ele>433.19</ele>
        <time>2021-03-21T08:12:32Z</time>
      </trkpt>
      <trkpt lat="43.5373" lon="5.72602">
        <ele>431.88</ele>
        <time>2021-03-21T08:12:37Z</time>
      </trkpt>
      <trkpt lat="43.53749" lon="5.72606">
        <ele>430.41</ele>
        <time>2021-03-21T08:12:42Z</time>
      </trkpt>
      <trkpt lat="43.53768" lon="5.72609">
        <ele>429.33</ele>
        <time>2021-03-21T08:12:47Z</time>
      </trkpt>
      <trkpt lat="43.53787" lon="5.72611">
        <ele>428.26</ele>
        <time>2021-03-21T08:12:52Z</time>
      </trkpt>
      <trkpt lat="43.53807" lon="5.72611">
        <ele>428.2</ele>
        <time>2021-03-21T08:12:59Z</time>
      </trkpt>
      <trkpt lat="43.53826" lon="5.72619">
        <ele>426.66</ele>
        <time>2021-03-21T08:13:04Z</time>
      </trkpt>
      <trkpt lat="43.53844" lon="5.72604">
        <ele>428.53</ele>
        <time>2021-03-21T08:13:10Z</time>
      </trkpt>
      <trkpt lat="43.53861" lon="5.72593">
        <ele>428.98</ele>
        <time>2021-03-21T08:13:16Z</time>
      </trkpt>
      <trkpt lat="43.5387" lon="5.72571">
        <ele>428.63</ele>
        <time>2021-03-21T08:13:22Z</time>
      </trkpt>
      <trkpt lat="43.53882" lon="5.72548">
        <ele>428.49</ele>
        <time>2021-03-21T08:13:29Z</time>
      </trkpt>
      <trkpt lat="43.53891" lon="5.72526">
        <ele>429.72</ele>
        <time>2021-03-21T08:13:38Z</time>
      </trkpt>
      <trkpt lat="43.53905" lon="5.72506">
        <ele>429.37</ele>
        <time>2021-03-21T08:13:46Z</time>
      </trkpt>
      <trkpt lat="43.53917" lon="5.72485">
        <ele>431.27</ele>
        <time>2021-03-21T08:13:56Z</time>
      </trkpt>
      <trkpt lat="43.53919" lon="5.72458">
        <ele>437</ele>
        <time>2021-03-21T08:14:06Z</time>
      </trkpt>
      <trkpt lat="43.53922" lon="5.72432">
        <ele>441.55</ele>
        <time>2021-03-21T08:14:16Z</time>
      </trkpt>
      <trkpt lat="43.53929" lon="5.72409">
        <ele>443.28</ele>
        <time>2021-03-21T08:14:25Z</time>
      </trkpt>
      <trkpt lat="43.5394" lon="5.72388">
        <ele>444.36</ele>
        <time>2021-03-21T08:14:35Z</time>
      </trkpt>
      <trkpt lat="43.5395" lon="5.72367">
        <ele>443.86</ele>
        <time>2021-03-21T08:14:44Z</time>
      </trkpt>
      <trkpt lat="43.5396" lon="5.72345">
        <ele>446.82</ele>
        <time>2021-03-21T08:14:57Z</time>
      </trkpt>
      <trkpt lat="43.53972" lon="5.72324">
        <ele>446.05</ele>
        <time>2021-03-21T08:15:05Z</time>
      </trkpt>
      <trkpt lat="43.53985" lon="5.72304">
        <ele>443.85</ele>
        <time>2021-03-21T08:15:13Z</time>
      </trkpt>
      <trkpt lat="43.53997" lon="5.72285">
        <ele>441.82</ele>
        <time>2021-03-21T08:15:21Z</time>
      </trkpt>
      <trkpt lat="43.5401" lon="5.72266">
        <ele>442.61</ele>
        <time>2021-03-21T08:15:31Z</time>
      </trkpt>
      <trkpt lat="43.54021" lon="5.72245">
        <ele>444.98</ele>
        <time>2021-03-21T08:15:41Z</time>
      </trkpt>
      <trkpt lat="43.54032" lon="5.72222">
        <ele>448.43</ele>
        <time>2021-03-21T08:15:52Z</time>
      </trkpt>
      <trkpt lat="43.54038" lon="5.72198">
        <ele>453.24</ele>
        <time>2021-03-21T08:16:02Z</time>
      </trkpt>
      <trkpt lat="43.54043" lon="5.72173">
        <ele>457.39</ele>
        <time>2021-03-21T08:16:12Z</time>
      </trkpt>
      <trkpt lat="43.54048" lon="5.72147">
        <ele>460.26</ele>
        <time>2021-03-21T08:16:23Z</time>
      </trkpt>
      <trkpt lat="43.54059" lon="5.72128">
        <ele>463.3</ele>
        <time>2021-03-21T08:16:33Z</time>
      </trkpt>
      <trkpt lat="43.54065" lon="5.72104">
        <ele>464.09</ele>
        <time>2021-03-21T08:16:43Z</time>
      </trkpt>
      <trkpt lat="43.54069" lon="5.72079">
        <ele>466.08</ele>
        <time>2021-03-21T08:16:55Z</time>
      </trkpt>
      <trkpt lat="43.54076" lon="5.72054">
        <ele>468.07</ele>
        <time>2021-03-21T08:17:05Z</time>
      </trkpt>
      <trkpt lat="43.54085" lon="5.72032">
        <ele>468.25</ele>
        <time>2021-03-21T08:17:22Z</time>
      </trkpt>
      <trkpt lat="43.54086" lon="5.72005">
        <ele>467.39</ele>
        <time>2021-03-21T08:18:00Z</time>
      </trkpt>
      <trkpt lat="43.54081" lon="5.71979">
        <ele>468.34</ele>
        <time>2021-03-21T08:18:19Z</time>
      </trkpt>
      <trkpt lat="43.54076" lon="5.71953">
        <ele>464.07</ele>
        <time>2021-03-21T08:20:10Z</time>
      </trkpt>
      <trkpt lat="43.54071" lon="5.71929">
        <ele>463.25</ele>
        <time>2021-03-21T08:20:23Z</time>
      </trkpt>
      <trkpt lat="43.54074" lon="5.71904">
        <ele>461.11</ele>
        <time>2021-03-21T08:20:31Z</time>
      </trkpt>
      <trkpt lat="43.54079" lon="5.71877">
        <ele>459.69</ele>
        <time>2021-03-21T08:20:39Z</time>
      </trkpt>
      <trkpt lat="43.54077" lon="5.71848">
        <ele>458.07</ele>
        <time>2021-03-21T08:20:47Z</time>
      </trkpt>
      <trkpt lat="43.54085" lon="5.71825">
        <ele>456.72</ele>
        <time>2021-03-21T08:20:52Z</time>
      </trkpt>
      <trkpt lat="43.54094" lon="5.71802">
        <ele>454.3</ele>
        <time>2021-03-21T08:20:57Z</time>
      </trkpt>
      <trkpt lat="43.54095" lon="5.71774">
        <ele>450.73</ele>
        <time>2021-03-21T08:21:04Z</time>
      </trkpt>
      <trkpt lat="43.5409" lon="5.71748">
        <ele>449.17</ele>
        <time>2021-03-21T08:21:11Z</time>
      </trkpt>
      <trkpt lat="43.54092" lon="5.71719">
        <ele>449.88</ele>
        <time>2021-03-21T08:21:17Z</time>
      </trkpt>
      <trkpt lat="43.541" lon="5.71691">
        <ele>450.74</ele>
        <time>2021-03-21T08:21:23Z</time>
      </trkpt>
      <trkpt lat="43.54112" lon="5.71673">
        <ele>448.48</ele>
        <time>2021-03-21T08:21:27Z</time>
      </trkpt>
      <trkpt lat="43.54126" lon="5.71654">
        <ele>446.91</ele>
        <time>2021-03-21T08:21:31Z</time>
      </trkpt>
      <trkpt lat="43.54142" lon="5.71633">
        <ele>444.07</ele>
        <time>2021-03-21T08:21:36Z</time>
      </trkpt>
      <trkpt lat="43.54155" lon="5.71612">
        <ele>440.28</ele>
        <time>2021-03-21T08:21:40Z</time>
      </trkpt>
      <trkpt lat="43.54171" lon="5.71598">
        <ele>439.33</ele>
        <time>2021-03-21T08:21:44Z</time>
      </trkpt>
      <trkpt lat="43.54187" lon="5.71581">
        <ele>437.55</ele>
        <time>2021-03-21T08:21:48Z</time>
      </trkpt>
      <trkpt lat="43.54206" lon="5.71564">
        <ele>435.04</ele>
        <time>2021-03-21T08:21:52Z</time>
      </trkpt>
      <trkpt lat="43.54221" lon="5.71547">
        <ele>433.7</ele>
        <time>2021-03-21T08:21:56Z</time>
      </trkpt>
      <trkpt lat="43.54239" lon="5.71532">
        <ele>433.46</ele>
        <time>2021-03-21T08:22:01Z</time>
      </trkpt>
      <trkpt lat="43.54256" lon="5.71514">
        <ele>433.85</ele>
        <time>2021-03-21T08:22:06Z</time>
      </trkpt>
      <trkpt lat="43.54271" lon="5.71498">
        <ele>433.41</ele>
        <time>2021-03-21T08:22:10Z</time>
      </trkpt>
      <trkpt lat="43.54291" lon="5.71482">
        <ele>432.63</ele>
        <time>2021-03-21T08:22:15Z</time>
      </trkpt>
      <trkpt lat="43.54308" lon="5.71469">
        <ele>431.66</ele>
        <time>2021-03-21T08:22:19Z</time>
      </trkpt>
      <trkpt lat="43.54323" lon="5.71455">
        <ele>431.8</ele>
        <time>2021-03-21T08:22:23Z</time>
      </trkpt>
      <trkpt lat="43.54341" lon="5.71447">
        <ele>432.25</ele>
        <time>2021-03-21T08:22:27Z</time>
      </trkpt>
      <trkpt lat="43.54363" lon="5.7145">
        <ele>433.61</ele>
        <time>2021-03-21T08:22:32Z</time>
      </trkpt>
      <trkpt lat="43.54384" lon="5.71455">
        <ele>437.82</ele>
        <time>2021-03-21T08:22:37Z</time>
      </trkpt>
      <trkpt lat="43.54404" lon="5.71455">
        <ele>442.91</ele>
        <time>2021-03-21T08:22:42Z</time>
      </trkpt>
      <trkpt lat="43.54403" lon="5.71428">
        <ele>448.71</ele>
        <time>2021-03-21T08:23:00Z</time>
      </trkpt>
      <trkpt lat="43.54395" lon="5.71403">
        <ele>451.76</ele>
        <time>2021-03-21T08:23:07Z</time>
      </trkpt>
      <trkpt lat="43.54387" lon="5.71378">
        <ele>455.4</ele>
        <time>2021-03-21T08:23:14Z</time>
      </trkpt>
      <trkpt lat="43.5438" lon="5.71355">
        <ele>457.31</ele>
        <time>2021-03-21T08:23:20Z</time>
      </trkpt>
      <trkpt lat="43.54377" lon="5.71326">
        <ele>454.94</ele>
        <time>2021-03-21T08:23:26Z</time>
      </trkpt>
      <trkpt lat="43.5437" lon="5.713">
        <ele>455.44</ele>
        <time>2021-03-21T08:23:32Z</time>
      </trkpt>
      <trkpt lat="43.54363" lon="5.71274">
        <ele>456.85</ele>
        <time>2021-03-21T08:23:39Z</time>
      </trkpt>
      <trkpt lat="43.54358" lon="5.7125">
        <ele>458.67</ele>
        <time>2021-03-21T08:23:45Z</time>
      </trkpt>
      <trkpt lat="43.54363" lon="5.71223">
        <ele>461.03</ele>
        <time>2021-03-21T08:23:51Z</time>
      </trkpt>
      <trkpt lat="43.54373" lon="5.71198">
        <ele>457.72</ele>
        <time>2021-03-21T08:23:57Z</time>
      </trkpt>
      <trkpt lat="43.54384" lon="5.71175">
        <ele>453.9</ele>
        <time>2021-03-21T08:24:04Z</time>
      </trkpt>
      <trkpt lat="43.54391" lon="5.71152">
        <ele>451.73</ele>
        <time>2021-03-21T08:24:11Z</time>
      </trkpt>
      <trkpt lat="43.54402" lon="5.7113">
        <ele>451.02</ele>
        <time>2021-03-21T08:24:18Z</time>
      </trkpt>
      <trkpt lat="43.5441" lon="5.71106">
        <ele>453.03</ele>
        <time>2021-03-21T08:24:25Z</time>
      </trkpt>
      <trkpt lat="43.54419" lon="5.71083">
        <ele>457.32</ele>
        <time>2021-03-21T08:24:32Z</time>
      </trkpt>
      <trkpt lat="43.5443" lon="5.71062">
        <ele>460.42</ele>
        <time>2021-03-21T08:24:38Z</time>
      </trkpt>
      <trkpt lat="43.5444" lon="5.71041">
        <ele>460.78</ele>
        <time>2021-03-21T08:24:44Z</time>
      </trkpt>
      <trkpt lat="43.54451" lon="5.71016">
        <ele>458.79</ele>
        <time>2021-03-21T08:24:50Z</time>
      </trkpt>
      <trkpt lat="43.54465" lon="5.70994">
        <ele>456.9</ele>
        <time>2021-03-21T08:24:55Z</time>
      </trkpt>
      <trkpt lat="43.5448" lon="5.70976">
        <ele>454.76</ele>
        <time>2021-03-21T08:25:00Z</time>
      </trkpt>
      <trkpt lat="43.54493" lon="5.70954">
        <ele>454.61</ele>
        <time>2021-03-21T08:25:06Z</time>
      </trkpt>
      <trkpt lat="43.54501" lon="5.70931">
        <ele>455.42</ele>
        <time>2021-03-21T08:25:12Z</time>
      </trkpt>
      <trkpt lat="43.54512" lon="5.7091">
        <ele>456.95</ele>
        <time>2021-03-21T08:25:17Z</time>
      </trkpt>
      <trkpt lat="43.54526" lon="5.70886">
        <ele>457.16</ele>
        <time>2021-03-21T08:25:23Z</time>
      </trkpt>
      <trkpt lat="43.54535" lon="5.70863">
        <ele>457.55</ele>
        <time>2021-03-21T08:25:28Z</time>
      </trkpt>
      <trkpt lat="43.54543" lon="5.70841">
        <ele>458.33</ele>
        <time>2021-03-21T08:25:34Z</time>
      </trkpt>
      <trkpt lat="43.54554" lon="5.7082">
        <ele>458.63</ele>
        <time>2021-03-21T08:25:40Z</time>
      </trkpt>
      <trkpt lat="43.54564" lon="5.70795">
        <ele>460.66</ele>
        <time>2021-03-21T08:25:47Z</time>
      </trkpt>
      <trkpt lat="43.54574" lon="5.70771">
        <ele>462.96</ele>
        <time>2021-03-21T08:25:54Z</time>
      </trkpt>
      <trkpt lat="43.54584" lon="5.7075">
        <ele>465.11</ele>
        <time>2021-03-21T08:26:01Z</time>
      </trkpt>
      <trkpt lat="43.54589" lon="5.70725">
        <ele>467.31</ele>
        <time>2021-03-21T08:26:08Z</time>
      </trkpt>
      <trkpt lat="43.54599" lon="5.70701">
        <ele>469.34</ele>
        <time>2021-03-21T08:26:15Z</time>
      </trkpt>
      <trkpt lat="43.54608" lon="5.70676">
        <ele>471.77</ele>
        <time>2021-03-21T08:26:22Z</time>
      </trkpt>
      <trkpt lat="43.54618" lon="5.70652">
        <ele>470.96</ele>
        <time>2021-03-21T08:26:29Z</time>
      </trkpt>
      <trkpt lat="43.54625" lon="5.70627">
        <ele>467.64</ele>
        <time>2021-03-21T08:26:36Z</time>
      </trkpt>
      <trkpt lat="43.54629" lon="5.706">
        <ele>466.67</ele>
        <time>2021-03-21T08:26:45Z</time>
      </trkpt>
      <trkpt lat="43.54638" lon="5.70577">
        <ele>460.85</ele>
        <time>2021-03-21T08:26:54Z</time>
      </trkpt>
      <trkpt lat="43.54652" lon="5.7056">
        <ele>456.32</ele>
        <time>2021-03-21T08:27:03Z</time>
      </trkpt>
      <trkpt lat="43.54673" lon="5.70557">
        <ele>454.82</ele>
        <time>2021-03-21T08:27:12Z</time>
      </trkpt>
      <trkpt lat="43.54693" lon="5.70564">
        <ele>456.01</ele>
        <time>2021-03-21T08:27:20Z</time>
      </trkpt>
      <trkpt lat="43.54713" lon="5.70571">
        <ele>459.13</ele>
        <time>2021-03-21T08:27:27Z</time>
      </trkpt>
      <trkpt lat="43.54731" lon="5.70576">
        <ele>460.67</ele>
        <time>2021-03-21T08:27:33Z</time>
      </trkpt>
      <trkpt lat="43.54749" lon="5.70579">
        <ele>463.3</ele>
        <time>2021-03-21T08:27:39Z</time>
      </trkpt>
      <trkpt lat="43.5477" lon="5.70583">
        <ele>464</ele>
        <time>2021-03-21T08:27:45Z</time>
      </trkpt>
      <trkpt lat="43.54788" lon="5.70585">
        <ele>462.28</ele>
        <time>2021-03-21T08:27:50Z</time>
      </trkpt>
      <trkpt lat="43.54806" lon="5.70589">
        <ele>461.58</ele>
        <time>2021-03-21T08:27:54Z</time>
      </trkpt>
      <trkpt lat="43.54825" lon="5.70594">
        <ele>461.86</ele>
        <time>2021-03-21T08:27:58Z</time>
      </trkpt>
      <trkpt lat="43.54844" lon="5.70594">
        <ele>460.62</ele>
        <time>2021-03-21T08:28:02Z</time>
      </trkpt>
      <trkpt lat="43.54865" lon="5.70593">
        <ele>460.89</ele>
        <time>2021-03-21T08:28:07Z</time>
      </trkpt>
      <trkpt lat="43.54886" lon="5.70593">
        <ele>459.75</ele>
        <time>2021-03-21T08:28:11Z</time>
      </trkpt>
      <trkpt lat="43.54904" lon="5.70595">
        <ele>460.21</ele>
        <time>2021-03-21T08:28:15Z</time>
      </trkpt>
      <trkpt lat="43.54922" lon="5.70598">
        <ele>461.24</ele>
        <time>2021-03-21T08:28:20Z</time>
      </trkpt>
      <trkpt lat="43.54941" lon="5.70599">
        <ele>463.8</ele>
        <time>2021-03-21T08:28:26Z</time>
      </trkpt>
      <trkpt lat="43.5496" lon="5.70602">
        <ele>464.52</ele>
        <time>2021-03-21T08:28:31Z</time>
      </trkpt>
      <trkpt lat="43.5498" lon="5.70605">
        <ele>465.17</ele>
        <time>2021-03-21T08:28:37Z</time>
      </trkpt>
      <trkpt lat="43.54999" lon="5.70607">
        <ele>463.85</ele>
        <time>2021-03-21T08:28:43Z</time>
      </trkpt>
      <trkpt lat="43.5502" lon="5.70608">
        <ele>462.8</ele>
        <time>2021-03-21T08:28:49Z</time>
      </trkpt>
      <trkpt lat="43.5504" lon="5.70611">
        <ele>463.27</ele>
        <time>2021-03-21T08:28:55Z</time>
      </trkpt>
      <trkpt lat="43.55058" lon="5.70616">
        <ele>462.22</ele>
        <time>2021-03-21T08:29:00Z</time>
      </trkpt>
      <trkpt lat="43.55079" lon="5.70622">
        <ele>462.16</ele>
        <time>2021-03-21T08:29:05Z</time>
      </trkpt>
      <trkpt lat="43.55099" lon="5.70626">
        <ele>462</ele>
        <time>2021-03-21T08:29:10Z</time>
      </trkpt>
      <trkpt lat="43.55117" lon="5.7063">
        <ele>461.62</ele>
        <time>2021-03-21T08:29:14Z</time>
      </trkpt>
      <trkpt lat="43.55137" lon="5.70634">
        <ele>459.93</ele>
        <time>2021-03-21T08:29:18Z</time>
      </trkpt>
      <trkpt lat="43.55159" lon="5.7064">
        <ele>457.97</ele>
        <time>2021-03-21T08:29:23Z</time>
      </trkpt>
      <trkpt lat="43.55178" lon="5.70645">
        <ele>457.78</ele>
        <time>2021-03-21T08:29:28Z</time>
      </trkpt>
      <trkpt lat="43.55197" lon="5.70649">
        <ele>456.72</ele>
        <time>2021-03-21T08:29:33Z</time>
      </trkpt>
      <trkpt lat="43.55215" lon="5.70654">
        <ele>456.38</ele>
        <time>2021-03-21T08:29:38Z</time>
      </trkpt>
      <trkpt lat="43.55233" lon="5.70657">
        <ele>456.33</ele>
        <time>2021-03-21T08:29:43Z</time>
      </trkpt>
      <trkpt lat="43.55251" lon="5.7066">
        <ele>456.18</ele>
        <time>2021-03-21T08:29:48Z</time>
      </trkpt>
      <trkpt lat="43.55272" lon="5.70663">
        <ele>456.22</ele>
        <time>2021-03-21T08:29:54Z</time>
      </trkpt>
      <trkpt lat="43.55293" lon="5.70666">
        <ele>455.91</ele>
        <time>2021-03-21T08:30:00Z</time>
      </trkpt>
      <trkpt lat="43.55314" lon="5.70668">
        <ele>455.87</ele>
        <time>2021-03-21T08:30:06Z</time>
      </trkpt>
      <trkpt lat="43.55332" lon="5.7067">
        <ele>455.06</ele>
        <time>2021-03-21T08:30:11Z</time>
      </trkpt>
      <trkpt lat="43.55351" lon="5.7067">
        <ele>454.7</ele>
        <time>2021-03-21T08:30:16Z</time>
      </trkpt>
      <trkpt lat="43.55369" lon="5.70669">
        <ele>454.33</ele>
        <time>2021-03-21T08:30:21Z</time>
      </trkpt>
      <trkpt lat="43.55388" lon="5.70665">
        <ele>454.13</ele>
        <time>2021-03-21T08:30:26Z</time>
      </trkpt>
      <trkpt lat="43.55409" lon="5.7066">
        <ele>453.56</ele>
        <time>2021-03-21T08:30:31Z</time>
      </trkpt>
      <trkpt lat="43.55429" lon="5.70652">
        <ele>452.96</ele>
        <time>2021-03-21T08:30:36Z</time>
      </trkpt>
      <trkpt lat="43.55449" lon="5.70644">
        <ele>453.11</ele>
        <time>2021-03-21T08:30:41Z</time>
      </trkpt>
      <trkpt lat="43.55468" lon="5.70634">
        <ele>453.92</ele>
        <time>2021-03-21T08:30:46Z</time>
      </trkpt>
      <trkpt lat="43.55486" lon="5.70624">
        <ele>453.83</ele>
        <time>2021-03-21T08:30:51Z</time>
      </trkpt>
      <trkpt lat="43.55505" lon="5.70616">
        <ele>455.04</ele>
        <time>2021-03-21T08:30:57Z</time>
      </trkpt>
      <trkpt lat="43.55525" lon="5.70609">
        <ele>455.46</ele>
        <time>2021-03-21T08:31:04Z</time>
      </trkpt>
      <trkpt lat="43.55545" lon="5.70603">
        <ele>456.39</ele>
        <time>2021-03-21T08:31:11Z</time>
      </trkpt>
      <trkpt lat="43.55565" lon="5.70597">
        <ele>456.02</ele>
        <time>2021-03-21T08:31:18Z</time>
      </trkpt>
      <trkpt lat="43.55582" lon="5.70587">
        <ele>456.02</ele>
        <time>2021-03-21T08:31:26Z</time>
      </trkpt>
      <trkpt lat="43.55601" lon="5.70577">
        <ele>455.58</ele>
        <time>2021-03-21T08:31:36Z</time>
      </trkpt>
      <trkpt lat="43.5562" lon="5.70586">
        <ele>454.83</ele>
        <time>2021-03-21T08:31:44Z</time>
      </trkpt>
      <trkpt lat="43.55624" lon="5.70616">
        <ele>452.8</ele>
        <time>2021-03-21T08:31:49Z</time>
      </trkpt>
      <trkpt lat="43.55625" lon="5.70643">
        <ele>451.19</ele>
        <time>2021-03-21T08:31:52Z</time>
      </trkpt>
      <trkpt lat="43.55626" lon="5.70675">
        <ele>448.54</ele>
        <time>2021-03-21T08:31:55Z</time>
      </trkpt>
      <trkpt lat="43.55627" lon="5.7071">
        <ele>447.19</ele>
        <time>2021-03-21T08:31:58Z</time>
      </trkpt>
      <trkpt lat="43.55625" lon="5.70736">
        <ele>446.5</ele>
        <time>2021-03-21T08:32:01Z</time>
      </trkpt>
      <trkpt lat="43.55622" lon="5.70761">
        <ele>447</ele>
        <time>2021-03-21T08:32:05Z</time>
      </trkpt>
      <trkpt lat="43.55619" lon="5.70786">
        <ele>449.12</ele>
        <time>2021-03-21T08:32:12Z</time>
      </trkpt>
      <trkpt lat="43.5563" lon="5.70766">
        <ele>449.85</ele>
        <time>2021-03-21T08:32:21Z</time>
      </trkpt>
      <trkpt lat="43.55643" lon="5.70746">
        <ele>450.62</ele>
        <time>2021-03-21T08:32:30Z</time>
      </trkpt>
      <trkpt lat="43.55657" lon="5.70729">
        <ele>450.81</ele>
        <time>2021-03-21T08:32:39Z</time>
      </trkpt>
      <trkpt lat="43.55671" lon="5.70711">
        <ele>452.12</ele>
        <time>2021-03-21T08:32:49Z</time>
      </trkpt>
      <trkpt lat="43.55685" lon="5.70694">
        <ele>453.04</ele>
        <time>2021-03-21T08:32:59Z</time>
      </trkpt>
      <trkpt lat="43.55699" lon="5.70679">
        <ele>454.12</ele>
        <time>2021-03-21T08:33:10Z</time>
      </trkpt>
      <trkpt lat="43.55714" lon="5.70663">
        <ele>455.5</ele>
        <time>2021-03-21T08:33:21Z</time>
      </trkpt>
      <trkpt lat="43.55731" lon="5.70651">
        <ele>457.46</ele>
        <time>2021-03-21T08:33:33Z</time>
      </trkpt>
      <trkpt lat="43.55748" lon="5.70645">
        <ele>458.79</ele>
        <time>2021-03-21T08:33:43Z</time>
      </trkpt>
      <trkpt lat="43.55766" lon="5.70646">
        <ele>464.09</ele>
        <time>2021-03-21T08:33:55Z</time>
      </trkpt>
      <trkpt lat="43.55784" lon="5.70654">
        <ele>470.45</ele>
        <time>2021-03-21T08:34:08Z</time>
      </trkpt>
      <trkpt lat="43.558" lon="5.70666">
        <ele>475.03</ele>
        <time>2021-03-21T08:34:19Z</time>
      </trkpt>
      <trkpt lat="43.55818" lon="5.70672">
        <ele>477.25</ele>
        <time>2021-03-21T08:34:30Z</time>
      </trkpt>
      <trkpt lat="43.55832" lon="5.70655">
        <ele>477.21</ele>
        <time>2021-03-21T08:34:43Z</time>
      </trkpt>
      <trkpt lat="43.55839" lon="5.7063">
        <ele>480</ele>
        <time>2021-03-21T08:34:55Z</time>
      </trkpt>
      <trkpt lat="43.55852" lon="5.70611">
        <ele>480.25</ele>
        <time>2021-03-21T08:35:06Z</time>
      </trkpt>
      <trkpt lat="43.55867" lon="5.70596">
        <ele>480.25</ele>
        <time>2021-03-21T08:35:17Z</time>
      </trkpt>
      <trkpt lat="43.55886" lon="5.70589">
        <ele>481.1</ele>
        <time>2021-03-21T08:35:28Z</time>
      </trkpt>
      <trkpt lat="43.55904" lon="5.70593">
        <ele>483.63</ele>
        <time>2021-03-21T08:35:40Z</time>
      </trkpt>
      <trkpt lat="43.55922" lon="5.706">
        <ele>488.07</ele>
        <time>2021-03-21T08:35:53Z</time>
      </trkpt>
      <trkpt lat="43.5594" lon="5.7061">
        <ele>493.44</ele>
        <time>2021-03-21T08:36:06Z</time>
      </trkpt>
      <trkpt lat="43.55958" lon="5.70614">
        <ele>494.16</ele>
        <time>2021-03-21T08:36:18Z</time>
      </trkpt>
      <trkpt lat="43.55973" lon="5.70598">
        <ele>493.18</ele>
        <time>2021-03-21T08:36:28Z</time>
      </trkpt>
      <trkpt lat="43.55991" lon="5.70588">
        <ele>493.9</ele>
        <time>2021-03-21T08:36:39Z</time>
      </trkpt>
      <trkpt lat="43.56008" lon="5.70579">
        <ele>495.32</ele>
        <time>2021-03-21T08:36:48Z</time>
      </trkpt>
      <trkpt lat="43.56018" lon="5.70556">
        <ele>498.67</ele>
        <time>2021-03-21T08:37:00Z</time>
      </trkpt>
      <trkpt lat="43.56018" lon="5.70529">
        <ele>499.7</ele>
        <time>2021-03-21T08:37:11Z</time>
      </trkpt>
      <trkpt lat="43.56012" lon="5.70504">
        <ele>502.39</ele>
        <time>2021-03-21T08:37:22Z</time>
      </trkpt>
      <trkpt lat="43.56004" lon="5.7048">
        <ele>503.52</ele>
        <time>2021-03-21T08:37:32Z</time>
      </trkpt>
      <trkpt lat="43.55994" lon="5.70457">
        <ele>506.23</ele>
        <time>2021-03-21T08:37:43Z</time>
      </trkpt>
      <trkpt lat="43.5599" lon="5.7043">
        <ele>510.88</ele>
        <time>2021-03-21T08:37:54Z</time>
      </trkpt>
      <trkpt lat="43.55991" lon="5.70403">
        <ele>510.83</ele>
        <time>2021-03-21T08:38:03Z</time>
      </trkpt>
      <trkpt lat="43.55993" lon="5.70375">
        <ele>513.03</ele>
        <time>2021-03-21T08:38:12Z</time>
      </trkpt>
      <trkpt lat="43.5599" lon="5.70348">
        <ele>513.17</ele>
        <time>2021-03-21T08:38:19Z</time>
      </trkpt>
      <trkpt lat="43.55981" lon="5.70325">
        <ele>511.47</ele>
        <time>2021-03-21T08:38:26Z</time>
      </trkpt>
      <trkpt lat="43.55973" lon="5.70303">
        <ele>509.88</ele>
        <time>2021-03-21T08:38:33Z</time>
      </trkpt>
      <trkpt lat="43.55959" lon="5.70286">
        <ele>507.27</ele>
        <time>2021-03-21T08:38:40Z</time>
      </trkpt>
      <trkpt lat="43.55944" lon="5.70268">
        <ele>506.17</ele>
        <time>2021-03-21T08:38:48Z</time>
      </trkpt>
      <trkpt lat="43.55929" lon="5.70251">
        <ele>506.29</ele>
        <time>2021-03-21T08:38:56Z</time>
      </trkpt>
      <trkpt lat="43.55914" lon="5.70233">
        <ele>505.26</ele>
        <time>2021-03-21T08:39:04Z</time>
      </trkpt>
      <trkpt lat="43.55912" lon="5.70206">
        <ele>506.04</ele>
        <time>2021-03-21T08:39:15Z</time>
      </trkpt>
      <trkpt lat="43.5592" lon="5.70183">
        <ele>506.58</ele>
        <time>2021-03-21T08:39:24Z</time>
      </trkpt>
      <trkpt lat="43.55926" lon="5.70158">
        <ele>507.34</ele>
        <time>2021-03-21T08:39:35Z</time>
      </trkpt>
      <trkpt lat="43.55926" lon="5.70133">
        <ele>507.75</ele>
        <time>2021-03-21T08:39:47Z</time>
      </trkpt>
      <trkpt lat="43.55937" lon="5.7011">
        <ele>507.22</ele>
        <time>2021-03-21T08:39:54Z</time>
      </trkpt>
      <trkpt lat="43.55948" lon="5.70087">
        <ele>505.62</ele>
        <time>2021-03-21T08:40:00Z</time>
      </trkpt>
      <trkpt lat="43.55957" lon="5.70066">
        <ele>503.55</ele>
        <time>2021-03-21T08:40:05Z</time>
      </trkpt>
      <trkpt lat="43.55966" lon="5.7004">
        <ele>502.79</ele>
        <time>2021-03-21T08:40:10Z</time>
      </trkpt>
      <trkpt lat="43.55971" lon="5.7001">
        <ele>501.24</ele>
        <time>2021-03-21T08:40:15Z</time>
      </trkpt>
      <trkpt lat="43.55974" lon="5.69982">
        <ele>501.5</ele>
        <time>2021-03-21T08:40:19Z</time>
      </trkpt>
      <trkpt lat="43.55976" lon="5.69955">
        <ele>502</ele>
        <time>2021-03-21T08:40:23Z</time>
      </trkpt>
      <trkpt lat="43.55979" lon="5.69926">
        <ele>501.96</ele>
        <time>2021-03-21T08:40:27Z</time>
      </trkpt>
      <trkpt lat="43.55979" lon="5.69898">
        <ele>502.24</ele>
        <time>2021-03-21T08:40:31Z</time>
      </trkpt>
      <trkpt lat="43.55976" lon="5.69869">
        <ele>501.38</ele>
        <time>2021-03-21T08:40:35Z</time>
      </trkpt>
      <trkpt lat="43.55975" lon="5.69843">
        <ele>501.35</ele>
        <time>2021-03-21T08:40:39Z</time>
      </trkpt>
      <trkpt lat="43.55973" lon="5.69816">
        <ele>500.63</ele>
        <time>2021-03-21T08:40:43Z</time>
      </trkpt>
      <trkpt lat="43.55971" lon="5.69785">
        <ele>499.68</ele>
        <time>2021-03-21T08:40:47Z</time>
      </trkpt>
      <trkpt lat="43.55975" lon="5.69759">
        <ele>498.34</ele>
        <time>2021-03-21T08:40:50Z</time>
      </trkpt>
      <trkpt lat="43.55979" lon="5.69731">
        <ele>496.98</ele>
        <time>2021-03-21T08:40:53Z</time>
      </trkpt>
      <trkpt lat="43.55979" lon="5.69703">
        <ele>496.22</ele>
        <time>2021-03-21T08:40:56Z</time>
      </trkpt>
      <trkpt lat="43.55972" lon="5.69678">
        <ele>494.52</ele>
        <time>2021-03-21T08:40:59Z</time>
      </trkpt>
      <trkpt lat="43.55966" lon="5.69653">
        <ele>493.62</ele>
        <time>2021-03-21T08:41:02Z</time>
      </trkpt>
      <trkpt lat="43.55965" lon="5.69627">
        <ele>492.68</ele>
        <time>2021-03-21T08:41:05Z</time>
      </trkpt>
      <trkpt lat="43.55968" lon="5.696">
        <ele>491.33</ele>
        <time>2021-03-21T08:41:08Z</time>
      </trkpt>
      <trkpt lat="43.55969" lon="5.69575">
        <ele>490.69</ele>
        <time>2021-03-21T08:41:11Z</time>
      </trkpt>
      <trkpt lat="43.5597" lon="5.69546">
        <ele>490.15</ele>
        <time>2021-03-21T08:41:15Z</time>
      </trkpt>
      <trkpt lat="43.5597" lon="5.69519">
        <ele>490.5</ele>
        <time>2021-03-21T08:41:19Z</time>
      </trkpt>
      <trkpt lat="43.55972" lon="5.69493">
        <ele>491.69</ele>
        <time>2021-03-21T08:41:23Z</time>
      </trkpt>
      <trkpt lat="43.55974" lon="5.69463">
        <ele>492.12</ele>
        <time>2021-03-21T08:41:28Z</time>
      </trkpt>
      <trkpt lat="43.55981" lon="5.69439">
        <ele>492.3</ele>
        <time>2021-03-21T08:41:32Z</time>
      </trkpt>
      <trkpt lat="43.55991" lon="5.69415">
        <ele>491.62</ele>
        <time>2021-03-21T08:41:36Z</time>
      </trkpt>
      <trkpt lat="43.56004" lon="5.69391">
        <ele>490.19</ele>
        <time>2021-03-21T08:41:40Z</time>
      </trkpt>
      <trkpt lat="43.56017" lon="5.69373">
        <ele>488.93</ele>
        <time>2021-03-21T08:41:43Z</time>
      </trkpt>
      <trkpt lat="43.5603" lon="5.69356">
        <ele>487.35</ele>
        <time>2021-03-21T08:41:46Z</time>
      </trkpt>
      <trkpt lat="43.56049" lon="5.69337">
        <ele>485.31</ele>
        <time>2021-03-21T08:41:50Z</time>
      </trkpt>
      <trkpt lat="43.56056" lon="5.69311">
        <ele>484.2</ele>
        <time>2021-03-21T08:41:54Z</time>
      </trkpt>
      <trkpt lat="43.56046" lon="5.69285">
        <ele>483.02</ele>
        <time>2021-03-21T08:41:58Z</time>
      </trkpt>
      <trkpt lat="43.56034" lon="5.69264">
        <ele>481.75</ele>
        <time>2021-03-21T08:42:01Z</time>
      </trkpt>
      <trkpt lat="43.56021" lon="5.69243">
        <ele>480.29</ele>
        <time>2021-03-21T08:42:04Z</time>
      </trkpt>
      <trkpt lat="43.5601" lon="5.69216">
        <ele>478.46</ele>
        <time>2021-03-21T08:42:07Z</time>
      </trkpt>
      <trkpt lat="43.55999" lon="5.69192">
        <ele>478.44</ele>
        <time>2021-03-21T08:42:10Z</time>
      </trkpt>
      <trkpt lat="43.55988" lon="5.69172">
        <ele>478.92</ele>
        <time>2021-03-21T08:42:13Z</time>
      </trkpt>
      <trkpt lat="43.55977" lon="5.69148">
        <ele>479.42</ele>
        <time>2021-03-21T08:42:17Z</time>
      </trkpt>
      <trkpt lat="43.55966" lon="5.69127">
        <ele>481.03</ele>
        <time>2021-03-21T08:42:21Z</time>
      </trkpt>
      <trkpt lat="43.55956" lon="5.69101">
        <ele>484.01</ele>
        <time>2021-03-21T08:42:26Z</time>
      </trkpt>
      <trkpt lat="43.55947" lon="5.69076">
        <ele>487.62</ele>
        <time>2021-03-21T08:42:31Z</time>
      </trkpt>
      <trkpt lat="43.55942" lon="5.6905">
        <ele>492.21</ele>
        <time>2021-03-21T08:42:36Z</time>
      </trkpt>
      <trkpt lat="43.55942" lon="5.69025">
        <ele>496.17</ele>
        <time>2021-03-21T08:42:41Z</time>
      </trkpt>
      <trkpt lat="43.55939" lon="5.68999">
        <ele>499.63</ele>
        <time>2021-03-21T08:42:46Z</time>
      </trkpt>
      <trkpt lat="43.55937" lon="5.68972">
        <ele>501.42</ele>
        <time>2021-03-21T08:42:51Z</time>
      </trkpt>
      <trkpt lat="43.55933" lon="5.68946">
        <ele>502.15</ele>
        <time>2021-03-21T08:42:56Z</time>
      </trkpt>
      <trkpt lat="43.55926" lon="5.68922">
        <ele>504.24</ele>
        <time>2021-03-21T08:43:02Z</time>
      </trkpt>
      <trkpt lat="43.55919" lon="5.68898">
        <ele>506.6</ele>
        <time>2021-03-21T08:43:09Z</time>
      </trkpt>
      <trkpt lat="43.55931" lon="5.68877">
        <ele>502.33</ele>
        <time>2021-03-21T08:43:17Z</time>
      </trkpt>
      <trkpt lat="43.5595" lon="5.68871">
        <ele>501.91</ele>
        <time>2021-03-21T08:43:27Z</time>
      </trkpt>
      <trkpt lat="43.55968" lon="5.68879">
        <ele>503.12</ele>
        <time>2021-03-21T08:43:40Z</time>
      </trkpt>
      <trkpt lat="43.55985" lon="5.68869">
        <ele>504.6</ele>
        <time>2021-03-21T08:43:53Z</time>
      </trkpt>
      <trkpt lat="43.56001" lon="5.68857">
        <ele>505.62</ele>
        <time>2021-03-21T08:44:05Z</time>
      </trkpt>
      <trkpt lat="43.56019" lon="5.68848">
        <ele>507.92</ele>
        <time>2021-03-21T08:44:20Z</time>
      </trkpt>
      <trkpt lat="43.56036" lon="5.68835">
        <ele>509.15</ele>
        <time>2021-03-21T08:44:33Z</time>
      </trkpt>
      <trkpt lat="43.56054" lon="5.68825">
        <ele>508.83</ele>
        <time>2021-03-21T08:44:44Z</time>
      </trkpt>
      <trkpt lat="43.56073" lon="5.68832">
        <ele>509.7</ele>
        <time>2021-03-21T08:44:54Z</time>
      </trkpt>
      <trkpt lat="43.56092" lon="5.68841">
        <ele>509.91</ele>
        <time>2021-03-21T08:45:03Z</time>
      </trkpt>
      <trkpt lat="43.5611" lon="5.68846">
        <ele>509.53</ele>
        <time>2021-03-21T08:45:10Z</time>
      </trkpt>
      <trkpt lat="43.5613" lon="5.6885">
        <ele>509.83</ele>
        <time>2021-03-21T08:45:17Z</time>
      </trkpt>
      <trkpt lat="43.56149" lon="5.68857">
        <ele>509.19</ele>
        <time>2021-03-21T08:45:23Z</time>
      </trkpt>
      <trkpt lat="43.56166" lon="5.68868">
        <ele>509.45</ele>
        <time>2021-03-21T08:45:28Z</time>
      </trkpt>
      <trkpt lat="43.56182" lon="5.68883">
        <ele>508.87</ele>
        <time>2021-03-21T08:45:33Z</time>
      </trkpt>
      <trkpt lat="43.56199" lon="5.68899">
        <ele>508.55</ele>
        <time>2021-03-21T08:45:38Z</time>
      </trkpt>
      <trkpt lat="43.56217" lon="5.68909">
        <ele>508.37</ele>
        <time>2021-03-21T08:45:43Z</time>
      </trkpt>
      <trkpt lat="43.56234" lon="5.68918">
        <ele>508.64</ele>
        <time>2021-03-21T08:45:48Z</time>
      </trkpt>
      <trkpt lat="43.56254" lon="5.68931">
        <ele>508.64</ele>
        <time>2021-03-21T08:45:54Z</time>
      </trkpt>
      <trkpt lat="43.56271" lon="5.68923">
        <ele>507.99</ele>
        <time>2021-03-21T08:45:59Z</time>
      </trkpt>
      <trkpt lat="43.5628" lon="5.68897">
        <ele>507.61</ele>
        <time>2021-03-21T08:46:04Z</time>
      </trkpt>
      <trkpt lat="43.56283" lon="5.68872">
        <ele>507.27</ele>
        <time>2021-03-21T08:46:08Z</time>
      </trkpt>
      <trkpt lat="43.56281" lon="5.68841">
        <ele>505.81</ele>
        <time>2021-03-21T08:46:12Z</time>
      </trkpt>
      <trkpt lat="43.56281" lon="5.68814">
        <ele>504.11</ele>
        <time>2021-03-21T08:46:15Z</time>
      </trkpt>
      <trkpt lat="43.56273" lon="5.6879">
        <ele>502.93</ele>
        <time>2021-03-21T08:46:18Z</time>
      </trkpt>
      <trkpt lat="43.56255" lon="5.68774">
        <ele>503.55</ele>
        <time>2021-03-21T08:46:22Z</time>
      </trkpt>
      <trkpt lat="43.56239" lon="5.68758">
        <ele>504.76</ele>
        <time>2021-03-21T08:46:26Z</time>
      </trkpt>
      <trkpt lat="43.56219" lon="5.68747">
        <ele>506.48</ele>
        <time>2021-03-21T08:46:31Z</time>
      </trkpt>
      <trkpt lat="43.56203" lon="5.68735">
        <ele>510.31</ele>
        <time>2021-03-21T08:46:36Z</time>
      </trkpt>
      <trkpt lat="43.56192" lon="5.68714">
        <ele>513.97</ele>
        <time>2021-03-21T08:46:44Z</time>
      </trkpt>
      <trkpt lat="43.56181" lon="5.68692">
        <ele>514.9</ele>
        <time>2021-03-21T08:46:53Z</time>
      </trkpt>
      <trkpt lat="43.56176" lon="5.68666">
        <ele>517.59</ele>
        <time>2021-03-21T08:47:03Z</time>
      </trkpt>
      <trkpt lat="43.5618" lon="5.68639">
        <ele>521.5</ele>
        <time>2021-03-21T08:47:13Z</time>
      </trkpt>
      <trkpt lat="43.56179" lon="5.68613">
        <ele>527.37</ele>
        <time>2021-03-21T08:47:22Z</time>
      </trkpt>
      <trkpt lat="43.56176" lon="5.68588">
        <ele>529.32</ele>
        <time>2021-03-21T08:47:31Z</time>
      </trkpt>
      <trkpt lat="43.56171" lon="5.68564">
        <ele>527.94</ele>
        <time>2021-03-21T08:47:40Z</time>
      </trkpt>
      <trkpt lat="43.56162" lon="5.68542">
        <ele>525.79</ele>
        <time>2021-03-21T08:47:47Z</time>
      </trkpt>
      <trkpt lat="43.56148" lon="5.68526">
        <ele>525.32</ele>
        <time>2021-03-21T08:47:54Z</time>
      </trkpt>
      <trkpt lat="43.56131" lon="5.68512">
        <ele>527.4</ele>
        <time>2021-03-21T08:48:02Z</time>
      </trkpt>
      <trkpt lat="43.56117" lon="5.68495">
        <ele>526.1</ele>
        <time>2021-03-21T08:48:09Z</time>
      </trkpt>
      <trkpt lat="43.56106" lon="5.68474">
        <ele>524.57</ele>
        <time>2021-03-21T08:48:16Z</time>
      </trkpt>
      <trkpt lat="43.56096" lon="5.68453">
        <ele>524.21</ele>
        <time>2021-03-21T08:48:23Z</time>
      </trkpt>
      <trkpt lat="43.56088" lon="5.68428">
        <ele>525.12</ele>
        <time>2021-03-21T08:48:31Z</time>
      </trkpt>
      <trkpt lat="43.56082" lon="5.68402">
        <ele>525.42</ele>
        <time>2021-03-21T08:48:39Z</time>
      </trkpt>
      <trkpt lat="43.56081" lon="5.68374">
        <ele>525.55</ele>
        <time>2021-03-21T08:48:47Z</time>
      </trkpt>
      <trkpt lat="43.56085" lon="5.68346">
        <ele>526.78</ele>
        <time>2021-03-21T08:48:55Z</time>
      </trkpt>
      <trkpt lat="43.56091" lon="5.68322">
        <ele>527.17</ele>
        <time>2021-03-21T08:49:02Z</time>
      </trkpt>
      <trkpt lat="43.56099" lon="5.68297">
        <ele>525.8</ele>
        <time>2021-03-21T08:49:09Z</time>
      </trkpt>
      <trkpt lat="43.56111" lon="5.68275">
        <ele>525.6</ele>
        <time>2021-03-21T08:49:16Z</time>
      </trkpt>
      <trkpt lat="43.56127" lon="5.6826">
        <ele>523</ele>
        <time>2021-03-21T08:49:20Z</time>
      </trkpt>
      <trkpt lat="43.56144" lon="5.68242">
        <ele>521.67</ele>
        <time>2021-03-21T08:49:24Z</time>
      </trkpt>
      <trkpt lat="43.56154" lon="5.68219">
        <ele>521.73</ele>
        <time>2021-03-21T08:49:29Z</time>
      </trkpt>
      <trkpt lat="43.5616" lon="5.68195">
        <ele>522.11</ele>
        <time>2021-03-21T08:49:37Z</time>
      </trkpt>
      <trkpt lat="43.56172" lon="5.68176">
        <ele>521.69</ele>
        <time>2021-03-21T08:49:42Z</time>
      </trkpt>
      <trkpt lat="43.56187" lon="5.68161">
        <ele>522</ele>
        <time>2021-03-21T08:49:47Z</time>
      </trkpt>
      <trkpt lat="43.56201" lon="5.68143">
        <ele>522.39</ele>
        <time>2021-03-21T08:49:52Z</time>
      </trkpt>
      <trkpt lat="43.56215" lon="5.68125">
        <ele>522.82</ele>
        <time>2021-03-21T08:49:57Z</time>
      </trkpt>
      <trkpt lat="43.56232" lon="5.68108">
        <ele>522.34</ele>
        <time>2021-03-21T08:50:03Z</time>
      </trkpt>
      <trkpt lat="43.56248" lon="5.68089">
        <ele>521.89</ele>
        <time>2021-03-21T08:50:09Z</time>
      </trkpt>
      <trkpt lat="43.56256" lon="5.68065">
        <ele>522.48</ele>
        <time>2021-03-21T08:50:14Z</time>
      </trkpt>
      <trkpt lat="43.56262" lon="5.68038">
        <ele>522.03</ele>
        <time>2021-03-21T08:50:19Z</time>
      </trkpt>
      <trkpt lat="43.56269" lon="5.68014">
        <ele>521.55</ele>
        <time>2021-03-21T08:50:23Z</time>
      </trkpt>
      <trkpt lat="43.56271" lon="5.67989">
        <ele>522.48</ele>
        <time>2021-03-21T08:50:28Z</time>
      </trkpt>
      <trkpt lat="43.56273" lon="5.67962">
        <ele>524.1</ele>
        <time>2021-03-21T08:50:34Z</time>
      </trkpt>
      <trkpt lat="43.56276" lon="5.67938">
        <ele>526.74</ele>
        <time>2021-03-21T08:50:40Z</time>
      </trkpt>
      <trkpt lat="43.56278" lon="5.67912">
        <ele>527.09</ele>
        <time>2021-03-21T08:50:47Z</time>
      </trkpt>
      <trkpt lat="43.56265" lon="5.67893">
        <ele>521.73</ele>
        <time>2021-03-21T08:50:54Z</time>
      </trkpt>
      <trkpt lat="43.56244" lon="5.67889">
        <ele>518.37</ele>
        <time>2021-03-21T08:50:58Z</time>
      </trkpt>
      <trkpt lat="43.56252" lon="5.67864">
        <ele>516</ele>
        <time>2021-03-21T08:51:06Z</time>
      </trkpt>
      <trkpt lat="43.56271" lon="5.67854">
        <ele>516.08</ele>
        <time>2021-03-21T08:51:11Z</time>
      </trkpt>
      <trkpt lat="43.56279" lon="5.67829">
        <ele>516.35</ele>
        <time>2021-03-21T08:51:19Z</time>
      </trkpt>
      <trkpt lat="43.5628" lon="5.67801">
        <ele>517.42</ele>
        <time>2021-03-21T08:51:28Z</time>
      </trkpt>
      <trkpt lat="43.56288" lon="5.67777">
        <ele>518.52</ele>
        <time>2021-03-21T08:51:35Z</time>
      </trkpt>
      <trkpt lat="43.563" lon="5.67758">
        <ele>519.67</ele>
        <time>2021-03-21T08:51:42Z</time>
      </trkpt>
      <trkpt lat="43.56317" lon="5.67743">
        <ele>521.81</ele>
        <time>2021-03-21T08:51:49Z</time>
      </trkpt>
      <trkpt lat="43.56328" lon="5.67722">
        <ele>522.67</ele>
        <time>2021-03-21T08:51:57Z</time>
      </trkpt>
      <trkpt lat="43.56326" lon="5.67694">
        <ele>522.89</ele>
        <time>2021-03-21T08:52:05Z</time>
      </trkpt>
      <trkpt lat="43.56312" lon="5.67673">
        <ele>523.84</ele>
        <time>2021-03-21T08:52:13Z</time>
      </trkpt>
      <trkpt lat="43.56294" lon="5.67659">
        <ele>526.03</ele>
        <time>2021-03-21T08:52:21Z</time>
      </trkpt>
      <trkpt lat="43.56282" lon="5.67639">
        <ele>529.04</ele>
        <time>2021-03-21T08:52:29Z</time>
      </trkpt>
      <trkpt lat="43.56278" lon="5.67614">
        <ele>531.64</ele>
        <time>2021-03-21T08:52:36Z</time>
      </trkpt>
      <trkpt lat="43.56279" lon="5.67588">
        <ele>534.33</ele>
        <time>2021-03-21T08:52:43Z</time>
      </trkpt>
      <trkpt lat="43.56284" lon="5.67563">
        <ele>533.99</ele>
        <time>2021-03-21T08:52:50Z</time>
      </trkpt>
      <trkpt lat="43.56292" lon="5.67541">
        <ele>533.76</ele>
        <time>2021-03-21T08:52:57Z</time>
      </trkpt>
      <trkpt lat="43.56303" lon="5.67517">
        <ele>534.97</ele>
        <time>2021-03-21T08:53:05Z</time>
      </trkpt>
      <trkpt lat="43.56314" lon="5.67495">
        <ele>538.29</ele>
        <time>2021-03-21T08:53:13Z</time>
      </trkpt>
      <trkpt lat="43.56324" lon="5.67471">
        <ele>541.66</ele>
        <time>2021-03-21T08:53:21Z</time>
      </trkpt>
      <trkpt lat="43.56332" lon="5.67445">
        <ele>543.1</ele>
        <time>2021-03-21T08:53:29Z</time>
      </trkpt>
      <trkpt lat="43.56335" lon="5.67417">
        <ele>545.78</ele>
        <time>2021-03-21T08:53:38Z</time>
      </trkpt>
      <trkpt lat="43.56333" lon="5.67392">
        <ele>550.9</ele>
        <time>2021-03-21T08:53:48Z</time>
      </trkpt>
      <trkpt lat="43.56324" lon="5.67367">
        <ele>557.18</ele>
        <time>2021-03-21T08:53:57Z</time>
      </trkpt>
      <trkpt lat="43.56308" lon="5.67354">
        <ele>560.42</ele>
        <time>2021-03-21T08:54:06Z</time>
      </trkpt>
      <trkpt lat="43.56288" lon="5.67348">
        <ele>563.96</ele>
        <time>2021-03-21T08:54:15Z</time>
      </trkpt>
      <trkpt lat="43.56271" lon="5.67333">
        <ele>565.35</ele>
        <time>2021-03-21T08:54:23Z</time>
      </trkpt>
      <trkpt lat="43.56263" lon="5.67308">
        <ele>564.25</ele>
        <time>2021-03-21T08:54:30Z</time>
      </trkpt>
      <trkpt lat="43.56258" lon="5.67284">
        <ele>562.71</ele>
        <time>2021-03-21T08:54:37Z</time>
      </trkpt>
      <trkpt lat="43.56255" lon="5.67259">
        <ele>560.48</ele>
        <time>2021-03-21T08:54:44Z</time>
      </trkpt>
      <trkpt lat="43.56254" lon="5.67234">
        <ele>562.55</ele>
        <time>2021-03-21T08:54:52Z</time>
      </trkpt>
      <trkpt lat="43.56253" lon="5.67209">
        <ele>563.08</ele>
        <time>2021-03-21T08:54:59Z</time>
      </trkpt>
      <trkpt lat="43.56251" lon="5.67182">
        <ele>561.96</ele>
        <time>2021-03-21T08:55:07Z</time>
      </trkpt>
      <trkpt lat="43.56249" lon="5.67156">
        <ele>560.86</ele>
        <time>2021-03-21T08:55:14Z</time>
      </trkpt>
      <trkpt lat="43.56248" lon="5.67128">
        <ele>562.58</ele>
        <time>2021-03-21T08:55:23Z</time>
      </trkpt>
      <trkpt lat="43.56246" lon="5.671">
        <ele>564.08</ele>
        <time>2021-03-21T08:55:31Z</time>
      </trkpt>
      <trkpt lat="43.56242" lon="5.67075">
        <ele>563.5</ele>
        <time>2021-03-21T08:55:39Z</time>
      </trkpt>
      <trkpt lat="43.56239" lon="5.6705">
        <ele>567.47</ele>
        <time>2021-03-21T08:55:47Z</time>
      </trkpt>
      <trkpt lat="43.56238" lon="5.67022">
        <ele>569.33</ele>
        <time>2021-03-21T08:55:55Z</time>
      </trkpt>
      <trkpt lat="43.56232" lon="5.66996">
        <ele>566.62</ele>
        <time>2021-03-21T08:56:03Z</time>
      </trkpt>
      <trkpt lat="43.56219" lon="5.66977">
        <ele>565.58</ele>
        <time>2021-03-21T08:56:11Z</time>
      </trkpt>
      <trkpt lat="43.56205" lon="5.66961">
        <ele>567.15</ele>
        <time>2021-03-21T08:56:22Z</time>
      </trkpt>
      <trkpt lat="43.56224" lon="5.66953">
        <ele>567.34</ele>
        <time>2021-03-21T08:56:32Z</time>
      </trkpt>
      <trkpt lat="43.56242" lon="5.66957">
        <ele>571.43</ele>
        <time>2021-03-21T08:56:40Z</time>
      </trkpt>
      <trkpt lat="43.56252" lon="5.66979">
        <ele>573.08</ele>
        <time>2021-03-21T08:56:51Z</time>
      </trkpt>
      <trkpt lat="43.56263" lon="5.66999">
        <ele>571.07</ele>
        <time>2021-03-21T08:56:58Z</time>
      </trkpt>
      <trkpt lat="43.56278" lon="5.67017">
        <ele>569.98</ele>
        <time>2021-03-21T08:57:06Z</time>
      </trkpt>
      <trkpt lat="43.56292" lon="5.67036">
        <ele>569.51</ele>
        <time>2021-03-21T08:57:14Z</time>
      </trkpt>
      <trkpt lat="43.56307" lon="5.67051">
        <ele>569.87</ele>
        <time>2021-03-21T08:57:22Z</time>
      </trkpt>
      <trkpt lat="43.56326" lon="5.67054">
        <ele>571.13</ele>
        <time>2021-03-21T08:57:30Z</time>
      </trkpt>
      <trkpt lat="43.56344" lon="5.67051">
        <ele>575.49</ele>
        <time>2021-03-21T08:57:39Z</time>
      </trkpt>
      <trkpt lat="43.56364" lon="5.67052">
        <ele>579.1</ele>
        <time>2021-03-21T08:57:48Z</time>
      </trkpt>
      <trkpt lat="43.56382" lon="5.67047">
        <ele>581.04</ele>
        <time>2021-03-21T08:57:56Z</time>
      </trkpt>
      <trkpt lat="43.56402" lon="5.67042">
        <ele>580.65</ele>
        <time>2021-03-21T08:58:04Z</time>
      </trkpt>
      <trkpt lat="43.5642" lon="5.67038">
        <ele>576.6</ele>
        <time>2021-03-21T08:58:12Z</time>
      </trkpt>
      <trkpt lat="43.56435" lon="5.67021">
        <ele>571.97</ele>
        <time>2021-03-21T08:58:24Z</time>
      </trkpt>
      <trkpt lat="43.56442" lon="5.66995">
        <ele>572.95</ele>
        <time>2021-03-21T08:58:32Z</time>
      </trkpt>
      <trkpt lat="43.56452" lon="5.66973">
        <ele>575.27</ele>
        <time>2021-03-21T08:58:39Z</time>
      </trkpt>
      <trkpt lat="43.56468" lon="5.66957">
        <ele>571.96</ele>
        <time>2021-03-21T08:58:47Z</time>
      </trkpt>
      <trkpt lat="43.5647" lon="5.66932">
        <ele>567.1</ele>
        <time>2021-03-21T08:59:01Z</time>
      </trkpt>
      <trkpt lat="43.56477" lon="5.66908">
        <ele>562.96</ele>
        <time>2021-03-21T08:59:14Z</time>
      </trkpt>
      <trkpt lat="43.5648" lon="5.66881">
        <ele>561.13</ele>
        <time>2021-03-21T08:59:23Z</time>
      </trkpt>
      <trkpt lat="43.56489" lon="5.66859">
        <ele>555.07</ele>
        <time>2021-03-21T08:59:29Z</time>
      </trkpt>
      <trkpt lat="43.56494" lon="5.66834">
        <ele>548.31</ele>
        <time>2021-03-21T08:59:37Z</time>
      </trkpt>
      <trkpt lat="43.56503" lon="5.66812">
        <ele>538.7</ele>
        <time>2021-03-21T09:00:01Z</time>
      </trkpt>
      <trkpt lat="43.56514" lon="5.66792">
        <ele>536.76</ele>
        <time>2021-03-21T09:00:08Z</time>
      </trkpt>
      <trkpt lat="43.56527" lon="5.6677">
        <ele>532.6</ele>
        <time>2021-03-21T09:00:16Z</time>
      </trkpt>
      <trkpt lat="43.56541" lon="5.66753">
        <ele>527.1</ele>
        <time>2021-03-21T09:00:22Z</time>
      </trkpt>
      <trkpt lat="43.56553" lon="5.66725">
        <ele>522.79</ele>
        <time>2021-03-21T09:00:26Z</time>
      </trkpt>
      <trkpt lat="43.56567" lon="5.66698">
        <ele>519.55</ele>
        <time>2021-03-21T09:00:29Z</time>
      </trkpt>
      <trkpt lat="43.56585" lon="5.66671">
        <ele>516.55</ele>
        <time>2021-03-21T09:00:32Z</time>
      </trkpt>
      <trkpt lat="43.56606" lon="5.66652">
        <ele>515.13</ele>
        <time>2021-03-21T09:00:35Z</time>
      </trkpt>
      <trkpt lat="43.56624" lon="5.66641">
        <ele>514.12</ele>
        <time>2021-03-21T09:00:38Z</time>
      </trkpt>
      <trkpt lat="43.56639" lon="5.66627">
        <ele>513.66</ele>
        <time>2021-03-21T09:00:42Z</time>
      </trkpt>
      <trkpt lat="43.56653" lon="5.66608">
        <ele>514.28</ele>
        <time>2021-03-21T09:00:47Z</time>
      </trkpt>
      <trkpt lat="43.56665" lon="5.6659">
        <ele>516.96</ele>
        <time>2021-03-21T09:00:53Z</time>
      </trkpt>
      <trkpt lat="43.56682" lon="5.66575">
        <ele>520.9</ele>
        <time>2021-03-21T09:01:00Z</time>
      </trkpt>
      <trkpt lat="43.56702" lon="5.66568">
        <ele>530.75</ele>
        <time>2021-03-21T09:04:02Z</time>
      </trkpt>
      <trkpt lat="43.56722" lon="5.66557">
        <ele>530.22</ele>
        <time>2021-03-21T09:04:06Z</time>
      </trkpt>
      <trkpt lat="43.56741" lon="5.66544">
        <ele>528.94</ele>
        <time>2021-03-21T09:04:09Z</time>
      </trkpt>
      <trkpt lat="43.56761" lon="5.66528">
        <ele>526.31</ele>
        <time>2021-03-21T09:04:12Z</time>
      </trkpt>
      <trkpt lat="43.56779" lon="5.6651">
        <ele>522.3</ele>
        <time>2021-03-21T09:04:15Z</time>
      </trkpt>
      <trkpt lat="43.56796" lon="5.66489">
        <ele>518.24</ele>
        <time>2021-03-21T09:04:18Z</time>
      </trkpt>
      <trkpt lat="43.56814" lon="5.6646">
        <ele>514.51</ele>
        <time>2021-03-21T09:04:21Z</time>
      </trkpt>
      <trkpt lat="43.56826" lon="5.66437">
        <ele>511.92</ele>
        <time>2021-03-21T09:04:23Z</time>
      </trkpt>
      <trkpt lat="43.56838" lon="5.66414">
        <ele>510.1</ele>
        <time>2021-03-21T09:04:25Z</time>
      </trkpt>
      <trkpt lat="43.56848" lon="5.66392">
        <ele>507.98</ele>
        <time>2021-03-21T09:04:27Z</time>
      </trkpt>
      <trkpt lat="43.56859" lon="5.6637">
        <ele>506.14</ele>
        <time>2021-03-21T09:04:29Z</time>
      </trkpt>
      <trkpt lat="43.5687" lon="5.66349">
        <ele>504.42</ele>
        <time>2021-03-21T09:04:31Z</time>
      </trkpt>
      <trkpt lat="43.5688" lon="5.66328">
        <ele>503.04</ele>
        <time>2021-03-21T09:04:33Z</time>
      </trkpt>
      <trkpt lat="43.56893" lon="5.66295">
        <ele>500.44</ele>
        <time>2021-03-21T09:04:36Z</time>
      </trkpt>
      <trkpt lat="43.56897" lon="5.66268">
        <ele>498.93</ele>
        <time>2021-03-21T09:04:38Z</time>
      </trkpt>
      <trkpt lat="43.56903" lon="5.66242">
        <ele>497.07</ele>
        <time>2021-03-21T09:04:40Z</time>
      </trkpt>
      <trkpt lat="43.56918" lon="5.66218">
        <ele>496.21</ele>
        <time>2021-03-21T09:04:43Z</time>
      </trkpt>
      <trkpt lat="43.56934" lon="5.66204">
        <ele>495.4</ele>
        <time>2021-03-21T09:04:46Z</time>
      </trkpt>
      <trkpt lat="43.5695" lon="5.6619">
        <ele>494.12</ele>
        <time>2021-03-21T09:04:49Z</time>
      </trkpt>
      <trkpt lat="43.56966" lon="5.66175">
        <ele>493.29</ele>
        <time>2021-03-21T09:04:52Z</time>
      </trkpt>
      <trkpt lat="43.56984" lon="5.66156">
        <ele>491.21</ele>
        <time>2021-03-21T09:04:56Z</time>
      </trkpt>
      <trkpt lat="43.56999" lon="5.66141">
        <ele>489.97</ele>
        <time>2021-03-21T09:04:59Z</time>
      </trkpt>
      <trkpt lat="43.57015" lon="5.66127">
        <ele>488.95</ele>
        <time>2021-03-21T09:05:02Z</time>
      </trkpt>
      <trkpt lat="43.57033" lon="5.66113">
        <ele>487.4</ele>
        <time>2021-03-21T09:05:05Z</time>
      </trkpt>
      <trkpt lat="43.57047" lon="5.66094">
        <ele>486.56</ele>
        <time>2021-03-21T09:05:08Z</time>
      </trkpt>
      <trkpt lat="43.57057" lon="5.66069">
        <ele>485.52</ele>
        <time>2021-03-21T09:05:11Z</time>
      </trkpt>
      <trkpt lat="43.57066" lon="5.66041">
        <ele>484.3</ele>
        <time>2021-03-21T09:05:14Z</time>
      </trkpt>
      <trkpt lat="43.57072" lon="5.66015">
        <ele>484.07</ele>
        <time>2021-03-21T09:05:17Z</time>
      </trkpt>
      <trkpt lat="43.57078" lon="5.65988">
        <ele>484.37</ele>
        <time>2021-03-21T09:05:21Z</time>
      </trkpt>
      <trkpt lat="43.57087" lon="5.65962">
        <ele>484.25</ele>
        <time>2021-03-21T09:05:25Z</time>
      </trkpt>
      <trkpt lat="43.57096" lon="5.65932">
        <ele>484.13</ele>
        <time>2021-03-21T09:05:29Z</time>
      </trkpt>
      <trkpt lat="43.57103" lon="5.65909">
        <ele>484.06</ele>
        <time>2021-03-21T09:05:32Z</time>
      </trkpt>
      <trkpt lat="43.57111" lon="5.6588">
        <ele>484.35</ele>
        <time>2021-03-21T09:05:36Z</time>
      </trkpt>
      <trkpt lat="43.57115" lon="5.65852">
        <ele>484.6</ele>
        <time>2021-03-21T09:05:40Z</time>
      </trkpt>
      <trkpt lat="43.57116" lon="5.65823">
        <ele>485.65</ele>
        <time>2021-03-21T09:05:45Z</time>
      </trkpt>
      <trkpt lat="43.57114" lon="5.65794">
        <ele>487.01</ele>
        <time>2021-03-21T09:05:51Z</time>
      </trkpt>
      <trkpt lat="43.57113" lon="5.65769">
        <ele>488.3</ele>
        <time>2021-03-21T09:05:57Z</time>
      </trkpt>
      <trkpt lat="43.57111" lon="5.6574">
        <ele>489.55</ele>
        <time>2021-03-21T09:06:04Z</time>
      </trkpt>
      <trkpt lat="43.57111" lon="5.65714">
        <ele>492.26</ele>
        <time>2021-03-21T09:06:10Z</time>
      </trkpt>
      <trkpt lat="43.5711" lon="5.65685">
        <ele>493.17</ele>
        <time>2021-03-21T09:06:16Z</time>
      </trkpt>
      <trkpt lat="43.57109" lon="5.65657">
        <ele>492.35</ele>
        <time>2021-03-21T09:06:21Z</time>
      </trkpt>
      <trkpt lat="43.57111" lon="5.65629">
        <ele>492.48</ele>
        <time>2021-03-21T09:06:28Z</time>
      </trkpt>
      <trkpt lat="43.57125" lon="5.65607">
        <ele>492.91</ele>
        <time>2021-03-21T09:06:36Z</time>
      </trkpt>
      <trkpt lat="43.57143" lon="5.65598">
        <ele>491.8</ele>
        <time>2021-03-21T09:06:40Z</time>
      </trkpt>
      <trkpt lat="43.57148" lon="5.65573">
        <ele>492.18</ele>
        <time>2021-03-21T09:06:45Z</time>
      </trkpt>
      <trkpt lat="43.5715" lon="5.65547">
        <ele>496.2</ele>
        <time>2021-03-21T09:06:54Z</time>
      </trkpt>
      <trkpt lat="43.57155" lon="5.65522">
        <ele>499.28</ele>
        <time>2021-03-21T09:07:04Z</time>
      </trkpt>
      <trkpt lat="43.5716" lon="5.65498">
        <ele>502.18</ele>
        <time>2021-03-21T09:07:13Z</time>
      </trkpt>
      <trkpt lat="43.57167" lon="5.65473">
        <ele>503.79</ele>
        <time>2021-03-21T09:07:22Z</time>
      </trkpt>
      <trkpt lat="43.57173" lon="5.65449">
        <ele>504.02</ele>
        <time>2021-03-21T09:07:31Z</time>
      </trkpt>
      <trkpt lat="43.57178" lon="5.65424">
        <ele>506.05</ele>
        <time>2021-03-21T09:07:41Z</time>
      </trkpt>
      <trkpt lat="43.57178" lon="5.65397">
        <ele>510.65</ele>
        <time>2021-03-21T09:07:51Z</time>
      </trkpt>
      <trkpt lat="43.57182" lon="5.65371">
        <ele>511.95</ele>
        <time>2021-03-21T09:08:00Z</time>
      </trkpt>
      <trkpt lat="43.57183" lon="5.65345">
        <ele>512.07</ele>
        <time>2021-03-21T09:08:09Z</time>
      </trkpt>
      <trkpt lat="43.57185" lon="5.65319">
        <ele>512.92</ele>
        <time>2021-03-21T09:08:19Z</time>
      </trkpt>
      <trkpt lat="43.57186" lon="5.65292">
        <ele>515.62</ele>
        <time>2021-03-21T09:08:29Z</time>
      </trkpt>
      <trkpt lat="43.57186" lon="5.65266">
        <ele>516.9</ele>
        <time>2021-03-21T09:08:38Z</time>
      </trkpt>
      <trkpt lat="43.57186" lon="5.6524">
        <ele>516.93</ele>
        <time>2021-03-21T09:08:46Z</time>
      </trkpt>
      <trkpt lat="43.57184" lon="5.65214">
        <ele>516.07</ele>
        <time>2021-03-21T09:08:54Z</time>
      </trkpt>
      <trkpt lat="43.57182" lon="5.65189">
        <ele>516.62</ele>
        <time>2021-03-21T09:09:02Z</time>
      </trkpt>
      <trkpt lat="43.57181" lon="5.65163">
        <ele>518.45</ele>
        <time>2021-03-21T09:09:10Z</time>
      </trkpt>
      <trkpt lat="43.5718" lon="5.65135">
        <ele>519.5</ele>
        <time>2021-03-21T09:09:18Z</time>
      </trkpt>
      <trkpt lat="43.5718" lon="5.65108">
        <ele>519</ele>
        <time>2021-03-21T09:09:26Z</time>
      </trkpt>
      <trkpt lat="43.5718" lon="5.6508">
        <ele>519.21</ele>
        <time>2021-03-21T09:09:34Z</time>
      </trkpt>
      <trkpt lat="43.57176" lon="5.65053">
        <ele>521.17</ele>
        <time>2021-03-21T09:09:43Z</time>
      </trkpt>
      <trkpt lat="43.57175" lon="5.65027">
        <ele>522.24</ele>
        <time>2021-03-21T09:09:51Z</time>
      </trkpt>
      <trkpt lat="43.57173" lon="5.65">
        <ele>522.31</ele>
        <time>2021-03-21T09:09:59Z</time>
      </trkpt>
      <trkpt lat="43.5717" lon="5.64974">
        <ele>523.82</ele>
        <time>2021-03-21T09:10:08Z</time>
      </trkpt>
      <trkpt lat="43.57167" lon="5.64946">
        <ele>526.54</ele>
        <time>2021-03-21T09:10:17Z</time>
      </trkpt>
      <trkpt lat="43.57166" lon="5.6492">
        <ele>527.33</ele>
        <time>2021-03-21T09:10:26Z</time>
      </trkpt>
      <trkpt lat="43.57179" lon="5.64942">
        <ele>529.22</ele>
        <time>2021-03-21T09:10:38Z</time>
      </trkpt>
      <trkpt lat="43.57183" lon="5.64971">
        <ele>528.93</ele>
        <time>2021-03-21T09:10:44Z</time>
      </trkpt>
      <trkpt lat="43.57184" lon="5.65">
        <ele>527.18</ele>
        <time>2021-03-21T09:10:49Z</time>
      </trkpt>
      <trkpt lat="43.57193" lon="5.65023">
        <ele>525.31</ele>
        <time>2021-03-21T09:10:54Z</time>
      </trkpt>
      <trkpt lat="43.57207" lon="5.65044">
        <ele>525.33</ele>
        <time>2021-03-21T09:11:00Z</time>
      </trkpt>
      <trkpt lat="43.57212" lon="5.6507">
        <ele>525.59</ele>
        <time>2021-03-21T09:11:05Z</time>
      </trkpt>
      <trkpt lat="43.57218" lon="5.65098">
        <ele>524.17</ele>
        <time>2021-03-21T09:11:10Z</time>
      </trkpt>
      <trkpt lat="43.57224" lon="5.65124">
        <ele>522.59</ele>
        <time>2021-03-21T09:11:15Z</time>
      </trkpt>
      <trkpt lat="43.57235" lon="5.65147">
        <ele>523.99</ele>
        <time>2021-03-21T09:11:21Z</time>
      </trkpt>
      <trkpt lat="43.57252" lon="5.65157">
        <ele>523.96</ele>
        <time>2021-03-21T09:11:26Z</time>
      </trkpt>
      <trkpt lat="43.57257" lon="5.65185">
        <ele>523.12</ele>
        <time>2021-03-21T09:11:31Z</time>
      </trkpt>
      <trkpt lat="43.57258" lon="5.65216">
        <ele>521.44</ele>
        <time>2021-03-21T09:11:36Z</time>
      </trkpt>
      <trkpt lat="43.5726" lon="5.65246">
        <ele>519.71</ele>
        <time>2021-03-21T09:11:41Z</time>
      </trkpt>
      <trkpt lat="43.57263" lon="5.65277">
        <ele>518.87</ele>
        <time>2021-03-21T09:11:46Z</time>
      </trkpt>
      <trkpt lat="43.57264" lon="5.65303">
        <ele>518.32</ele>
        <time>2021-03-21T09:11:50Z</time>
      </trkpt>
      <trkpt lat="43.57267" lon="5.65331">
        <ele>517.22</ele>
        <time>2021-03-21T09:11:54Z</time>
      </trkpt>
      <trkpt lat="43.57267" lon="5.65361">
        <ele>515.43</ele>
        <time>2021-03-21T09:11:58Z</time>
      </trkpt>
      <trkpt lat="43.57265" lon="5.65391">
        <ele>513.45</ele>
        <time>2021-03-21T09:12:02Z</time>
      </trkpt>
      <trkpt lat="43.57265" lon="5.65423">
        <ele>510.69</ele>
        <time>2021-03-21T09:12:06Z</time>
      </trkpt>
      <trkpt lat="43.57263" lon="5.65456">
        <ele>507.05</ele>
        <time>2021-03-21T09:12:10Z</time>
      </trkpt>
      <trkpt lat="43.5726" lon="5.65487">
        <ele>503.85</ele>
        <time>2021-03-21T09:12:14Z</time>
      </trkpt>
      <trkpt lat="43.5726" lon="5.65513">
        <ele>502.51</ele>
        <time>2021-03-21T09:12:17Z</time>
      </trkpt>
      <trkpt lat="43.5727" lon="5.65541">
        <ele>501.34</ele>
        <time>2021-03-21T09:12:21Z</time>
      </trkpt>
      <trkpt lat="43.57278" lon="5.65567">
        <ele>501.66</ele>
        <time>2021-03-21T09:12:25Z</time>
      </trkpt>
      <trkpt lat="43.57284" lon="5.65591">
        <ele>501.63</ele>
        <time>2021-03-21T09:12:29Z</time>
      </trkpt>
      <trkpt lat="43.57286" lon="5.65617">
        <ele>501.84</ele>
        <time>2021-03-21T09:12:33Z</time>
      </trkpt>
      <trkpt lat="43.57287" lon="5.65647">
        <ele>501.92</ele>
        <time>2021-03-21T09:12:38Z</time>
      </trkpt>
      <trkpt lat="43.5729" lon="5.65673">
        <ele>501.46</ele>
        <time>2021-03-21T09:12:42Z</time>
      </trkpt>
      <trkpt lat="43.57289" lon="5.65701">
        <ele>501.19</ele>
        <time>2021-03-21T09:12:46Z</time>
      </trkpt>
      <trkpt lat="43.57286" lon="5.65728">
        <ele>500.49</ele>
        <time>2021-03-21T09:12:50Z</time>
      </trkpt>
      <trkpt lat="43.57285" lon="5.65757">
        <ele>499.62</ele>
        <time>2021-03-21T09:12:54Z</time>
      </trkpt>
      <trkpt lat="43.57287" lon="5.65785">
        <ele>498.22</ele>
        <time>2021-03-21T09:12:59Z</time>
      </trkpt>
      <trkpt lat="43.57298" lon="5.65808">
        <ele>497.07</ele>
        <time>2021-03-21T09:13:04Z</time>
      </trkpt>
      <trkpt lat="43.57311" lon="5.6583">
        <ele>495.78</ele>
        <time>2021-03-21T09:13:09Z</time>
      </trkpt>
      <trkpt lat="43.57331" lon="5.65833">
        <ele>495.47</ele>
        <time>2021-03-21T09:13:14Z</time>
      </trkpt>
      <trkpt lat="43.57342" lon="5.65809">
        <ele>493.68</ele>
        <time>2021-03-21T09:13:19Z</time>
      </trkpt>
      <trkpt lat="43.57348" lon="5.65785">
        <ele>492.82</ele>
        <time>2021-03-21T09:13:24Z</time>
      </trkpt>
      <trkpt lat="43.57363" lon="5.65799">
        <ele>489.31</ele>
        <time>2021-03-21T09:13:33Z</time>
      </trkpt>
      <trkpt lat="43.57368" lon="5.65771">
        <ele>486.43</ele>
        <time>2021-03-21T09:13:39Z</time>
      </trkpt>
      <trkpt lat="43.57379" lon="5.65746">
        <ele>484.24</ele>
        <time>2021-03-21T09:13:44Z</time>
      </trkpt>
      <trkpt lat="43.5739" lon="5.65719">
        <ele>482.91</ele>
        <time>2021-03-21T09:13:49Z</time>
      </trkpt>
      <trkpt lat="43.57396" lon="5.6569">
        <ele>480.97</ele>
        <time>2021-03-21T09:13:53Z</time>
      </trkpt>
      <trkpt lat="43.57397" lon="5.65664">
        <ele>480.7</ele>
        <time>2021-03-21T09:13:57Z</time>
      </trkpt>
      <trkpt lat="43.57401" lon="5.65636">
        <ele>480.03</ele>
        <time>2021-03-21T09:14:01Z</time>
      </trkpt>
      <trkpt lat="43.57403" lon="5.65611">
        <ele>480.53</ele>
        <time>2021-03-21T09:14:05Z</time>
      </trkpt>
      <trkpt lat="43.57404" lon="5.65585">
        <ele>480.42</ele>
        <time>2021-03-21T09:14:13Z</time>
      </trkpt>
      <trkpt lat="43.57398" lon="5.6556">
        <ele>482.56</ele>
        <time>2021-03-21T09:14:25Z</time>
      </trkpt>
      <trkpt lat="43.57394" lon="5.65535">
        <ele>484.95</ele>
        <time>2021-03-21T09:14:44Z</time>
      </trkpt>
      <trkpt lat="43.57396" lon="5.6551">
        <ele>486.3</ele>
        <time>2021-03-21T09:14:51Z</time>
      </trkpt>
      <trkpt lat="43.57395" lon="5.65484">
        <ele>486.23</ele>
        <time>2021-03-21T09:14:57Z</time>
      </trkpt>
      <trkpt lat="43.57395" lon="5.65456">
        <ele>486.62</ele>
        <time>2021-03-21T09:15:03Z</time>
      </trkpt>
      <trkpt lat="43.57397" lon="5.65429">
        <ele>487.33</ele>
        <time>2021-03-21T09:15:09Z</time>
      </trkpt>
      <trkpt lat="43.57397" lon="5.65403">
        <ele>487.69</ele>
        <time>2021-03-21T09:15:14Z</time>
      </trkpt>
      <trkpt lat="43.57396" lon="5.65374">
        <ele>488.73</ele>
        <time>2021-03-21T09:15:20Z</time>
      </trkpt>
      <trkpt lat="43.57394" lon="5.65349">
        <ele>490.85</ele>
        <time>2021-03-21T09:15:26Z</time>
      </trkpt>
      <trkpt lat="43.57393" lon="5.6532">
        <ele>492.97</ele>
        <time>2021-03-21T09:15:33Z</time>
      </trkpt>
      <trkpt lat="43.57392" lon="5.65294">
        <ele>493.7</ele>
        <time>2021-03-21T09:15:38Z</time>
      </trkpt>
      <trkpt lat="43.57393" lon="5.65265">
        <ele>493.02</ele>
        <time>2021-03-21T09:15:44Z</time>
      </trkpt>
      <trkpt lat="43.57398" lon="5.65235">
        <ele>491.61</ele>
        <time>2021-03-21T09:15:50Z</time>
      </trkpt>
      <trkpt lat="43.57398" lon="5.65206">
        <ele>491.51</ele>
        <time>2021-03-21T09:15:55Z</time>
      </trkpt>
      <trkpt lat="43.57396" lon="5.65179">
        <ele>491.82</ele>
        <time>2021-03-21T09:16:00Z</time>
      </trkpt>
      <trkpt lat="43.57393" lon="5.65153">
        <ele>492.22</ele>
        <time>2021-03-21T09:16:05Z</time>
      </trkpt>
      <trkpt lat="43.57389" lon="5.65128">
        <ele>493.86</ele>
        <time>2021-03-21T09:16:11Z</time>
      </trkpt>
      <trkpt lat="43.57388" lon="5.65101">
        <ele>494.94</ele>
        <time>2021-03-21T09:16:17Z</time>
      </trkpt>
      <trkpt lat="43.57385" lon="5.65074">
        <ele>496.11</ele>
        <time>2021-03-21T09:16:23Z</time>
      </trkpt>
      <trkpt lat="43.57381" lon="5.65047">
        <ele>497.97</ele>
        <time>2021-03-21T09:16:30Z</time>
      </trkpt>
      <trkpt lat="43.57381" lon="5.65021">
        <ele>499.87</ele>
        <time>2021-03-21T09:16:37Z</time>
      </trkpt>
      <trkpt lat="43.57375" lon="5.64997">
        <ele>500.49</ele>
        <time>2021-03-21T09:16:43Z</time>
      </trkpt>
      <trkpt lat="43.5737" lon="5.64971">
        <ele>502.41</ele>
        <time>2021-03-21T09:16:50Z</time>
      </trkpt>
      <trkpt lat="43.57365" lon="5.64946">
        <ele>503.46</ele>
        <time>2021-03-21T09:16:57Z</time>
      </trkpt>
      <trkpt lat="43.57366" lon="5.64918">
        <ele>503.47</ele>
        <time>2021-03-21T09:17:04Z</time>
      </trkpt>
      <trkpt lat="43.57363" lon="5.64891">
        <ele>504.59</ele>
        <time>2021-03-21T09:17:10Z</time>
      </trkpt>
      <trkpt lat="43.57359" lon="5.64864">
        <ele>506.26</ele>
        <time>2021-03-21T09:17:17Z</time>
      </trkpt>
      <trkpt lat="43.57346" lon="5.64847">
        <ele>508.82</ele>
        <time>2021-03-21T09:17:24Z</time>
      </trkpt>
      <trkpt lat="43.57338" lon="5.64822">
        <ele>512.2</ele>
        <time>2021-03-21T09:17:31Z</time>
      </trkpt>
      <trkpt lat="43.57329" lon="5.64798">
        <ele>517.13</ele>
        <time>2021-03-21T09:17:38Z</time>
      </trkpt>
      <trkpt lat="43.57322" lon="5.64774">
        <ele>523.11</ele>
        <time>2021-03-21T09:17:45Z</time>
      </trkpt>
      <trkpt lat="43.57322" lon="5.64747">
        <ele>527.24</ele>
        <time>2021-03-21T09:17:52Z</time>
      </trkpt>
      <trkpt lat="43.57319" lon="5.64719">
        <ele>529.64</ele>
        <time>2021-03-21T09:17:59Z</time>
      </trkpt>
      <trkpt lat="43.57316" lon="5.64693">
        <ele>530.77</ele>
        <time>2021-03-21T09:18:05Z</time>
      </trkpt>
      <trkpt lat="43.57315" lon="5.64666">
        <ele>530.81</ele>
        <time>2021-03-21T09:18:11Z</time>
      </trkpt>
      <trkpt lat="43.57313" lon="5.64637">
        <ele>531.3</ele>
        <time>2021-03-21T09:18:18Z</time>
      </trkpt>
      <trkpt lat="43.57319" lon="5.64613">
        <ele>533.16</ele>
        <time>2021-03-21T09:18:24Z</time>
      </trkpt>
      <trkpt lat="43.57324" lon="5.64588">
        <ele>534.68</ele>
        <time>2021-03-21T09:18:32Z</time>
      </trkpt>
      <trkpt lat="43.57327" lon="5.64561">
        <ele>536.61</ele>
        <time>2021-03-21T09:18:40Z</time>
      </trkpt>
      <trkpt lat="43.57324" lon="5.64534">
        <ele>539.65</ele>
        <time>2021-03-21T09:18:48Z</time>
      </trkpt>
      <trkpt lat="43.57322" lon="5.64506">
        <ele>541.08</ele>
        <time>2021-03-21T09:18:55Z</time>
      </trkpt>
      <trkpt lat="43.57324" lon="5.6448">
        <ele>543.27</ele>
        <time>2021-03-21T09:19:01Z</time>
      </trkpt>
      <trkpt lat="43.57324" lon="5.64454">
        <ele>542.82</ele>
        <time>2021-03-21T09:19:06Z</time>
      </trkpt>
      <trkpt lat="43.57329" lon="5.64425">
        <ele>540.52</ele>
        <time>2021-03-21T09:19:12Z</time>
      </trkpt>
      <trkpt lat="43.57331" lon="5.64397">
        <ele>539.72</ele>
        <time>2021-03-21T09:19:18Z</time>
      </trkpt>
      <trkpt lat="43.57327" lon="5.64369">
        <ele>539.77</ele>
        <time>2021-03-21T09:19:24Z</time>
      </trkpt>
      <trkpt lat="43.57327" lon="5.64342">
        <ele>539.25</ele>
        <time>2021-03-21T09:19:31Z</time>
      </trkpt>
      <trkpt lat="43.57325" lon="5.64317">
        <ele>538.91</ele>
        <time>2021-03-21T09:19:37Z</time>
      </trkpt>
      <trkpt lat="43.57324" lon="5.64288">
        <ele>536.87</ele>
        <time>2021-03-21T09:19:43Z</time>
      </trkpt>
      <trkpt lat="43.57326" lon="5.6426">
        <ele>533.78</ele>
        <time>2021-03-21T09:19:49Z</time>
      </trkpt>
      <trkpt lat="43.57336" lon="5.64237">
        <ele>532.32</ele>
        <time>2021-03-21T09:19:55Z</time>
      </trkpt>
      <trkpt lat="43.57353" lon="5.64222">
        <ele>533.73</ele>
        <time>2021-03-21T09:20:02Z</time>
      </trkpt>
      <trkpt lat="43.57369" lon="5.64205">
        <ele>536.11</ele>
        <time>2021-03-21T09:20:09Z</time>
      </trkpt>
      <trkpt lat="43.57381" lon="5.64185">
        <ele>538.37</ele>
        <time>2021-03-21T09:20:17Z</time>
      </trkpt>
      <trkpt lat="43.57397" lon="5.64173">
        <ele>541.26</ele>
        <time>2021-03-21T09:20:25Z</time>
      </trkpt>
      <trkpt lat="43.57403" lon="5.64148">
        <ele>541.15</ele>
        <time>2021-03-21T09:20:34Z</time>
      </trkpt>
      <trkpt lat="43.57409" lon="5.64124">
        <ele>541.78</ele>
        <time>2021-03-21T09:20:44Z</time>
      </trkpt>
      <trkpt lat="43.57421" lon="5.64103">
        <ele>544.97</ele>
        <time>2021-03-21T09:20:56Z</time>
      </trkpt>
      <trkpt lat="43.57429" lon="5.64079">
        <ele>545.38</ele>
        <time>2021-03-21T09:21:05Z</time>
      </trkpt>
      <trkpt lat="43.57431" lon="5.64052">
        <ele>544.07</ele>
        <time>2021-03-21T09:21:15Z</time>
      </trkpt>
      <trkpt lat="43.5743" lon="5.64026">
        <ele>544.85</ele>
        <time>2021-03-21T09:21:25Z</time>
      </trkpt>
      <trkpt lat="43.5743" lon="5.64001">
        <ele>543.65</ele>
        <time>2021-03-21T09:21:34Z</time>
      </trkpt>
      <trkpt lat="43.57436" lon="5.63976">
        <ele>541.26</ele>
        <time>2021-03-21T09:21:44Z</time>
      </trkpt>
      <trkpt lat="43.57443" lon="5.6395">
        <ele>540.82</ele>
        <time>2021-03-21T09:21:54Z</time>
      </trkpt>
      <trkpt lat="43.57448" lon="5.63925">
        <ele>540.43</ele>
        <time>2021-03-21T09:22:03Z</time>
      </trkpt>
      <trkpt lat="43.5745" lon="5.63899">
        <ele>541.02</ele>
        <time>2021-03-21T09:22:13Z</time>
      </trkpt>
      <trkpt lat="43.57453" lon="5.63874">
        <ele>541.69</ele>
        <time>2021-03-21T09:22:21Z</time>
      </trkpt>
      <trkpt lat="43.57454" lon="5.63847">
        <ele>541.55</ele>
        <time>2021-03-21T09:22:29Z</time>
      </trkpt>
      <trkpt lat="43.57455" lon="5.63821">
        <ele>542.97</ele>
        <time>2021-03-21T09:22:37Z</time>
      </trkpt>
      <trkpt lat="43.57457" lon="5.63793">
        <ele>545.1</ele>
        <time>2021-03-21T09:22:47Z</time>
      </trkpt>
      <trkpt lat="43.57459" lon="5.63767">
        <ele>544.27</ele>
        <time>2021-03-21T09:22:52Z</time>
      </trkpt>
      <trkpt lat="43.57462" lon="5.63742">
        <ele>544.82</ele>
        <time>2021-03-21T09:22:57Z</time>
      </trkpt>
      <trkpt lat="43.57461" lon="5.63716">
        <ele>545.42</ele>
        <time>2021-03-21T09:23:04Z</time>
      </trkpt>
      <trkpt lat="43.57458" lon="5.63689">
        <ele>546.1</ele>
        <time>2021-03-21T09:23:11Z</time>
      </trkpt>
      <trkpt lat="43.57451" lon="5.63663">
        <ele>546.09</ele>
        <time>2021-03-21T09:23:17Z</time>
      </trkpt>
      <trkpt lat="43.57445" lon="5.63636">
        <ele>545.82</ele>
        <time>2021-03-21T09:23:24Z</time>
      </trkpt>
      <trkpt lat="43.57443" lon="5.6361">
        <ele>546.92</ele>
        <time>2021-03-21T09:23:31Z</time>
      </trkpt>
      <trkpt lat="43.57434" lon="5.63587">
        <ele>549.82</ele>
        <time>2021-03-21T09:23:39Z</time>
      </trkpt>
      <trkpt lat="43.57415" lon="5.63589">
        <ele>547.19</ele>
        <time>2021-03-21T09:23:43Z</time>
      </trkpt>
      <trkpt lat="43.57394" lon="5.63596">
        <ele>545.24</ele>
        <time>2021-03-21T09:23:47Z</time>
      </trkpt>
      <trkpt lat="43.57376" lon="5.63588">
        <ele>544.66</ele>
        <time>2021-03-21T09:23:51Z</time>
      </trkpt>
      <trkpt lat="43.57365" lon="5.63566">
        <ele>544.47</ele>
        <time>2021-03-21T09:23:56Z</time>
      </trkpt>
      <trkpt lat="43.57357" lon="5.63538">
        <ele>543.61</ele>
        <time>2021-03-21T09:24:01Z</time>
      </trkpt>
      <trkpt lat="43.57349" lon="5.63511">
        <ele>543.01</ele>
        <time>2021-03-21T09:24:06Z</time>
      </trkpt>
      <trkpt lat="43.57342" lon="5.63483">
        <ele>542.69</ele>
        <time>2021-03-21T09:24:12Z</time>
      </trkpt>
      <trkpt lat="43.5734" lon="5.63457">
        <ele>542.82</ele>
        <time>2021-03-21T09:24:18Z</time>
      </trkpt>
      <trkpt lat="43.57342" lon="5.63429">
        <ele>543.72</ele>
        <time>2021-03-21T09:24:24Z</time>
      </trkpt>
      <trkpt lat="43.57341" lon="5.63404">
        <ele>545.23</ele>
        <time>2021-03-21T09:24:30Z</time>
      </trkpt>
      <trkpt lat="43.57334" lon="5.6338">
        <ele>546.78</ele>
        <time>2021-03-21T09:24:36Z</time>
      </trkpt>
      <trkpt lat="43.57329" lon="5.63353">
        <ele>548.38</ele>
        <time>2021-03-21T09:24:43Z</time>
      </trkpt>
      <trkpt lat="43.57331" lon="5.63324">
        <ele>548.78</ele>
        <time>2021-03-21T09:24:49Z</time>
      </trkpt>
      <trkpt lat="43.57335" lon="5.63298">
        <ele>550.13</ele>
        <time>2021-03-21T09:24:55Z</time>
      </trkpt>
      <trkpt lat="43.57332" lon="5.63271">
        <ele>551.06</ele>
        <time>2021-03-21T09:25:01Z</time>
      </trkpt>
      <trkpt lat="43.57317" lon="5.63255">
        <ele>551.34</ele>
        <time>2021-03-21T09:25:09Z</time>
      </trkpt>
      <trkpt lat="43.57299" lon="5.63242">
        <ele>551.63</ele>
        <time>2021-03-21T09:25:16Z</time>
      </trkpt>
      <trkpt lat="43.57289" lon="5.63218">
        <ele>551.92</ele>
        <time>2021-03-21T09:25:24Z</time>
      </trkpt>
      <trkpt lat="43.57281" lon="5.63195">
        <ele>553.47</ele>
        <time>2021-03-21T09:25:33Z</time>
      </trkpt>
      <trkpt lat="43.57269" lon="5.63173">
        <ele>549.15</ele>
        <time>2021-03-21T09:29:31Z</time>
      </trkpt>
      <trkpt lat="43.57269" lon="5.63199">
        <ele>550.23</ele>
        <time>2021-03-21T09:30:13Z</time>
      </trkpt>
      <trkpt lat="43.57265" lon="5.63228">
        <ele>550.7</ele>
        <time>2021-03-21T09:30:20Z</time>
      </trkpt>
      <trkpt lat="43.57263" lon="5.63254">
        <ele>550.31</ele>
        <time>2021-03-21T09:30:26Z</time>
      </trkpt>
      <trkpt lat="43.5726" lon="5.63282">
        <ele>550.01</ele>
        <time>2021-03-21T09:30:32Z</time>
      </trkpt>
      <trkpt lat="43.57255" lon="5.63311">
        <ele>549.4</ele>
        <time>2021-03-21T09:30:38Z</time>
      </trkpt>
      <trkpt lat="43.57251" lon="5.63339">
        <ele>549.24</ele>
        <time>2021-03-21T09:30:43Z</time>
      </trkpt>
      <trkpt lat="43.57248" lon="5.63365">
        <ele>548.52</ele>
        <time>2021-03-21T09:30:48Z</time>
      </trkpt>
      <trkpt lat="43.57245" lon="5.63391">
        <ele>548.05</ele>
        <time>2021-03-21T09:30:53Z</time>
      </trkpt>
      <trkpt lat="43.57242" lon="5.63416">
        <ele>547.15</ele>
        <time>2021-03-21T09:30:58Z</time>
      </trkpt>
      <trkpt lat="43.57236" lon="5.6344">
        <ele>546.87</ele>
        <time>2021-03-21T09:31:03Z</time>
      </trkpt>
      <trkpt lat="43.57228" lon="5.63466">
        <ele>546.01</ele>
        <time>2021-03-21T09:31:09Z</time>
      </trkpt>
      <trkpt lat="43.57221" lon="5.63491">
        <ele>545.36</ele>
        <time>2021-03-21T09:31:15Z</time>
      </trkpt>
      <trkpt lat="43.57214" lon="5.63517">
        <ele>546.39</ele>
        <time>2021-03-21T09:31:21Z</time>
      </trkpt>
      <trkpt lat="43.5721" lon="5.63542">
        <ele>547.63</ele>
        <time>2021-03-21T09:31:27Z</time>
      </trkpt>
      <trkpt lat="43.57204" lon="5.6357">
        <ele>549.35</ele>
        <time>2021-03-21T09:31:33Z</time>
      </trkpt>
      <trkpt lat="43.57196" lon="5.63594">
        <ele>550.7</ele>
        <time>2021-03-21T09:31:40Z</time>
      </trkpt>
      <trkpt lat="43.57185" lon="5.63616">
        <ele>553</ele>
        <time>2021-03-21T09:31:47Z</time>
      </trkpt>
      <trkpt lat="43.57183" lon="5.63642">
        <ele>555.33</ele>
        <time>2021-03-21T09:31:55Z</time>
      </trkpt>
      <trkpt lat="43.57178" lon="5.63667">
        <ele>556.22</ele>
        <time>2021-03-21T09:32:03Z</time>
      </trkpt>
      <trkpt lat="43.57167" lon="5.63688">
        <ele>558.28</ele>
        <time>2021-03-21T09:32:11Z</time>
      </trkpt>
      <trkpt lat="43.57154" lon="5.63706">
        <ele>560.12</ele>
        <time>2021-03-21T09:32:20Z</time>
      </trkpt>
      <trkpt lat="43.57138" lon="5.63721">
        <ele>560.84</ele>
        <time>2021-03-21T09:32:31Z</time>
      </trkpt>
      <trkpt lat="43.57132" lon="5.63746">
        <ele>562</ele>
        <time>2021-03-21T09:32:43Z</time>
      </trkpt>
      <trkpt lat="43.57132" lon="5.63773">
        <ele>567.41</ele>
        <time>2021-03-21T09:32:56Z</time>
      </trkpt>
      <trkpt lat="43.57133" lon="5.63798">
        <ele>571.57</ele>
        <time>2021-03-21T09:33:06Z</time>
      </trkpt>
      <trkpt lat="43.57131" lon="5.63824">
        <ele>571.91</ele>
        <time>2021-03-21T09:33:15Z</time>
      </trkpt>
      <trkpt lat="43.57128" lon="5.6385">
        <ele>571.77</ele>
        <time>2021-03-21T09:33:23Z</time>
      </trkpt>
      <trkpt lat="43.57125" lon="5.63877">
        <ele>572.3</ele>
        <time>2021-03-21T09:33:32Z</time>
      </trkpt>
      <trkpt lat="43.57121" lon="5.63901">
        <ele>572.35</ele>
        <time>2021-03-21T09:33:41Z</time>
      </trkpt>
      <trkpt lat="43.57112" lon="5.63924">
        <ele>572.72</ele>
        <time>2021-03-21T09:33:50Z</time>
      </trkpt>
      <trkpt lat="43.57104" lon="5.63948">
        <ele>573.74</ele>
        <time>2021-03-21T09:33:59Z</time>
      </trkpt>
      <trkpt lat="43.57097" lon="5.63972">
        <ele>575.97</ele>
        <time>2021-03-21T09:34:08Z</time>
      </trkpt>
      <trkpt lat="43.57089" lon="5.63998">
        <ele>577.77</ele>
        <time>2021-03-21T09:34:18Z</time>
      </trkpt>
      <trkpt lat="43.57082" lon="5.64021">
        <ele>578.07</ele>
        <time>2021-03-21T09:34:26Z</time>
      </trkpt>
      <trkpt lat="43.57074" lon="5.64045">
        <ele>576.92</ele>
        <time>2021-03-21T09:34:34Z</time>
      </trkpt>
      <trkpt lat="43.57065" lon="5.64068">
        <ele>578.31</ele>
        <time>2021-03-21T09:34:42Z</time>
      </trkpt>
      <trkpt lat="43.57059" lon="5.64094">
        <ele>578.6</ele>
        <time>2021-03-21T09:34:51Z</time>
      </trkpt>
      <trkpt lat="43.57051" lon="5.64119">
        <ele>578.96</ele>
        <time>2021-03-21T09:34:59Z</time>
      </trkpt>
      <trkpt lat="43.57043" lon="5.64144">
        <ele>580.95</ele>
        <time>2021-03-21T09:35:08Z</time>
      </trkpt>
      <trkpt lat="43.57036" lon="5.64167">
        <ele>583.02</ele>
        <time>2021-03-21T09:35:17Z</time>
      </trkpt>
      <trkpt lat="43.57032" lon="5.64192">
        <ele>584.22</ele>
        <time>2021-03-21T09:35:26Z</time>
      </trkpt>
      <trkpt lat="43.57028" lon="5.64217">
        <ele>585.02</ele>
        <time>2021-03-21T09:35:35Z</time>
      </trkpt>
      <trkpt lat="43.5702" lon="5.64241">
        <ele>585.6</ele>
        <time>2021-03-21T09:35:44Z</time>
      </trkpt>
      <trkpt lat="43.57013" lon="5.64266">
        <ele>586.52</ele>
        <time>2021-03-21T09:35:53Z</time>
      </trkpt>
      <trkpt lat="43.57006" lon="5.64291">
        <ele>587.9</ele>
        <time>2021-03-21T09:36:02Z</time>
      </trkpt>
      <trkpt lat="43.57001" lon="5.64315">
        <ele>589.4</ele>
        <time>2021-03-21T09:36:11Z</time>
      </trkpt>
      <trkpt lat="43.56994" lon="5.64341">
        <ele>591.51</ele>
        <time>2021-03-21T09:36:20Z</time>
      </trkpt>
      <trkpt lat="43.56988" lon="5.64365">
        <ele>593.1</ele>
        <time>2021-03-21T09:36:29Z</time>
      </trkpt>
      <trkpt lat="43.5698" lon="5.64388">
        <ele>594.42</ele>
        <time>2021-03-21T09:36:38Z</time>
      </trkpt>
      <trkpt lat="43.5697" lon="5.64412">
        <ele>596.08</ele>
        <time>2021-03-21T09:36:47Z</time>
      </trkpt>
      <trkpt lat="43.56959" lon="5.64435">
        <ele>597.35</ele>
        <time>2021-03-21T09:36:56Z</time>
      </trkpt>
      <trkpt lat="43.56947" lon="5.64455">
        <ele>598.5</ele>
        <time>2021-03-21T09:37:04Z</time>
      </trkpt>
      <trkpt lat="43.56932" lon="5.64469">
        <ele>599.55</ele>
        <time>2021-03-21T09:37:12Z</time>
      </trkpt>
      <trkpt lat="43.56914" lon="5.64483">
        <ele>597.95</ele>
        <time>2021-03-21T09:37:19Z</time>
      </trkpt>
      <trkpt lat="43.56902" lon="5.64504">
        <ele>598.57</ele>
        <time>2021-03-21T09:37:23Z</time>
      </trkpt>
      <trkpt lat="43.56889" lon="5.64523">
        <ele>599.58</ele>
        <time>2021-03-21T09:37:28Z</time>
      </trkpt>
      <trkpt lat="43.56874" lon="5.64536">
        <ele>601.59</ele>
        <time>2021-03-21T09:37:35Z</time>
      </trkpt>
      <trkpt lat="43.56854" lon="5.64543">
        <ele>602.17</ele>
        <time>2021-03-21T09:37:42Z</time>
      </trkpt>
      <trkpt lat="43.56833" lon="5.64542">
        <ele>605.7</ele>
        <time>2021-03-21T09:37:49Z</time>
      </trkpt>
      <trkpt lat="43.56814" lon="5.64533">
        <ele>606.78</ele>
        <time>2021-03-21T09:37:56Z</time>
      </trkpt>
      <trkpt lat="43.56796" lon="5.64527">
        <ele>608.85</ele>
        <time>2021-03-21T09:38:03Z</time>
      </trkpt>
      <trkpt lat="43.56778" lon="5.64522">
        <ele>611.49</ele>
        <time>2021-03-21T09:38:10Z</time>
      </trkpt>
      <trkpt lat="43.56759" lon="5.64515">
        <ele>614.74</ele>
        <time>2021-03-21T09:38:18Z</time>
      </trkpt>
      <trkpt lat="43.56741" lon="5.64506">
        <ele>614.47</ele>
        <time>2021-03-21T09:38:25Z</time>
      </trkpt>
      <trkpt lat="43.56723" lon="5.64498">
        <ele>611.62</ele>
        <time>2021-03-21T09:38:32Z</time>
      </trkpt>
      <trkpt lat="43.56705" lon="5.6449">
        <ele>609.89</ele>
        <time>2021-03-21T09:38:39Z</time>
      </trkpt>
      <trkpt lat="43.56684" lon="5.64484">
        <ele>608.65</ele>
        <time>2021-03-21T09:38:46Z</time>
      </trkpt>
      <trkpt lat="43.56667" lon="5.64478">
        <ele>609.04</ele>
        <time>2021-03-21T09:38:52Z</time>
      </trkpt>
      <trkpt lat="43.56649" lon="5.64473">
        <ele>609.86</ele>
        <time>2021-03-21T09:38:58Z</time>
      </trkpt>
      <trkpt lat="43.5663" lon="5.64465">
        <ele>609.73</ele>
        <time>2021-03-21T09:39:05Z</time>
      </trkpt>
      <trkpt lat="43.56611" lon="5.6446">
        <ele>611.39</ele>
        <time>2021-03-21T09:39:13Z</time>
      </trkpt>
      <trkpt lat="43.56594" lon="5.64453">
        <ele>612.63</ele>
        <time>2021-03-21T09:39:20Z</time>
      </trkpt>
      <trkpt lat="43.56576" lon="5.64445">
        <ele>612.74</ele>
        <time>2021-03-21T09:39:25Z</time>
      </trkpt>
      <trkpt lat="43.56558" lon="5.64437">
        <ele>614.32</ele>
        <time>2021-03-21T09:39:31Z</time>
      </trkpt>
      <trkpt lat="43.56538" lon="5.6443">
        <ele>615.89</ele>
        <time>2021-03-21T09:39:37Z</time>
      </trkpt>
      <trkpt lat="43.56519" lon="5.64425">
        <ele>615.97</ele>
        <time>2021-03-21T09:39:42Z</time>
      </trkpt>
      <trkpt lat="43.56501" lon="5.64417">
        <ele>613.47</ele>
        <time>2021-03-21T09:39:47Z</time>
      </trkpt>
      <trkpt lat="43.56483" lon="5.64411">
        <ele>611.15</ele>
        <time>2021-03-21T09:39:52Z</time>
      </trkpt>
      <trkpt lat="43.56461" lon="5.64403">
        <ele>607.85</ele>
        <time>2021-03-21T09:39:57Z</time>
      </trkpt>
      <trkpt lat="43.56448" lon="5.64425">
        <ele>601.44</ele>
        <time>2021-03-21T09:40:03Z</time>
      </trkpt>
      <trkpt lat="43.56446" lon="5.64457">
        <ele>596.6</ele>
        <time>2021-03-21T09:40:08Z</time>
      </trkpt>
      <trkpt lat="43.56439" lon="5.64484">
        <ele>595.23</ele>
        <time>2021-03-21T09:40:12Z</time>
      </trkpt>
      <trkpt lat="43.56443" lon="5.6451">
        <ele>595.6</ele>
        <time>2021-03-21T09:40:17Z</time>
      </trkpt>
      <trkpt lat="43.56448" lon="5.64533">
        <ele>596.19</ele>
        <time>2021-03-21T09:40:22Z</time>
      </trkpt>
      <trkpt lat="43.56458" lon="5.64557">
        <ele>596.71</ele>
        <time>2021-03-21T09:40:27Z</time>
      </trkpt>
      <trkpt lat="43.56466" lon="5.6458">
        <ele>597.22</ele>
        <time>2021-03-21T09:40:34Z</time>
      </trkpt>
      <trkpt lat="43.56471" lon="5.64608">
        <ele>596.45</ele>
        <time>2021-03-21T09:40:41Z</time>
      </trkpt>
      <trkpt lat="43.56474" lon="5.64633">
        <ele>597.7</ele>
        <time>2021-03-21T09:40:47Z</time>
      </trkpt>
      <trkpt lat="43.56481" lon="5.64659">
        <ele>596.87</ele>
        <time>2021-03-21T09:40:53Z</time>
      </trkpt>
      <trkpt lat="43.56489" lon="5.64685">
        <ele>595.62</ele>
        <time>2021-03-21T09:40:58Z</time>
      </trkpt>
      <trkpt lat="43.56488" lon="5.64711">
        <ele>593.34</ele>
        <time>2021-03-21T09:41:02Z</time>
      </trkpt>
      <trkpt lat="43.56476" lon="5.64739">
        <ele>590.62</ele>
        <time>2021-03-21T09:41:06Z</time>
      </trkpt>
      <trkpt lat="43.56462" lon="5.64757">
        <ele>589.06</ele>
        <time>2021-03-21T09:41:09Z</time>
      </trkpt>
      <trkpt lat="43.56448" lon="5.64776">
        <ele>587.68</ele>
        <time>2021-03-21T09:41:12Z</time>
      </trkpt>
      <trkpt lat="43.56433" lon="5.64795">
        <ele>586.95</ele>
        <time>2021-03-21T09:41:15Z</time>
      </trkpt>
      <trkpt lat="43.56418" lon="5.64818">
        <ele>587.33</ele>
        <time>2021-03-21T09:41:19Z</time>
      </trkpt>
      <trkpt lat="43.56401" lon="5.64837">
        <ele>585.88</ele>
        <time>2021-03-21T09:41:24Z</time>
      </trkpt>
      <trkpt lat="43.56379" lon="5.64841">
        <ele>586.03</ele>
        <time>2021-03-21T09:41:28Z</time>
      </trkpt>
      <trkpt lat="43.56361" lon="5.64837">
        <ele>587.17</ele>
        <time>2021-03-21T09:41:32Z</time>
      </trkpt>
      <trkpt lat="43.56342" lon="5.64834">
        <ele>588.08</ele>
        <time>2021-03-21T09:41:37Z</time>
      </trkpt>
      <trkpt lat="43.56324" lon="5.64824">
        <ele>588.31</ele>
        <time>2021-03-21T09:41:43Z</time>
      </trkpt>
      <trkpt lat="43.56311" lon="5.64804">
        <ele>589.38</ele>
        <time>2021-03-21T09:41:49Z</time>
      </trkpt>
      <trkpt lat="43.56299" lon="5.64784">
        <ele>590.87</ele>
        <time>2021-03-21T09:41:55Z</time>
      </trkpt>
      <trkpt lat="43.56287" lon="5.64763">
        <ele>592.59</ele>
        <time>2021-03-21T09:42:01Z</time>
      </trkpt>
      <trkpt lat="43.56276" lon="5.64739">
        <ele>592.93</ele>
        <time>2021-03-21T09:42:07Z</time>
      </trkpt>
      <trkpt lat="43.56258" lon="5.64723">
        <ele>592.72</ele>
        <time>2021-03-21T09:42:13Z</time>
      </trkpt>
      <trkpt lat="43.56237" lon="5.64721">
        <ele>591.11</ele>
        <time>2021-03-21T09:42:18Z</time>
      </trkpt>
      <trkpt lat="43.56218" lon="5.64723">
        <ele>588.03</ele>
        <time>2021-03-21T09:42:22Z</time>
      </trkpt>
      <trkpt lat="43.56196" lon="5.64728">
        <ele>586.39</ele>
        <time>2021-03-21T09:42:27Z</time>
      </trkpt>
      <trkpt lat="43.56173" lon="5.64728">
        <ele>587.88</ele>
        <time>2021-03-21T09:42:31Z</time>
      </trkpt>
      <trkpt lat="43.56155" lon="5.64729">
        <ele>590.52</ele>
        <time>2021-03-21T09:42:37Z</time>
      </trkpt>
      <trkpt lat="43.56142" lon="5.64749">
        <ele>591.52</ele>
        <time>2021-03-21T09:42:45Z</time>
      </trkpt>
      <trkpt lat="43.56127" lon="5.64763">
        <ele>592.49</ele>
        <time>2021-03-21T09:42:53Z</time>
      </trkpt>
      <trkpt lat="43.56112" lon="5.64781">
        <ele>593.52</ele>
        <time>2021-03-21T09:43:03Z</time>
      </trkpt>
      <trkpt lat="43.56107" lon="5.64806">
        <ele>594.8</ele>
        <time>2021-03-21T09:43:13Z</time>
      </trkpt>
      <trkpt lat="43.56107" lon="5.64832">
        <ele>596.64</ele>
        <time>2021-03-21T09:43:23Z</time>
      </trkpt>
      <trkpt lat="43.56113" lon="5.64855">
        <ele>597.1</ele>
        <time>2021-03-21T09:43:31Z</time>
      </trkpt>
      <trkpt lat="43.56124" lon="5.64879">
        <ele>596.83</ele>
        <time>2021-03-21T09:43:38Z</time>
      </trkpt>
      <trkpt lat="43.56127" lon="5.64906">
        <ele>597.41</ele>
        <time>2021-03-21T09:43:45Z</time>
      </trkpt>
      <trkpt lat="43.56126" lon="5.64932">
        <ele>598.12</ele>
        <time>2021-03-21T09:43:52Z</time>
      </trkpt>
      <trkpt lat="43.56127" lon="5.64961">
        <ele>599.02</ele>
        <time>2021-03-21T09:43:59Z</time>
      </trkpt>
      <trkpt lat="43.5613" lon="5.6499">
        <ele>598.66</ele>
        <time>2021-03-21T09:44:05Z</time>
      </trkpt>
      <trkpt lat="43.56135" lon="5.65018">
        <ele>597.27</ele>
        <time>2021-03-21T09:44:10Z</time>
      </trkpt>
      <trkpt lat="43.56141" lon="5.65046">
        <ele>597.05</ele>
        <time>2021-03-21T09:44:15Z</time>
      </trkpt>
      <trkpt lat="43.56147" lon="5.65074">
        <ele>596.67</ele>
        <time>2021-03-21T09:44:20Z</time>
      </trkpt>
      <trkpt lat="43.56153" lon="5.65099">
        <ele>597.42</ele>
        <time>2021-03-21T09:44:25Z</time>
      </trkpt>
      <trkpt lat="43.56162" lon="5.65124">
        <ele>598.56</ele>
        <time>2021-03-21T09:44:31Z</time>
      </trkpt>
      <trkpt lat="43.5617" lon="5.65149">
        <ele>599.62</ele>
        <time>2021-03-21T09:44:37Z</time>
      </trkpt>
      <trkpt lat="43.56177" lon="5.65177">
        <ele>600.54</ele>
        <time>2021-03-21T09:44:44Z</time>
      </trkpt>
      <trkpt lat="43.56181" lon="5.65204">
        <ele>600.44</ele>
        <time>2021-03-21T09:44:50Z</time>
      </trkpt>
      <trkpt lat="43.56182" lon="5.65232">
        <ele>600.74</ele>
        <time>2021-03-21T09:44:56Z</time>
      </trkpt>
      <trkpt lat="43.56182" lon="5.65261">
        <ele>601.31</ele>
        <time>2021-03-21T09:45:02Z</time>
      </trkpt>
      <trkpt lat="43.56186" lon="5.65288">
        <ele>601.41</ele>
        <time>2021-03-21T09:45:08Z</time>
      </trkpt>
      <trkpt lat="43.56188" lon="5.65315">
        <ele>602.09</ele>
        <time>2021-03-21T09:45:14Z</time>
      </trkpt>
      <trkpt lat="43.56186" lon="5.65341">
        <ele>602.66</ele>
        <time>2021-03-21T09:45:20Z</time>
      </trkpt>
      <trkpt lat="43.56184" lon="5.65366">
        <ele>603.5</ele>
        <time>2021-03-21T09:45:26Z</time>
      </trkpt>
      <trkpt lat="43.56179" lon="5.65393">
        <ele>604.12</ele>
        <time>2021-03-21T09:45:33Z</time>
      </trkpt>
      <trkpt lat="43.56176" lon="5.6542">
        <ele>604.53</ele>
        <time>2021-03-21T09:45:40Z</time>
      </trkpt>
      <trkpt lat="43.56175" lon="5.65446">
        <ele>604.45</ele>
        <time>2021-03-21T09:45:46Z</time>
      </trkpt>
      <trkpt lat="43.56175" lon="5.65472">
        <ele>603.93</ele>
        <time>2021-03-21T09:45:51Z</time>
      </trkpt>
      <trkpt lat="43.56173" lon="5.655">
        <ele>603.27</ele>
        <time>2021-03-21T09:45:56Z</time>
      </trkpt>
      <trkpt lat="43.5617" lon="5.65529">
        <ele>602.35</ele>
        <time>2021-03-21T09:46:01Z</time>
      </trkpt>
      <trkpt lat="43.56167" lon="5.65555">
        <ele>600.85</ele>
        <time>2021-03-21T09:46:05Z</time>
      </trkpt>
      <trkpt lat="43.56165" lon="5.65582">
        <ele>600</ele>
        <time>2021-03-21T09:46:09Z</time>
      </trkpt>
      <trkpt lat="43.56166" lon="5.65608">
        <ele>599.67</ele>
        <time>2021-03-21T09:46:13Z</time>
      </trkpt>
      <trkpt lat="43.56167" lon="5.65635">
        <ele>599.09</ele>
        <time>2021-03-21T09:46:17Z</time>
      </trkpt>
      <trkpt lat="43.56165" lon="5.65661">
        <ele>598.57</ele>
        <time>2021-03-21T09:46:21Z</time>
      </trkpt>
      <trkpt lat="43.56162" lon="5.65691">
        <ele>598.84</ele>
        <time>2021-03-21T09:46:26Z</time>
      </trkpt>
      <trkpt lat="43.56156" lon="5.65718">
        <ele>598.76</ele>
        <time>2021-03-21T09:46:31Z</time>
      </trkpt>
      <trkpt lat="43.5615" lon="5.65746">
        <ele>598.95</ele>
        <time>2021-03-21T09:46:36Z</time>
      </trkpt>
      <trkpt lat="43.56149" lon="5.65775">
        <ele>598.86</ele>
        <time>2021-03-21T09:46:41Z</time>
      </trkpt>
      <trkpt lat="43.5615" lon="5.65805">
        <ele>598.49</ele>
        <time>2021-03-21T09:46:46Z</time>
      </trkpt>
      <trkpt lat="43.5615" lon="5.65831">
        <ele>597.62</ele>
        <time>2021-03-21T09:46:50Z</time>
      </trkpt>
      <trkpt lat="43.56148" lon="5.6586">
        <ele>596.91</ele>
        <time>2021-03-21T09:46:54Z</time>
      </trkpt>
      <trkpt lat="43.56146" lon="5.65887">
        <ele>596.77</ele>
        <time>2021-03-21T09:46:58Z</time>
      </trkpt>
      <trkpt lat="43.56144" lon="5.65914">
        <ele>596.34</ele>
        <time>2021-03-21T09:47:02Z</time>
      </trkpt>
      <trkpt lat="43.56146" lon="5.65941">
        <ele>596.72</ele>
        <time>2021-03-21T09:47:06Z</time>
      </trkpt>
      <trkpt lat="43.56147" lon="5.65968">
        <ele>596.39</ele>
        <time>2021-03-21T09:47:10Z</time>
      </trkpt>
      <trkpt lat="43.56147" lon="5.65995">
        <ele>596.18</ele>
        <time>2021-03-21T09:47:14Z</time>
      </trkpt>
      <trkpt lat="43.56145" lon="5.66025">
        <ele>595.51</ele>
        <time>2021-03-21T09:47:18Z</time>
      </trkpt>
      <trkpt lat="43.56142" lon="5.66055">
        <ele>594.46</ele>
        <time>2021-03-21T09:47:22Z</time>
      </trkpt>
      <trkpt lat="43.56138" lon="5.66083">
        <ele>594.57</ele>
        <time>2021-03-21T09:47:26Z</time>
      </trkpt>
      <trkpt lat="43.56136" lon="5.66111">
        <ele>594.11</ele>
        <time>2021-03-21T09:47:30Z</time>
      </trkpt>
      <trkpt lat="43.56135" lon="5.66142">
        <ele>593.48</ele>
        <time>2021-03-21T09:47:34Z</time>
      </trkpt>
      <trkpt lat="43.56135" lon="5.66167">
        <ele>592.8</ele>
        <time>2021-03-21T09:47:37Z</time>
      </trkpt>
      <trkpt lat="43.56132" lon="5.66199">
        <ele>592.6</ele>
        <time>2021-03-21T09:47:41Z</time>
      </trkpt>
      <trkpt lat="43.56128" lon="5.66227">
        <ele>592.39</ele>
        <time>2021-03-21T09:47:45Z</time>
      </trkpt>
      <trkpt lat="43.56125" lon="5.66251">
        <ele>593.01</ele>
        <time>2021-03-21T09:47:49Z</time>
      </trkpt>
      <trkpt lat="43.56123" lon="5.66282">
        <ele>593.57</ele>
        <time>2021-03-21T09:47:54Z</time>
      </trkpt>
      <trkpt lat="43.56122" lon="5.66307">
        <ele>594.35</ele>
        <time>2021-03-21T09:47:58Z</time>
      </trkpt>
      <trkpt lat="43.56121" lon="5.66334">
        <ele>595.33</ele>
        <time>2021-03-21T09:48:02Z</time>
      </trkpt>
      <trkpt lat="43.56118" lon="5.66359">
        <ele>596.44</ele>
        <time>2021-03-21T09:48:06Z</time>
      </trkpt>
      <trkpt lat="43.56114" lon="5.66384">
        <ele>597.31</ele>
        <time>2021-03-21T09:48:10Z</time>
      </trkpt>
      <trkpt lat="43.56112" lon="5.66413">
        <ele>596.02</ele>
        <time>2021-03-21T09:48:14Z</time>
      </trkpt>
      <trkpt lat="43.56107" lon="5.66442">
        <ele>595.4</ele>
        <time>2021-03-21T09:48:18Z</time>
      </trkpt>
      <trkpt lat="43.56098" lon="5.66466">
        <ele>594.74</ele>
        <time>2021-03-21T09:48:22Z</time>
      </trkpt>
      <trkpt lat="43.56092" lon="5.66491">
        <ele>594.17</ele>
        <time>2021-03-21T09:48:26Z</time>
      </trkpt>
      <trkpt lat="43.56086" lon="5.6652">
        <ele>592.4</ele>
        <time>2021-03-21T09:48:30Z</time>
      </trkpt>
      <trkpt lat="43.56081" lon="5.66551">
        <ele>590.53</ele>
        <time>2021-03-21T09:48:34Z</time>
      </trkpt>
      <trkpt lat="43.56078" lon="5.66576">
        <ele>589.43</ele>
        <time>2021-03-21T09:48:37Z</time>
      </trkpt>
      <trkpt lat="43.56077" lon="5.66603">
        <ele>587.57</ele>
        <time>2021-03-21T09:48:40Z</time>
      </trkpt>
      <trkpt lat="43.56075" lon="5.66631">
        <ele>585.66</ele>
        <time>2021-03-21T09:48:43Z</time>
      </trkpt>
      <trkpt lat="43.56072" lon="5.66659">
        <ele>583.78</ele>
        <time>2021-03-21T09:48:46Z</time>
      </trkpt>
      <trkpt lat="43.56073" lon="5.66686">
        <ele>581.51</ele>
        <time>2021-03-21T09:48:49Z</time>
      </trkpt>
      <trkpt lat="43.56077" lon="5.66713">
        <ele>579.31</ele>
        <time>2021-03-21T09:48:52Z</time>
      </trkpt>
      <trkpt lat="43.56081" lon="5.66741">
        <ele>577.48</ele>
        <time>2021-03-21T09:48:55Z</time>
      </trkpt>
      <trkpt lat="43.56087" lon="5.66769">
        <ele>575.4</ele>
        <time>2021-03-21T09:48:58Z</time>
      </trkpt>
      <trkpt lat="43.56092" lon="5.66799">
        <ele>572.65</ele>
        <time>2021-03-21T09:49:01Z</time>
      </trkpt>
      <trkpt lat="43.56099" lon="5.66826">
        <ele>570.25</ele>
        <time>2021-03-21T09:49:04Z</time>
      </trkpt>
      <trkpt lat="43.56104" lon="5.66854">
        <ele>568.3</ele>
        <time>2021-03-21T09:49:07Z</time>
      </trkpt>
      <trkpt lat="43.56104" lon="5.66884">
        <ele>566</ele>
        <time>2021-03-21T09:49:10Z</time>
      </trkpt>
      <trkpt lat="43.56103" lon="5.66917">
        <ele>563.44</ele>
        <time>2021-03-21T09:49:13Z</time>
      </trkpt>
      <trkpt lat="43.56104" lon="5.6695">
        <ele>561.59</ele>
        <time>2021-03-21T09:49:16Z</time>
      </trkpt>
      <trkpt lat="43.56103" lon="5.66982">
        <ele>559.6</ele>
        <time>2021-03-21T09:49:19Z</time>
      </trkpt>
      <trkpt lat="43.56103" lon="5.67008">
        <ele>558.05</ele>
        <time>2021-03-21T09:49:22Z</time>
      </trkpt>
      <trkpt lat="43.56102" lon="5.67033">
        <ele>556.57</ele>
        <time>2021-03-21T09:49:29Z</time>
      </trkpt>
      <trkpt lat="43.56099" lon="5.67062">
        <ele>556.67</ele>
        <time>2021-03-21T09:50:21Z</time>
      </trkpt>
      <trkpt lat="43.561" lon="5.67088">
        <ele>555.11</ele>
        <time>2021-03-21T09:50:27Z</time>
      </trkpt>
      <trkpt lat="43.56098" lon="5.67113">
        <ele>553.95</ele>
        <time>2021-03-21T09:50:32Z</time>
      </trkpt>
      <trkpt lat="43.56097" lon="5.67141">
        <ele>552.68</ele>
        <time>2021-03-21T09:50:37Z</time>
      </trkpt>
      <trkpt lat="43.56092" lon="5.67172">
        <ele>551.23</ele>
        <time>2021-03-21T09:50:42Z</time>
      </trkpt>
      <trkpt lat="43.56086" lon="5.67197">
        <ele>550.06</ele>
        <time>2021-03-21T09:50:46Z</time>
      </trkpt>
      <trkpt lat="43.56071" lon="5.67217">
        <ele>547.03</ele>
        <time>2021-03-21T09:50:51Z</time>
      </trkpt>
      <trkpt lat="43.56056" lon="5.67233">
        <ele>543.97</ele>
        <time>2021-03-21T09:50:55Z</time>
      </trkpt>
      <trkpt lat="43.56036" lon="5.67249">
        <ele>540.07</ele>
        <time>2021-03-21T09:51:00Z</time>
      </trkpt>
      <trkpt lat="43.56018" lon="5.67266">
        <ele>536.61</ele>
        <time>2021-03-21T09:51:05Z</time>
      </trkpt>
      <trkpt lat="43.56003" lon="5.67284">
        <ele>531.26</ele>
        <time>2021-03-21T09:51:14Z</time>
      </trkpt>
      <trkpt lat="43.55984" lon="5.67297">
        <ele>531.29</ele>
        <time>2021-03-21T09:51:18Z</time>
      </trkpt>
      <trkpt lat="43.55965" lon="5.67313">
        <ele>531.37</ele>
        <time>2021-03-21T09:51:22Z</time>
      </trkpt>
      <trkpt lat="43.55949" lon="5.67327">
        <ele>531.72</ele>
        <time>2021-03-21T09:51:26Z</time>
      </trkpt>
      <trkpt lat="43.55932" lon="5.67343">
        <ele>532.04</ele>
        <time>2021-03-21T09:51:30Z</time>
      </trkpt>
      <trkpt lat="43.55916" lon="5.67358">
        <ele>534.5</ele>
        <time>2021-03-21T09:51:35Z</time>
      </trkpt>
      <trkpt lat="43.55898" lon="5.67369">
        <ele>536.87</ele>
        <time>2021-03-21T09:51:42Z</time>
      </trkpt>
      <trkpt lat="43.55887" lon="5.67389">
        <ele>537.67</ele>
        <time>2021-03-21T09:51:49Z</time>
      </trkpt>
      <trkpt lat="43.5588" lon="5.67415">
        <ele>537.97</ele>
        <time>2021-03-21T09:51:56Z</time>
      </trkpt>
      <trkpt lat="43.55871" lon="5.67438">
        <ele>538.25</ele>
        <time>2021-03-21T09:52:03Z</time>
      </trkpt>
      <trkpt lat="43.55856" lon="5.6745">
        <ele>541.27</ele>
        <time>2021-03-21T09:52:11Z</time>
      </trkpt>
      <trkpt lat="43.55838" lon="5.67462">
        <ele>541.44</ele>
        <time>2021-03-21T09:52:19Z</time>
      </trkpt>
      <trkpt lat="43.55818" lon="5.67473">
        <ele>542.81</ele>
        <time>2021-03-21T09:52:26Z</time>
      </trkpt>
      <trkpt lat="43.558" lon="5.6748">
        <ele>541.76</ele>
        <time>2021-03-21T09:52:31Z</time>
      </trkpt>
      <trkpt lat="43.55782" lon="5.67491">
        <ele>542.33</ele>
        <time>2021-03-21T09:52:37Z</time>
      </trkpt>
      <trkpt lat="43.55779" lon="5.67517">
        <ele>542.67</ele>
        <time>2021-03-21T09:52:45Z</time>
      </trkpt>
      <trkpt lat="43.55791" lon="5.67543">
        <ele>539.75</ele>
        <time>2021-03-21T09:52:50Z</time>
      </trkpt>
      <trkpt lat="43.55801" lon="5.67567">
        <ele>538.47</ele>
        <time>2021-03-21T09:52:54Z</time>
      </trkpt>
      <trkpt lat="43.55811" lon="5.67595">
        <ele>537.83</ele>
        <time>2021-03-21T09:52:58Z</time>
      </trkpt>
      <trkpt lat="43.55825" lon="5.67621">
        <ele>538.33</ele>
        <time>2021-03-21T09:53:02Z</time>
      </trkpt>
      <trkpt lat="43.55838" lon="5.67641">
        <ele>538.59</ele>
        <time>2021-03-21T09:53:05Z</time>
      </trkpt>
      <trkpt lat="43.55854" lon="5.67661">
        <ele>537.71</ele>
        <time>2021-03-21T09:53:08Z</time>
      </trkpt>
      <trkpt lat="43.55871" lon="5.67682">
        <ele>537.39</ele>
        <time>2021-03-21T09:53:11Z</time>
      </trkpt>
      <trkpt lat="43.55887" lon="5.67701">
        <ele>536.62</ele>
        <time>2021-03-21T09:53:14Z</time>
      </trkpt>
      <trkpt lat="43.55903" lon="5.6772">
        <ele>535.78</ele>
        <time>2021-03-21T09:53:17Z</time>
      </trkpt>
      <trkpt lat="43.55917" lon="5.67738">
        <ele>534.72</ele>
        <time>2021-03-21T09:53:20Z</time>
      </trkpt>
      <trkpt lat="43.55927" lon="5.67762">
        <ele>533.53</ele>
        <time>2021-03-21T09:53:23Z</time>
      </trkpt>
      <trkpt lat="43.55935" lon="5.67788">
        <ele>532.35</ele>
        <time>2021-03-21T09:53:26Z</time>
      </trkpt>
      <trkpt lat="43.55944" lon="5.67815">
        <ele>530.37</ele>
        <time>2021-03-21T09:53:29Z</time>
      </trkpt>
      <trkpt lat="43.55948" lon="5.67844">
        <ele>529.21</ele>
        <time>2021-03-21T09:53:32Z</time>
      </trkpt>
      <trkpt lat="43.55948" lon="5.6787">
        <ele>527.74</ele>
        <time>2021-03-21T09:53:35Z</time>
      </trkpt>
      <trkpt lat="43.55948" lon="5.67902">
        <ele>526.42</ele>
        <time>2021-03-21T09:53:39Z</time>
      </trkpt>
      <trkpt lat="43.5594" lon="5.67929">
        <ele>525.11</ele>
        <time>2021-03-21T09:53:43Z</time>
      </trkpt>
      <trkpt lat="43.55926" lon="5.67954">
        <ele>524.79</ele>
        <time>2021-03-21T09:53:47Z</time>
      </trkpt>
      <trkpt lat="43.55921" lon="5.67986">
        <ele>526.06</ele>
        <time>2021-03-21T09:53:51Z</time>
      </trkpt>
      <trkpt lat="43.55917" lon="5.68019">
        <ele>527.82</ele>
        <time>2021-03-21T09:53:55Z</time>
      </trkpt>
      <trkpt lat="43.55911" lon="5.68043">
        <ele>528.69</ele>
        <time>2021-03-21T09:53:58Z</time>
      </trkpt>
      <trkpt lat="43.55896" lon="5.68059">
        <ele>527.55</ele>
        <time>2021-03-21T09:54:01Z</time>
      </trkpt>
      <trkpt lat="43.55878" lon="5.6808">
        <ele>524.54</ele>
        <time>2021-03-21T09:54:05Z</time>
      </trkpt>
      <trkpt lat="43.55874" lon="5.68106">
        <ele>523.18</ele>
        <time>2021-03-21T09:54:08Z</time>
      </trkpt>
      <trkpt lat="43.55876" lon="5.68134">
        <ele>522.77</ele>
        <time>2021-03-21T09:54:11Z</time>
      </trkpt>
      <trkpt lat="43.55886" lon="5.68158">
        <ele>522.67</ele>
        <time>2021-03-21T09:54:14Z</time>
      </trkpt>
      <trkpt lat="43.55904" lon="5.68177">
        <ele>522.27</ele>
        <time>2021-03-21T09:54:17Z</time>
      </trkpt>
      <trkpt lat="43.55926" lon="5.68188">
        <ele>524.8</ele>
        <time>2021-03-21T09:54:20Z</time>
      </trkpt>
      <trkpt lat="43.55945" lon="5.68191">
        <ele>525.98</ele>
        <time>2021-03-21T09:54:23Z</time>
      </trkpt>
      <trkpt lat="43.55965" lon="5.68194">
        <ele>526.74</ele>
        <time>2021-03-21T09:54:27Z</time>
      </trkpt>
      <trkpt lat="43.55985" lon="5.68195">
        <ele>527.69</ele>
        <time>2021-03-21T09:54:33Z</time>
      </trkpt>
      <trkpt lat="43.55995" lon="5.68221">
        <ele>529.64</ele>
        <time>2021-03-21T09:54:40Z</time>
      </trkpt>
      <trkpt lat="43.55999" lon="5.68248">
        <ele>528.27</ele>
        <time>2021-03-21T09:54:45Z</time>
      </trkpt>
      <trkpt lat="43.55993" lon="5.68275">
        <ele>527.93</ele>
        <time>2021-03-21T09:54:50Z</time>
      </trkpt>
      <trkpt lat="43.55987" lon="5.68299">
        <ele>526.65</ele>
        <time>2021-03-21T09:54:54Z</time>
      </trkpt>
      <trkpt lat="43.5598" lon="5.68326">
        <ele>525.62</ele>
        <time>2021-03-21T09:54:58Z</time>
      </trkpt>
      <trkpt lat="43.55964" lon="5.68348">
        <ele>523.59</ele>
        <time>2021-03-21T09:55:02Z</time>
      </trkpt>
      <trkpt lat="43.55948" lon="5.68362">
        <ele>522.51</ele>
        <time>2021-03-21T09:55:05Z</time>
      </trkpt>
      <trkpt lat="43.55937" lon="5.68382">
        <ele>521.85</ele>
        <time>2021-03-21T09:55:08Z</time>
      </trkpt>
      <trkpt lat="43.55925" lon="5.68405">
        <ele>519.06</ele>
        <time>2021-03-21T09:55:11Z</time>
      </trkpt>
      <trkpt lat="43.55907" lon="5.6842">
        <ele>517.59</ele>
        <time>2021-03-21T09:55:14Z</time>
      </trkpt>
      <trkpt lat="43.55891" lon="5.68436">
        <ele>514.78</ele>
        <time>2021-03-21T09:55:17Z</time>
      </trkpt>
      <trkpt lat="43.5588" lon="5.68462">
        <ele>512.8</ele>
        <time>2021-03-21T09:55:20Z</time>
      </trkpt>
      <trkpt lat="43.55875" lon="5.68493">
        <ele>509.61</ele>
        <time>2021-03-21T09:55:23Z</time>
      </trkpt>
      <trkpt lat="43.55878" lon="5.68527">
        <ele>507.26</ele>
        <time>2021-03-21T09:55:26Z</time>
      </trkpt>
      <trkpt lat="43.55889" lon="5.68557">
        <ele>507.67</ele>
        <time>2021-03-21T09:55:29Z</time>
      </trkpt>
      <trkpt lat="43.55902" lon="5.68584">
        <ele>507.39</ele>
        <time>2021-03-21T09:55:32Z</time>
      </trkpt>
      <trkpt lat="43.55918" lon="5.68604">
        <ele>508.02</ele>
        <time>2021-03-21T09:55:35Z</time>
      </trkpt>
      <trkpt lat="43.55934" lon="5.68618">
        <ele>508.65</ele>
        <time>2021-03-21T09:55:38Z</time>
      </trkpt>
      <trkpt lat="43.55954" lon="5.68636">
        <ele>508.35</ele>
        <time>2021-03-21T09:55:42Z</time>
      </trkpt>
      <trkpt lat="43.55968" lon="5.68652">
        <ele>507.12</ele>
        <time>2021-03-21T09:55:45Z</time>
      </trkpt>
      <trkpt lat="43.55981" lon="5.68679">
        <ele>507.1</ele>
        <time>2021-03-21T09:55:48Z</time>
      </trkpt>
      <trkpt lat="43.55994" lon="5.68699">
        <ele>508.78</ele>
        <time>2021-03-21T09:55:51Z</time>
      </trkpt>
      <trkpt lat="43.56004" lon="5.6872">
        <ele>508.86</ele>
        <time>2021-03-21T09:55:55Z</time>
      </trkpt>
      <trkpt lat="43.56012" lon="5.68746">
        <ele>508.46</ele>
        <time>2021-03-21T09:55:59Z</time>
      </trkpt>
      <trkpt lat="43.56027" lon="5.68768">
        <ele>509.5</ele>
        <time>2021-03-21T09:56:03Z</time>
      </trkpt>
      <trkpt lat="43.5604" lon="5.68785">
        <ele>510.38</ele>
        <time>2021-03-21T09:56:08Z</time>
      </trkpt>
      <trkpt lat="43.5605" lon="5.68807">
        <ele>509.64</ele>
        <time>2021-03-21T09:56:14Z</time>
      </trkpt>
      <trkpt lat="43.56044" lon="5.68831">
        <ele>508.11</ele>
        <time>2021-03-21T09:56:19Z</time>
      </trkpt>
      <trkpt lat="43.56027" lon="5.68846">
        <ele>505.24</ele>
        <time>2021-03-21T09:56:23Z</time>
      </trkpt>
      <trkpt lat="43.56009" lon="5.68855">
        <ele>502.76</ele>
        <time>2021-03-21T09:56:27Z</time>
      </trkpt>
      <trkpt lat="43.55993" lon="5.68867">
        <ele>500.28</ele>
        <time>2021-03-21T09:56:30Z</time>
      </trkpt>
      <trkpt lat="43.55973" lon="5.68881">
        <ele>496.43</ele>
        <time>2021-03-21T09:56:34Z</time>
      </trkpt>
      <trkpt lat="43.55951" lon="5.68876">
        <ele>493.42</ele>
        <time>2021-03-21T09:56:37Z</time>
      </trkpt>
      <trkpt lat="43.55932" lon="5.68879">
        <ele>491.72</ele>
        <time>2021-03-21T09:56:39Z</time>
      </trkpt>
      <trkpt lat="43.55912" lon="5.68887">
        <ele>489.96</ele>
        <time>2021-03-21T09:56:42Z</time>
      </trkpt>
      <trkpt lat="43.55893" lon="5.68886">
        <ele>490.62</ele>
        <time>2021-03-21T09:56:48Z</time>
      </trkpt>
      <trkpt lat="43.55872" lon="5.6889">
        <ele>492.74</ele>
        <time>2021-03-21T09:56:55Z</time>
      </trkpt>
      <trkpt lat="43.55854" lon="5.68884">
        <ele>494.45</ele>
        <time>2021-03-21T09:56:59Z</time>
      </trkpt>
      <trkpt lat="43.55834" lon="5.68877">
        <ele>497.54</ele>
        <time>2021-03-21T09:57:05Z</time>
      </trkpt>
      <trkpt lat="43.55817" lon="5.68867">
        <ele>502.6</ele>
        <time>2021-03-21T09:57:12Z</time>
      </trkpt>
      <trkpt lat="43.55801" lon="5.68854">
        <ele>510.21</ele>
        <time>2021-03-21T09:57:20Z</time>
      </trkpt>
      <trkpt lat="43.55784" lon="5.68842">
        <ele>516.03</ele>
        <time>2021-03-21T09:57:27Z</time>
      </trkpt>
      <trkpt lat="43.55767" lon="5.68829">
        <ele>515.31</ele>
        <time>2021-03-21T09:57:33Z</time>
      </trkpt>
      <trkpt lat="43.55753" lon="5.68813">
        <ele>511.56</ele>
        <time>2021-03-21T09:57:39Z</time>
      </trkpt>
      <trkpt lat="43.55735" lon="5.68806">
        <ele>508.96</ele>
        <time>2021-03-21T09:57:46Z</time>
      </trkpt>
      <trkpt lat="43.55715" lon="5.68799">
        <ele>508.12</ele>
        <time>2021-03-21T09:57:54Z</time>
      </trkpt>
      <trkpt lat="43.55697" lon="5.68795">
        <ele>507.37</ele>
        <time>2021-03-21T09:58:01Z</time>
      </trkpt>
      <trkpt lat="43.5568" lon="5.68802">
        <ele>508.56</ele>
        <time>2021-03-21T09:58:10Z</time>
      </trkpt>
      <trkpt lat="43.55662" lon="5.68803">
        <ele>509.88</ele>
        <time>2021-03-21T09:58:17Z</time>
      </trkpt>
      <trkpt lat="43.55643" lon="5.68802">
        <ele>510.74</ele>
        <time>2021-03-21T09:58:24Z</time>
      </trkpt>
      <trkpt lat="43.55625" lon="5.68794">
        <ele>510.55</ele>
        <time>2021-03-21T09:58:31Z</time>
      </trkpt>
      <trkpt lat="43.55605" lon="5.68793">
        <ele>510.18</ele>
        <time>2021-03-21T09:58:38Z</time>
      </trkpt>
      <trkpt lat="43.55585" lon="5.68794">
        <ele>509.5</ele>
        <time>2021-03-21T09:58:44Z</time>
      </trkpt>
      <trkpt lat="43.55564" lon="5.68792">
        <ele>509.46</ele>
        <time>2021-03-21T09:58:52Z</time>
      </trkpt>
      <trkpt lat="43.55544" lon="5.68797">
        <ele>508.38</ele>
        <time>2021-03-21T09:58:59Z</time>
      </trkpt>
      <trkpt lat="43.55542" lon="5.68823">
        <ele>506.74</ele>
        <time>2021-03-21T09:59:09Z</time>
      </trkpt>
      <trkpt lat="43.55554" lon="5.68842">
        <ele>506.28</ele>
        <time>2021-03-21T09:59:13Z</time>
      </trkpt>
      <trkpt lat="43.55567" lon="5.68861">
        <ele>506.82</ele>
        <time>2021-03-21T09:59:17Z</time>
      </trkpt>
      <trkpt lat="43.55582" lon="5.68884">
        <ele>506.98</ele>
        <time>2021-03-21T09:59:22Z</time>
      </trkpt>
      <trkpt lat="43.55595" lon="5.68902">
        <ele>506.13</ele>
        <time>2021-03-21T09:59:26Z</time>
      </trkpt>
      <trkpt lat="43.55608" lon="5.68926">
        <ele>504.36</ele>
        <time>2021-03-21T09:59:31Z</time>
      </trkpt>
      <trkpt lat="43.55619" lon="5.68953">
        <ele>502.69</ele>
        <time>2021-03-21T09:59:36Z</time>
      </trkpt>
      <trkpt lat="43.55629" lon="5.68974">
        <ele>501.52</ele>
        <time>2021-03-21T09:59:40Z</time>
      </trkpt>
      <trkpt lat="43.55641" lon="5.68998">
        <ele>500.99</ele>
        <time>2021-03-21T09:59:45Z</time>
      </trkpt>
      <trkpt lat="43.55655" lon="5.69019">
        <ele>500.74</ele>
        <time>2021-03-21T09:59:50Z</time>
      </trkpt>
      <trkpt lat="43.55665" lon="5.69041">
        <ele>500.55</ele>
        <time>2021-03-21T09:59:55Z</time>
      </trkpt>
      <trkpt lat="43.55673" lon="5.69064">
        <ele>500.46</ele>
        <time>2021-03-21T10:00:00Z</time>
      </trkpt>
      <trkpt lat="43.55677" lon="5.69091">
        <ele>500.74</ele>
        <time>2021-03-21T10:00:05Z</time>
      </trkpt>
      <trkpt lat="43.55686" lon="5.69116">
        <ele>501.91</ele>
        <time>2021-03-21T10:00:11Z</time>
      </trkpt>
      <trkpt lat="43.55695" lon="5.69141">
        <ele>502.61</ele>
        <time>2021-03-21T10:00:18Z</time>
      </trkpt>
      <trkpt lat="43.55703" lon="5.69166">
        <ele>504.01</ele>
        <time>2021-03-21T10:00:26Z</time>
      </trkpt>
      <trkpt lat="43.55708" lon="5.69193">
        <ele>504.54</ele>
        <time>2021-03-21T10:00:34Z</time>
      </trkpt>
      <trkpt lat="43.55709" lon="5.69221">
        <ele>505.21</ele>
        <time>2021-03-21T10:00:42Z</time>
      </trkpt>
      <trkpt lat="43.55711" lon="5.69246">
        <ele>506.2</ele>
        <time>2021-03-21T10:00:50Z</time>
      </trkpt>
      <trkpt lat="43.55714" lon="5.6927">
        <ele>507.04</ele>
        <time>2021-03-21T10:00:58Z</time>
      </trkpt>
      <trkpt lat="43.55716" lon="5.69295">
        <ele>508.11</ele>
        <time>2021-03-21T10:01:06Z</time>
      </trkpt>
      <trkpt lat="43.55721" lon="5.69323">
        <ele>509</ele>
        <time>2021-03-21T10:01:14Z</time>
      </trkpt>
      <trkpt lat="43.55725" lon="5.6935">
        <ele>509.24</ele>
        <time>2021-03-21T10:01:22Z</time>
      </trkpt>
      <trkpt lat="43.55728" lon="5.69377">
        <ele>509.82</ele>
        <time>2021-03-21T10:01:29Z</time>
      </trkpt>
      <trkpt lat="43.55732" lon="5.69402">
        <ele>510.72</ele>
        <time>2021-03-21T10:01:35Z</time>
      </trkpt>
      <trkpt lat="43.55737" lon="5.69428">
        <ele>510.67</ele>
        <time>2021-03-21T10:01:41Z</time>
      </trkpt>
      <trkpt lat="43.55743" lon="5.69457">
        <ele>510.39</ele>
        <time>2021-03-21T10:01:47Z</time>
      </trkpt>
      <trkpt lat="43.55749" lon="5.69482">
        <ele>510.45</ele>
        <time>2021-03-21T10:01:52Z</time>
      </trkpt>
      <trkpt lat="43.55756" lon="5.69508">
        <ele>510.35</ele>
        <time>2021-03-21T10:01:57Z</time>
      </trkpt>
      <trkpt lat="43.55764" lon="5.69536">
        <ele>510.88</ele>
        <time>2021-03-21T10:02:02Z</time>
      </trkpt>
      <trkpt lat="43.55769" lon="5.69565">
        <ele>511.17</ele>
        <time>2021-03-21T10:02:07Z</time>
      </trkpt>
      <trkpt lat="43.55772" lon="5.6959">
        <ele>511.02</ele>
        <time>2021-03-21T10:02:11Z</time>
      </trkpt>
      <trkpt lat="43.55773" lon="5.69616">
        <ele>510.94</ele>
        <time>2021-03-21T10:02:15Z</time>
      </trkpt>
      <trkpt lat="43.55774" lon="5.69641">
        <ele>510.87</ele>
        <time>2021-03-21T10:02:19Z</time>
      </trkpt>
      <trkpt lat="43.55776" lon="5.69671">
        <ele>511.12</ele>
        <time>2021-03-21T10:02:24Z</time>
      </trkpt>
      <trkpt lat="43.55779" lon="5.697">
        <ele>511.36</ele>
        <time>2021-03-21T10:02:29Z</time>
      </trkpt>
      <trkpt lat="43.55781" lon="5.69728">
        <ele>511.43</ele>
        <time>2021-03-21T10:02:34Z</time>
      </trkpt>
      <trkpt lat="43.55784" lon="5.69755">
        <ele>511.92</ele>
        <time>2021-03-21T10:02:39Z</time>
      </trkpt>
      <trkpt lat="43.5579" lon="5.6978">
        <ele>512.4</ele>
        <time>2021-03-21T10:02:44Z</time>
      </trkpt>
      <trkpt lat="43.55797" lon="5.69804">
        <ele>513.04</ele>
        <time>2021-03-21T10:02:49Z</time>
      </trkpt>
      <trkpt lat="43.55804" lon="5.69831">
        <ele>512.39</ele>
        <time>2021-03-21T10:02:54Z</time>
      </trkpt>
      <trkpt lat="43.55807" lon="5.69862">
        <ele>511.32</ele>
        <time>2021-03-21T10:02:59Z</time>
      </trkpt>
      <trkpt lat="43.55809" lon="5.6989">
        <ele>509.72</ele>
        <time>2021-03-21T10:03:03Z</time>
      </trkpt>
      <trkpt lat="43.5581" lon="5.69922">
        <ele>508.44</ele>
        <time>2021-03-21T10:03:07Z</time>
      </trkpt>
      <trkpt lat="43.55816" lon="5.69953">
        <ele>507.32</ele>
        <time>2021-03-21T10:03:11Z</time>
      </trkpt>
      <trkpt lat="43.55829" lon="5.69981">
        <ele>506.68</ele>
        <time>2021-03-21T10:03:15Z</time>
      </trkpt>
      <trkpt lat="43.5584" lon="5.7">
        <ele>506.08</ele>
        <time>2021-03-21T10:03:18Z</time>
      </trkpt>
      <trkpt lat="43.55853" lon="5.7002">
        <ele>506.12</ele>
        <time>2021-03-21T10:03:21Z</time>
      </trkpt>
      <trkpt lat="43.55864" lon="5.70041">
        <ele>505.66</ele>
        <time>2021-03-21T10:03:24Z</time>
      </trkpt>
      <trkpt lat="43.55874" lon="5.70063">
        <ele>505.12</ele>
        <time>2021-03-21T10:03:27Z</time>
      </trkpt>
      <trkpt lat="43.55885" lon="5.70088">
        <ele>504.14</ele>
        <time>2021-03-21T10:03:30Z</time>
      </trkpt>
      <trkpt lat="43.55897" lon="5.7011">
        <ele>503.18</ele>
        <time>2021-03-21T10:03:33Z</time>
      </trkpt>
      <trkpt lat="43.55912" lon="5.70126">
        <ele>503.03</ele>
        <time>2021-03-21T10:03:36Z</time>
      </trkpt>
      <trkpt lat="43.55923" lon="5.70148">
        <ele>502.74</ele>
        <time>2021-03-21T10:03:42Z</time>
      </trkpt>
      <trkpt lat="43.55922" lon="5.70174">
        <ele>502.91</ele>
        <time>2021-03-21T10:03:50Z</time>
      </trkpt>
      <trkpt lat="43.55914" lon="5.702">
        <ele>502.2</ele>
        <time>2021-03-21T10:03:56Z</time>
      </trkpt>
      <trkpt lat="43.55908" lon="5.70224">
        <ele>498.75</ele>
        <time>2021-03-21T10:04:25Z</time>
      </trkpt>
      <trkpt lat="43.55897" lon="5.70244">
        <ele>499.07</ele>
        <time>2021-03-21T10:05:35Z</time>
      </trkpt>
      <trkpt lat="43.55889" lon="5.70268">
        <ele>497.93</ele>
        <time>2021-03-21T10:05:40Z</time>
      </trkpt>
      <trkpt lat="43.55879" lon="5.7029">
        <ele>494.57</ele>
        <time>2021-03-21T10:05:45Z</time>
      </trkpt>
      <trkpt lat="43.55874" lon="5.70315">
        <ele>490.88</ele>
        <time>2021-03-21T10:05:52Z</time>
      </trkpt>
      <trkpt lat="43.55863" lon="5.7034">
        <ele>486.12</ele>
        <time>2021-03-21T10:05:58Z</time>
      </trkpt>
      <trkpt lat="43.55856" lon="5.70365">
        <ele>481.39</ele>
        <time>2021-03-21T10:06:04Z</time>
      </trkpt>
      <trkpt lat="43.55852" lon="5.70391">
        <ele>477.39</ele>
        <time>2021-03-21T10:06:12Z</time>
      </trkpt>
      <trkpt lat="43.55855" lon="5.70416">
        <ele>474.86</ele>
        <time>2021-03-21T10:06:24Z</time>
      </trkpt>
      <trkpt lat="43.5587" lon="5.7043">
        <ele>476.2</ele>
        <time>2021-03-21T10:06:31Z</time>
      </trkpt>
      <trkpt lat="43.55888" lon="5.7044">
        <ele>476.4</ele>
        <time>2021-03-21T10:06:37Z</time>
      </trkpt>
      <trkpt lat="43.55886" lon="5.70467">
        <ele>474.94</ele>
        <time>2021-03-21T10:06:43Z</time>
      </trkpt>
      <trkpt lat="43.55878" lon="5.70495">
        <ele>472.38</ele>
        <time>2021-03-21T10:06:48Z</time>
      </trkpt>
      <trkpt lat="43.55861" lon="5.70514">
        <ele>469.41</ele>
        <time>2021-03-21T10:06:52Z</time>
      </trkpt>
      <trkpt lat="43.55847" lon="5.7053">
        <ele>466.92</ele>
        <time>2021-03-21T10:06:55Z</time>
      </trkpt>
      <trkpt lat="43.55833" lon="5.70547">
        <ele>463.72</ele>
        <time>2021-03-21T10:06:58Z</time>
      </trkpt>
      <trkpt lat="43.55812" lon="5.70562">
        <ele>459.91</ele>
        <time>2021-03-21T10:07:02Z</time>
      </trkpt>
      <trkpt lat="43.55795" lon="5.70578">
        <ele>456.36</ele>
        <time>2021-03-21T10:07:05Z</time>
      </trkpt>
      <trkpt lat="43.5578" lon="5.70595">
        <ele>453.26</ele>
        <time>2021-03-21T10:07:08Z</time>
      </trkpt>
      <trkpt lat="43.5576" lon="5.70599">
        <ele>450.89</ele>
        <time>2021-03-21T10:07:11Z</time>
      </trkpt>
      <trkpt lat="43.55742" lon="5.70593">
        <ele>448.71</ele>
        <time>2021-03-21T10:07:14Z</time>
      </trkpt>
      <trkpt lat="43.5572" lon="5.70603">
        <ele>447.14</ele>
        <time>2021-03-21T10:07:18Z</time>
      </trkpt>
      <trkpt lat="43.55701" lon="5.70622">
        <ele>446.17</ele>
        <time>2021-03-21T10:07:22Z</time>
      </trkpt>
      <trkpt lat="43.55687" lon="5.70642">
        <ele>445.4</ele>
        <time>2021-03-21T10:07:25Z</time>
      </trkpt>
      <trkpt lat="43.55672" lon="5.70662">
        <ele>444.05</ele>
        <time>2021-03-21T10:07:28Z</time>
      </trkpt>
      <trkpt lat="43.55656" lon="5.70675">
        <ele>443</ele>
        <time>2021-03-21T10:07:31Z</time>
      </trkpt>
      <trkpt lat="43.55634" lon="5.70679">
        <ele>443.18</ele>
        <time>2021-03-21T10:07:35Z</time>
      </trkpt>
      <trkpt lat="43.55626" lon="5.70654">
        <ele>449.68</ele>
        <time>2021-03-21T10:07:45Z</time>
      </trkpt>
      <trkpt lat="43.55625" lon="5.70628">
        <ele>454.8</ele>
        <time>2021-03-21T10:07:53Z</time>
      </trkpt>
      <trkpt lat="43.55624" lon="5.70601">
        <ele>459.6</ele>
        <time>2021-03-21T10:08:02Z</time>
      </trkpt>
      <trkpt lat="43.5561" lon="5.70582">
        <ele>459.04</ele>
        <time>2021-03-21T10:08:11Z</time>
      </trkpt>
      <trkpt lat="43.55593" lon="5.70591">
        <ele>455.79</ele>
        <time>2021-03-21T10:08:21Z</time>
      </trkpt>
      <trkpt lat="43.55573" lon="5.70598">
        <ele>456.43</ele>
        <time>2021-03-21T10:08:29Z</time>
      </trkpt>
      <trkpt lat="43.55555" lon="5.70604">
        <ele>456.77</ele>
        <time>2021-03-21T10:08:36Z</time>
      </trkpt>
      <trkpt lat="43.55536" lon="5.7061">
        <ele>457.81</ele>
        <time>2021-03-21T10:08:43Z</time>
      </trkpt>
      <trkpt lat="43.55518" lon="5.70616">
        <ele>456.34</ele>
        <time>2021-03-21T10:08:48Z</time>
      </trkpt>
      <trkpt lat="43.555" lon="5.70623">
        <ele>454.44</ele>
        <time>2021-03-21T10:08:52Z</time>
      </trkpt>
      <trkpt lat="43.55481" lon="5.70631">
        <ele>453.87</ele>
        <time>2021-03-21T10:08:56Z</time>
      </trkpt>
      <trkpt lat="43.55462" lon="5.7064">
        <ele>453.5</ele>
        <time>2021-03-21T10:09:00Z</time>
      </trkpt>
      <trkpt lat="43.55442" lon="5.7065">
        <ele>453.07</ele>
        <time>2021-03-21T10:09:04Z</time>
      </trkpt>
      <trkpt lat="43.55424" lon="5.70657">
        <ele>453.1</ele>
        <time>2021-03-21T10:09:08Z</time>
      </trkpt>
      <trkpt lat="43.55405" lon="5.70664">
        <ele>453.11</ele>
        <time>2021-03-21T10:09:13Z</time>
      </trkpt>
      <trkpt lat="43.55386" lon="5.70668">
        <ele>452.45</ele>
        <time>2021-03-21T10:09:17Z</time>
      </trkpt>
      <trkpt lat="43.55366" lon="5.70672">
        <ele>451.8</ele>
        <time>2021-03-21T10:09:21Z</time>
      </trkpt>
      <trkpt lat="43.55345" lon="5.70672">
        <ele>453.08</ele>
        <time>2021-03-21T10:09:26Z</time>
      </trkpt>
      <trkpt lat="43.55327" lon="5.7067">
        <ele>455.76</ele>
        <time>2021-03-21T10:09:31Z</time>
      </trkpt>
      <trkpt lat="43.55307" lon="5.70667">
        <ele>458.4</ele>
        <time>2021-03-21T10:09:36Z</time>
      </trkpt>
      <trkpt lat="43.55285" lon="5.70664">
        <ele>461.16</ele>
        <time>2021-03-21T10:09:41Z</time>
      </trkpt>
      <trkpt lat="43.55267" lon="5.7066">
        <ele>463.53</ele>
        <time>2021-03-21T10:09:45Z</time>
      </trkpt>
      <trkpt lat="43.55248" lon="5.70657">
        <ele>465.51</ele>
        <time>2021-03-21T10:09:49Z</time>
      </trkpt>
      <trkpt lat="43.55229" lon="5.70652">
        <ele>467.18</ele>
        <time>2021-03-21T10:09:53Z</time>
      </trkpt>
      <trkpt lat="43.5521" lon="5.70647">
        <ele>468.24</ele>
        <time>2021-03-21T10:09:57Z</time>
      </trkpt>
      <trkpt lat="43.55189" lon="5.70644">
        <ele>469.47</ele>
        <time>2021-03-21T10:10:01Z</time>
      </trkpt>
      <trkpt lat="43.55164" lon="5.70639">
        <ele>464.92</ele>
        <time>2021-03-21T10:10:04Z</time>
      </trkpt>
      <trkpt lat="43.55143" lon="5.70629">
        <ele>461.84</ele>
        <time>2021-03-21T10:10:07Z</time>
      </trkpt>
      <trkpt lat="43.55125" lon="5.7063">
        <ele>460.31</ele>
        <time>2021-03-21T10:10:10Z</time>
      </trkpt>
      <trkpt lat="43.55103" lon="5.70628">
        <ele>459.5</ele>
        <time>2021-03-21T10:10:13Z</time>
      </trkpt>
      <trkpt lat="43.55081" lon="5.70622">
        <ele>458.51</ele>
        <time>2021-03-21T10:10:17Z</time>
      </trkpt>
      <trkpt lat="43.55062" lon="5.70617">
        <ele>457.51</ele>
        <time>2021-03-21T10:10:21Z</time>
      </trkpt>
      <trkpt lat="43.5504" lon="5.70614">
        <ele>456.6</ele>
        <time>2021-03-21T10:10:26Z</time>
      </trkpt>
      <trkpt lat="43.55022" lon="5.70612">
        <ele>455.6</ele>
        <time>2021-03-21T10:10:30Z</time>
      </trkpt>
      <trkpt lat="43.55002" lon="5.7061">
        <ele>454.06</ele>
        <time>2021-03-21T10:10:34Z</time>
      </trkpt>
      <trkpt lat="43.54984" lon="5.70607">
        <ele>453.59</ele>
        <time>2021-03-21T10:10:38Z</time>
      </trkpt>
      <trkpt lat="43.54966" lon="5.70605">
        <ele>452.91</ele>
        <time>2021-03-21T10:10:42Z</time>
      </trkpt>
      <trkpt lat="43.54946" lon="5.70604">
        <ele>452.33</ele>
        <time>2021-03-21T10:10:46Z</time>
      </trkpt>
      <trkpt lat="43.54927" lon="5.70601">
        <ele>452.11</ele>
        <time>2021-03-21T10:10:50Z</time>
      </trkpt>
      <trkpt lat="43.54908" lon="5.70599">
        <ele>450.54</ele>
        <time>2021-03-21T10:10:53Z</time>
      </trkpt>
      <trkpt lat="43.54885" lon="5.70594">
        <ele>449.82</ele>
        <time>2021-03-21T10:10:57Z</time>
      </trkpt>
      <trkpt lat="43.54867" lon="5.70596">
        <ele>451.49</ele>
        <time>2021-03-21T10:11:01Z</time>
      </trkpt>
      <trkpt lat="43.54848" lon="5.70597">
        <ele>453.04</ele>
        <time>2021-03-21T10:11:05Z</time>
      </trkpt>
      <trkpt lat="43.54829" lon="5.70597">
        <ele>453.78</ele>
        <time>2021-03-21T10:11:09Z</time>
      </trkpt>
      <trkpt lat="43.54808" lon="5.70594">
        <ele>453.65</ele>
        <time>2021-03-21T10:11:13Z</time>
      </trkpt>
      <trkpt lat="43.54788" lon="5.70591">
        <ele>454.08</ele>
        <time>2021-03-21T10:11:17Z</time>
      </trkpt>
      <trkpt lat="43.54769" lon="5.70588">
        <ele>453.63</ele>
        <time>2021-03-21T10:11:21Z</time>
      </trkpt>
      <trkpt lat="43.54747" lon="5.70584">
        <ele>453.07</ele>
        <time>2021-03-21T10:11:26Z</time>
      </trkpt>
      <trkpt lat="43.54725" lon="5.7058">
        <ele>452.03</ele>
        <time>2021-03-21T10:11:31Z</time>
      </trkpt>
      <trkpt lat="43.54705" lon="5.70575">
        <ele>452.05</ele>
        <time>2021-03-21T10:11:36Z</time>
      </trkpt>
      <trkpt lat="43.54685" lon="5.70569">
        <ele>451.77</ele>
        <time>2021-03-21T10:11:41Z</time>
      </trkpt>
      <trkpt lat="43.54667" lon="5.70561">
        <ele>452.24</ele>
        <time>2021-03-21T10:11:46Z</time>
      </trkpt>
      <trkpt lat="43.54648" lon="5.70567">
        <ele>451.65</ele>
        <time>2021-03-21T10:11:53Z</time>
      </trkpt>
      <trkpt lat="43.54634" lon="5.70586">
        <ele>449.56</ele>
        <time>2021-03-21T10:11:59Z</time>
      </trkpt>
      <trkpt lat="43.54633" lon="5.70614">
        <ele>447.52</ele>
        <time>2021-03-21T10:12:04Z</time>
      </trkpt>
      <trkpt lat="43.54624" lon="5.70637">
        <ele>446.45</ele>
        <time>2021-03-21T10:12:08Z</time>
      </trkpt>
      <trkpt lat="43.54615" lon="5.70662">
        <ele>446.02</ele>
        <time>2021-03-21T10:12:13Z</time>
      </trkpt>
      <trkpt lat="43.54608" lon="5.70687">
        <ele>444.05</ele>
        <time>2021-03-21T10:12:17Z</time>
      </trkpt>
      <trkpt lat="43.54601" lon="5.70714">
        <ele>442.39</ele>
        <time>2021-03-21T10:12:21Z</time>
      </trkpt>
      <trkpt lat="43.54594" lon="5.70738">
        <ele>441.24</ele>
        <time>2021-03-21T10:12:24Z</time>
      </trkpt>
      <trkpt lat="43.54584" lon="5.7076">
        <ele>440.03</ele>
        <time>2021-03-21T10:12:27Z</time>
      </trkpt>
      <trkpt lat="43.54572" lon="5.70788">
        <ele>439.14</ele>
        <time>2021-03-21T10:12:31Z</time>
      </trkpt>
      <trkpt lat="43.54561" lon="5.70808">
        <ele>438.47</ele>
        <time>2021-03-21T10:12:34Z</time>
      </trkpt>
      <trkpt lat="43.5455" lon="5.70831">
        <ele>438.31</ele>
        <time>2021-03-21T10:12:37Z</time>
      </trkpt>
      <trkpt lat="43.54545" lon="5.70859">
        <ele>438.15</ele>
        <time>2021-03-21T10:12:41Z</time>
      </trkpt>
      <trkpt lat="43.54532" lon="5.70883">
        <ele>438.63</ele>
        <time>2021-03-21T10:12:45Z</time>
      </trkpt>
      <trkpt lat="43.54521" lon="5.70902">
        <ele>439.25</ele>
        <time>2021-03-21T10:12:48Z</time>
      </trkpt>
      <trkpt lat="43.54513" lon="5.70931">
        <ele>439.42</ele>
        <time>2021-03-21T10:12:52Z</time>
      </trkpt>
      <trkpt lat="43.54503" lon="5.70953">
        <ele>440.07</ele>
        <time>2021-03-21T10:12:56Z</time>
      </trkpt>
      <trkpt lat="43.54486" lon="5.70975">
        <ele>441.04</ele>
        <time>2021-03-21T10:13:00Z</time>
      </trkpt>
      <trkpt lat="43.54469" lon="5.70994">
        <ele>440.9</ele>
        <time>2021-03-21T10:13:04Z</time>
      </trkpt>
      <trkpt lat="43.54459" lon="5.71016">
        <ele>443.4</ele>
        <time>2021-03-21T10:13:08Z</time>
      </trkpt>
      <trkpt lat="43.5445" lon="5.7104">
        <ele>444.13</ele>
        <time>2021-03-21T10:13:13Z</time>
      </trkpt>
      <trkpt lat="43.54438" lon="5.71062">
        <ele>447.54</ele>
        <time>2021-03-21T10:13:18Z</time>
      </trkpt>
      <trkpt lat="43.54424" lon="5.71082">
        <ele>450.15</ele>
        <time>2021-03-21T10:13:22Z</time>
      </trkpt>
      <trkpt lat="43.54414" lon="5.71104">
        <ele>451.79</ele>
        <time>2021-03-21T10:13:26Z</time>
      </trkpt>
      <trkpt lat="43.54401" lon="5.71129">
        <ele>453.98</ele>
        <time>2021-03-21T10:13:31Z</time>
      </trkpt>
      <trkpt lat="43.54395" lon="5.71153">
        <ele>455.19</ele>
        <time>2021-03-21T10:13:35Z</time>
      </trkpt>
      <trkpt lat="43.54382" lon="5.71176">
        <ele>456.78</ele>
        <time>2021-03-21T10:13:39Z</time>
      </trkpt>
      <trkpt lat="43.5437" lon="5.71196">
        <ele>457.72</ele>
        <time>2021-03-21T10:13:43Z</time>
      </trkpt>
      <trkpt lat="43.54371" lon="5.71222">
        <ele>457.02</ele>
        <time>2021-03-21T10:13:47Z</time>
      </trkpt>
      <trkpt lat="43.54373" lon="5.71253">
        <ele>455.42</ele>
        <time>2021-03-21T10:13:51Z</time>
      </trkpt>
      <trkpt lat="43.54377" lon="5.71279">
        <ele>452.88</ele>
        <time>2021-03-21T10:13:55Z</time>
      </trkpt>
      <trkpt lat="43.54382" lon="5.71306">
        <ele>451.32</ele>
        <time>2021-03-21T10:13:59Z</time>
      </trkpt>
      <trkpt lat="43.54389" lon="5.71332">
        <ele>449.56</ele>
        <time>2021-03-21T10:14:03Z</time>
      </trkpt>
      <trkpt lat="43.54397" lon="5.71361">
        <ele>446.54</ele>
        <time>2021-03-21T10:14:07Z</time>
      </trkpt>
      <trkpt lat="43.54404" lon="5.71386">
        <ele>445.69</ele>
        <time>2021-03-21T10:14:11Z</time>
      </trkpt>
      <trkpt lat="43.54412" lon="5.71409">
        <ele>444.79</ele>
        <time>2021-03-21T10:14:15Z</time>
      </trkpt>
      <trkpt lat="43.5442" lon="5.71431">
        <ele>443.2</ele>
        <time>2021-03-21T10:14:19Z</time>
      </trkpt>
      <trkpt lat="43.54421" lon="5.71456">
        <ele>443.61</ele>
        <time>2021-03-21T10:14:27Z</time>
      </trkpt>
      <trkpt lat="43.54402" lon="5.71454">
        <ele>446.33</ele>
        <time>2021-03-21T10:14:34Z</time>
      </trkpt>
      <trkpt lat="43.54382" lon="5.71453">
        <ele>447.24</ele>
        <time>2021-03-21T10:14:39Z</time>
      </trkpt>
      <trkpt lat="43.5436" lon="5.71451">
        <ele>448.47</ele>
        <time>2021-03-21T10:14:45Z</time>
      </trkpt>
      <trkpt lat="43.54342" lon="5.71458">
        <ele>450.83</ele>
        <time>2021-03-21T10:14:51Z</time>
      </trkpt>
      <trkpt lat="43.54325" lon="5.7147">
        <ele>450.93</ele>
        <time>2021-03-21T10:14:56Z</time>
      </trkpt>
      <trkpt lat="43.54306" lon="5.71482">
        <ele>451.77</ele>
        <time>2021-03-21T10:15:02Z</time>
      </trkpt>
      <trkpt lat="43.5429" lon="5.71495">
        <ele>449.24</ele>
        <time>2021-03-21T10:15:06Z</time>
      </trkpt>
      <trkpt lat="43.54274" lon="5.71511">
        <ele>449.14</ele>
        <time>2021-03-21T10:15:12Z</time>
      </trkpt>
      <trkpt lat="43.54259" lon="5.71524">
        <ele>448.55</ele>
        <time>2021-03-21T10:15:18Z</time>
      </trkpt>
      <trkpt lat="43.54241" lon="5.71537">
        <ele>448.06</ele>
        <time>2021-03-21T10:15:23Z</time>
      </trkpt>
      <trkpt lat="43.54227" lon="5.71552">
        <ele>447.08</ele>
        <time>2021-03-21T10:15:28Z</time>
      </trkpt>
      <trkpt lat="43.54211" lon="5.71568">
        <ele>444.44</ele>
        <time>2021-03-21T10:15:33Z</time>
      </trkpt>
      <trkpt lat="43.54193" lon="5.71582">
        <ele>443.37</ele>
        <time>2021-03-21T10:15:40Z</time>
      </trkpt>
      <trkpt lat="43.5418" lon="5.716">
        <ele>444.37</ele>
        <time>2021-03-21T10:15:47Z</time>
      </trkpt>
      <trkpt lat="43.54163" lon="5.71615">
        <ele>446.66</ele>
        <time>2021-03-21T10:15:54Z</time>
      </trkpt>
      <trkpt lat="43.54148" lon="5.71631">
        <ele>446.19</ele>
        <time>2021-03-21T10:16:00Z</time>
      </trkpt>
      <trkpt lat="43.54133" lon="5.71648">
        <ele>446.94</ele>
        <time>2021-03-21T10:16:08Z</time>
      </trkpt>
      <trkpt lat="43.54119" lon="5.71667">
        <ele>445.86</ele>
        <time>2021-03-21T10:16:15Z</time>
      </trkpt>
      <trkpt lat="43.54107" lon="5.71687">
        <ele>444.35</ele>
        <time>2021-03-21T10:16:23Z</time>
      </trkpt>
      <trkpt lat="43.54097" lon="5.71709">
        <ele>446.14</ele>
        <time>2021-03-21T10:16:32Z</time>
      </trkpt>
      <trkpt lat="43.54094" lon="5.71735">
        <ele>448</ele>
        <time>2021-03-21T10:16:42Z</time>
      </trkpt>
      <trkpt lat="43.54096" lon="5.71761">
        <ele>449.02</ele>
        <time>2021-03-21T10:16:53Z</time>
      </trkpt>
      <trkpt lat="43.54097" lon="5.71787">
        <ele>449.43</ele>
        <time>2021-03-21T10:17:06Z</time>
      </trkpt>
      <trkpt lat="43.54088" lon="5.7181">
        <ele>450.32</ele>
        <time>2021-03-21T10:17:18Z</time>
      </trkpt>
      <trkpt lat="43.54077" lon="5.71832">
        <ele>451.42</ele>
        <time>2021-03-21T10:17:29Z</time>
      </trkpt>
      <trkpt lat="43.5408" lon="5.71857">
        <ele>456.16</ele>
        <time>2021-03-21T10:17:46Z</time>
      </trkpt>
      <trkpt lat="43.5408" lon="5.71882">
        <ele>459.37</ele>
        <time>2021-03-21T10:17:58Z</time>
      </trkpt>
      <trkpt lat="43.54073" lon="5.71907">
        <ele>463.6</ele>
        <time>2021-03-21T10:18:13Z</time>
      </trkpt>
      <trkpt lat="43.54079" lon="5.71931">
        <ele>464.54</ele>
        <time>2021-03-21T10:18:32Z</time>
      </trkpt>
      <trkpt lat="43.54078" lon="5.71957">
        <ele>462.95</ele>
        <time>2021-03-21T10:19:46Z</time>
      </trkpt>
      <trkpt lat="43.54083" lon="5.71983">
        <ele>462.25</ele>
        <time>2021-03-21T10:19:58Z</time>
      </trkpt>
      <trkpt lat="43.5409" lon="5.72007">
        <ele>460.58</ele>
        <time>2021-03-21T10:20:04Z</time>
      </trkpt>
      <trkpt lat="43.54088" lon="5.72033">
        <ele>457.21</ele>
        <time>2021-03-21T10:20:11Z</time>
      </trkpt>
      <trkpt lat="43.54078" lon="5.72055">
        <ele>455.2</ele>
        <time>2021-03-21T10:20:17Z</time>
      </trkpt>
      <trkpt lat="43.54073" lon="5.72082">
        <ele>453.57</ele>
        <time>2021-03-21T10:20:22Z</time>
      </trkpt>
      <trkpt lat="43.5407" lon="5.72108">
        <ele>452.9</ele>
        <time>2021-03-21T10:20:27Z</time>
      </trkpt>
      <trkpt lat="43.54058" lon="5.7213">
        <ele>452.41</ele>
        <time>2021-03-21T10:20:33Z</time>
      </trkpt>
      <trkpt lat="43.54054" lon="5.72157">
        <ele>451.04</ele>
        <time>2021-03-21T10:20:37Z</time>
      </trkpt>
      <trkpt lat="43.54049" lon="5.72185">
        <ele>449.75</ele>
        <time>2021-03-21T10:20:41Z</time>
      </trkpt>
      <trkpt lat="43.54043" lon="5.72214">
        <ele>448.19</ele>
        <time>2021-03-21T10:20:45Z</time>
      </trkpt>
      <trkpt lat="43.54033" lon="5.72237">
        <ele>447.9</ele>
        <time>2021-03-21T10:20:49Z</time>
      </trkpt>
      <trkpt lat="43.54018" lon="5.7226">
        <ele>445.06</ele>
        <time>2021-03-21T10:20:53Z</time>
      </trkpt>
      <trkpt lat="43.54002" lon="5.72281">
        <ele>442.65</ele>
        <time>2021-03-21T10:20:57Z</time>
      </trkpt>
      <trkpt lat="43.53987" lon="5.72304">
        <ele>440.17</ele>
        <time>2021-03-21T10:21:01Z</time>
      </trkpt>
      <trkpt lat="43.53974" lon="5.7233">
        <ele>438.34</ele>
        <time>2021-03-21T10:21:05Z</time>
      </trkpt>
      <trkpt lat="43.5396" lon="5.7235">
        <ele>437.52</ele>
        <time>2021-03-21T10:21:10Z</time>
      </trkpt>
      <trkpt lat="43.53951" lon="5.72376">
        <ele>436.82</ele>
        <time>2021-03-21T10:21:15Z</time>
      </trkpt>
      <trkpt lat="43.53935" lon="5.72396">
        <ele>436.22</ele>
        <time>2021-03-21T10:21:20Z</time>
      </trkpt>
      <trkpt lat="43.53929" lon="5.72423">
        <ele>435.3</ele>
        <time>2021-03-21T10:21:25Z</time>
      </trkpt>
      <trkpt lat="43.53926" lon="5.72451">
        <ele>434.5</ele>
        <time>2021-03-21T10:21:30Z</time>
      </trkpt>
      <trkpt lat="43.53923" lon="5.72475">
        <ele>433.27</ele>
        <time>2021-03-21T10:21:39Z</time>
      </trkpt>
      <trkpt lat="43.53914" lon="5.72497">
        <ele>432.65</ele>
        <time>2021-03-21T10:21:45Z</time>
      </trkpt>
      <trkpt lat="43.539" lon="5.72516">
        <ele>431.89</ele>
        <time>2021-03-21T10:21:50Z</time>
      </trkpt>
      <trkpt lat="43.53893" lon="5.72539">
        <ele>430.45</ele>
        <time>2021-03-21T10:21:54Z</time>
      </trkpt>
      <trkpt lat="43.53881" lon="5.72559">
        <ele>428.33</ele>
        <time>2021-03-21T10:21:58Z</time>
      </trkpt>
      <trkpt lat="43.53871" lon="5.72583">
        <ele>427.11</ele>
        <time>2021-03-21T10:22:02Z</time>
      </trkpt>
      <trkpt lat="43.53855" lon="5.72598">
        <ele>426.84</ele>
        <time>2021-03-21T10:22:07Z</time>
      </trkpt>
      <trkpt lat="43.5384" lon="5.72616">
        <ele>427.3</ele>
        <time>2021-03-21T10:22:12Z</time>
      </trkpt>
      <trkpt lat="43.53819" lon="5.72612">
        <ele>429.37</ele>
        <time>2021-03-21T10:22:17Z</time>
      </trkpt>
      <trkpt lat="43.538" lon="5.7261">
        <ele>430.1</ele>
        <time>2021-03-21T10:22:22Z</time>
      </trkpt>
      <trkpt lat="43.53781" lon="5.72612">
        <ele>428.48</ele>
        <time>2021-03-21T10:22:28Z</time>
      </trkpt>
      <trkpt lat="43.5376" lon="5.72611">
        <ele>427.93</ele>
        <time>2021-03-21T10:22:35Z</time>
      </trkpt>
      <trkpt lat="43.53742" lon="5.72608">
        <ele>426.68</ele>
        <time>2021-03-21T10:22:40Z</time>
      </trkpt>
      <trkpt lat="43.53722" lon="5.72599">
        <ele>429.16</ele>
        <time>2021-03-21T10:22:47Z</time>
      </trkpt>
      <trkpt lat="43.53705" lon="5.72588">
        <ele>431.14</ele>
        <time>2021-03-21T10:22:53Z</time>
      </trkpt>
      <trkpt lat="43.53686" lon="5.72577">
        <ele>436.42</ele>
        <time>2021-03-21T10:23:00Z</time>
      </trkpt>
      <trkpt lat="43.5367" lon="5.72565">
        <ele>441.12</ele>
        <time>2021-03-21T10:23:06Z</time>
      </trkpt>
      <trkpt lat="43.53654" lon="5.72552">
        <ele>446.41</ele>
        <time>2021-03-21T10:23:12Z</time>
      </trkpt>
      <trkpt lat="43.53635" lon="5.72538">
        <ele>446.93</ele>
        <time>2021-03-21T10:23:18Z</time>
      </trkpt>
      <trkpt lat="43.53617" lon="5.72531">
        <ele>443.29</ele>
        <time>2021-03-21T10:23:22Z</time>
      </trkpt>
      <trkpt lat="43.53599" lon="5.72523">
        <ele>444.66</ele>
        <time>2021-03-21T10:23:27Z</time>
      </trkpt>
      <trkpt lat="43.53579" lon="5.72514">
        <ele>445.51</ele>
        <time>2021-03-21T10:23:32Z</time>
      </trkpt>
      <trkpt lat="43.53561" lon="5.72514">
        <ele>442.53</ele>
        <time>2021-03-21T10:23:35Z</time>
      </trkpt>
      <trkpt lat="43.5354" lon="5.72517">
        <ele>443.56</ele>
        <time>2021-03-21T10:23:40Z</time>
      </trkpt>
      <trkpt lat="43.53518" lon="5.72522">
        <ele>445.11</ele>
        <time>2021-03-21T10:23:45Z</time>
      </trkpt>
      <trkpt lat="43.53496" lon="5.72524">
        <ele>443.07</ele>
        <time>2021-03-21T10:23:49Z</time>
      </trkpt>
      <trkpt lat="43.53477" lon="5.72524">
        <ele>439.78</ele>
        <time>2021-03-21T10:23:52Z</time>
      </trkpt>
      <trkpt lat="43.53458" lon="5.72522">
        <ele>435.76</ele>
        <time>2021-03-21T10:23:55Z</time>
      </trkpt>
      <trkpt lat="43.53438" lon="5.72519">
        <ele>432.31</ele>
        <time>2021-03-21T10:23:58Z</time>
      </trkpt>
      <trkpt lat="43.53419" lon="5.72514">
        <ele>430.1</ele>
        <time>2021-03-21T10:24:01Z</time>
      </trkpt>
      <trkpt lat="43.53403" lon="5.72503">
        <ele>428.83</ele>
        <time>2021-03-21T10:24:04Z</time>
      </trkpt>
      <trkpt lat="43.53384" lon="5.72493">
        <ele>428.05</ele>
        <time>2021-03-21T10:24:08Z</time>
      </trkpt>
      <trkpt lat="43.53368" lon="5.72508">
        <ele>427.3</ele>
        <time>2021-03-21T10:24:12Z</time>
      </trkpt>
      <trkpt lat="43.53349" lon="5.72519">
        <ele>427.97</ele>
        <time>2021-03-21T10:24:17Z</time>
      </trkpt>
      <trkpt lat="43.53333" lon="5.72531">
        <ele>428.08</ele>
        <time>2021-03-21T10:24:22Z</time>
      </trkpt>
      <trkpt lat="43.53317" lon="5.72549">
        <ele>427.01</ele>
        <time>2021-03-21T10:24:27Z</time>
      </trkpt>
      <trkpt lat="43.533" lon="5.72568">
        <ele>426.11</ele>
        <time>2021-03-21T10:24:32Z</time>
      </trkpt>
      <trkpt lat="43.53286" lon="5.72588">
        <ele>424.22</ele>
        <time>2021-03-21T10:24:36Z</time>
      </trkpt>
      <trkpt lat="43.53271" lon="5.72606">
        <ele>422.64</ele>
        <time>2021-03-21T10:24:40Z</time>
      </trkpt>
      <trkpt lat="43.53255" lon="5.72624">
        <ele>421.08</ele>
        <time>2021-03-21T10:24:44Z</time>
      </trkpt>
      <trkpt lat="43.53239" lon="5.72638">
        <ele>421.25</ele>
        <time>2021-03-21T10:24:48Z</time>
      </trkpt>
      <trkpt lat="43.53222" lon="5.72651">
        <ele>420.89</ele>
        <time>2021-03-21T10:24:52Z</time>
      </trkpt>
      <trkpt lat="43.53205" lon="5.72669">
        <ele>419.44</ele>
        <time>2021-03-21T10:24:56Z</time>
      </trkpt>
      <trkpt lat="43.53194" lon="5.72688">
        <ele>419.33</ele>
        <time>2021-03-21T10:25:00Z</time>
      </trkpt>
      <trkpt lat="43.53179" lon="5.72703">
        <ele>419.81</ele>
        <time>2021-03-21T10:25:04Z</time>
      </trkpt>
      <trkpt lat="43.5316" lon="5.72715">
        <ele>421.38</ele>
        <time>2021-03-21T10:25:09Z</time>
      </trkpt>
      <trkpt lat="43.53144" lon="5.72729">
        <ele>421.22</ele>
        <time>2021-03-21T10:25:13Z</time>
      </trkpt>
      <trkpt lat="43.53125" lon="5.72745">
        <ele>420.75</ele>
        <time>2021-03-21T10:25:18Z</time>
      </trkpt>
      <trkpt lat="43.5311" lon="5.72759">
        <ele>419.96</ele>
        <time>2021-03-21T10:25:22Z</time>
      </trkpt>
      <trkpt lat="43.53096" lon="5.72775">
        <ele>418.88</ele>
        <time>2021-03-21T10:25:26Z</time>
      </trkpt>
      <trkpt lat="43.53081" lon="5.72791">
        <ele>418.45</ele>
        <time>2021-03-21T10:25:30Z</time>
      </trkpt>
      <trkpt lat="43.53066" lon="5.72808">
        <ele>417.67</ele>
        <time>2021-03-21T10:25:34Z</time>
      </trkpt>
      <trkpt lat="43.5305" lon="5.72827">
        <ele>418.39</ele>
        <time>2021-03-21T10:25:39Z</time>
      </trkpt>
      <trkpt lat="43.53036" lon="5.7285">
        <ele>419.3</ele>
        <time>2021-03-21T10:25:44Z</time>
      </trkpt>
      <trkpt lat="43.53025" lon="5.72877">
        <ele>419.03</ele>
        <time>2021-03-21T10:25:49Z</time>
      </trkpt>
      <trkpt lat="43.53011" lon="5.729">
        <ele>418.06</ele>
        <time>2021-03-21T10:25:54Z</time>
      </trkpt>
      <trkpt lat="43.52992" lon="5.72913">
        <ele>416.8</ele>
        <time>2021-03-21T10:25:59Z</time>
      </trkpt>
      <trkpt lat="43.5297" lon="5.72924">
        <ele>416</ele>
        <time>2021-03-21T10:26:04Z</time>
      </trkpt>
      <trkpt lat="43.52951" lon="5.72934">
        <ele>414.08</ele>
        <time>2021-03-21T10:26:08Z</time>
      </trkpt>
      <trkpt lat="43.52929" lon="5.72944">
        <ele>411.7</ele>
        <time>2021-03-21T10:26:12Z</time>
      </trkpt>
      <trkpt lat="43.52907" lon="5.72954">
        <ele>409.6</ele>
        <time>2021-03-21T10:26:16Z</time>
      </trkpt>
      <trkpt lat="43.52889" lon="5.72961">
        <ele>406.62</ele>
        <time>2021-03-21T10:26:19Z</time>
      </trkpt>
      <trkpt lat="43.52868" lon="5.72968">
        <ele>403.68</ele>
        <time>2021-03-21T10:26:22Z</time>
      </trkpt>
      <trkpt lat="43.52845" lon="5.72965">
        <ele>401.17</ele>
        <time>2021-03-21T10:26:25Z</time>
      </trkpt>
      <trkpt lat="43.52823" lon="5.72956">
        <ele>398.98</ele>
        <time>2021-03-21T10:26:28Z</time>
      </trkpt>
      <trkpt lat="43.528" lon="5.72945">
        <ele>397.87</ele>
        <time>2021-03-21T10:26:31Z</time>
      </trkpt>
      <trkpt lat="43.52779" lon="5.72937">
        <ele>396.38</ele>
        <time>2021-03-21T10:26:34Z</time>
      </trkpt>
      <trkpt lat="43.52755" lon="5.72933">
        <ele>393.11</ele>
        <time>2021-03-21T10:26:38Z</time>
      </trkpt>
      <trkpt lat="43.52733" lon="5.72937">
        <ele>390.02</ele>
        <time>2021-03-21T10:26:42Z</time>
      </trkpt>
      <trkpt lat="43.52713" lon="5.72951">
        <ele>386.47</ele>
        <time>2021-03-21T10:26:46Z</time>
      </trkpt>
      <trkpt lat="43.52695" lon="5.72968">
        <ele>383.76</ele>
        <time>2021-03-21T10:26:50Z</time>
      </trkpt>
      <trkpt lat="43.52671" lon="5.72973">
        <ele>381.39</ele>
        <time>2021-03-21T10:26:54Z</time>
      </trkpt>
      <trkpt lat="43.52652" lon="5.72968">
        <ele>379.43</ele>
        <time>2021-03-21T10:26:57Z</time>
      </trkpt>
      <trkpt lat="43.52634" lon="5.72963">
        <ele>377.63</ele>
        <time>2021-03-21T10:27:00Z</time>
      </trkpt>
      <trkpt lat="43.52612" lon="5.72959">
        <ele>374.53</ele>
        <time>2021-03-21T10:27:04Z</time>
      </trkpt>
      <trkpt lat="43.52588" lon="5.72953">
        <ele>371.15</ele>
        <time>2021-03-21T10:27:08Z</time>
      </trkpt>
      <trkpt lat="43.52568" lon="5.72948">
        <ele>368.42</ele>
        <time>2021-03-21T10:27:12Z</time>
      </trkpt>
      <trkpt lat="43.52547" lon="5.72946">
        <ele>365.82</ele>
        <time>2021-03-21T10:27:16Z</time>
      </trkpt>
      <trkpt lat="43.52525" lon="5.72934">
        <ele>362.08</ele>
        <time>2021-03-21T10:27:20Z</time>
      </trkpt>
      <trkpt lat="43.52507" lon="5.72928">
        <ele>358.44</ele>
        <time>2021-03-21T10:27:24Z</time>
      </trkpt>
      <trkpt lat="43.52487" lon="5.72927">
        <ele>355.28</ele>
        <time>2021-03-21T10:27:28Z</time>
      </trkpt>
      <trkpt lat="43.52469" lon="5.72924">
        <ele>351.75</ele>
        <time>2021-03-21T10:27:32Z</time>
      </trkpt>
      <trkpt lat="43.52449" lon="5.72918">
        <ele>347.56</ele>
        <time>2021-03-21T10:27:36Z</time>
      </trkpt>
      <trkpt lat="43.52428" lon="5.72908">
        <ele>345.09</ele>
        <time>2021-03-21T10:27:39Z</time>
      </trkpt>
      <trkpt lat="43.52406" lon="5.72902">
        <ele>344.21</ele>
        <time>2021-03-21T10:27:42Z</time>
      </trkpt>
      <trkpt lat="43.52384" lon="5.72902">
        <ele>343.52</ele>
        <time>2021-03-21T10:27:45Z</time>
      </trkpt>
      <trkpt lat="43.52363" lon="5.72904">
        <ele>342.52</ele>
        <time>2021-03-21T10:27:48Z</time>
      </trkpt>
      <trkpt lat="43.52343" lon="5.72906">
        <ele>342.91</ele>
        <time>2021-03-21T10:27:51Z</time>
      </trkpt>
      <trkpt lat="43.52325" lon="5.72913">
        <ele>344.91</ele>
        <time>2021-03-21T10:28:19Z</time>
      </trkpt>
      <trkpt lat="43.52306" lon="5.72916">
        <ele>344.79</ele>
        <time>2021-03-21T10:28:24Z</time>
      </trkpt>
      <trkpt lat="43.52286" lon="5.72918">
        <ele>343.51</ele>
        <time>2021-03-21T10:28:28Z</time>
      </trkpt>
      <trkpt lat="43.52267" lon="5.72919">
        <ele>341.23</ele>
        <time>2021-03-21T10:28:32Z</time>
      </trkpt>
      <trkpt lat="43.52247" lon="5.7292">
        <ele>338.41</ele>
        <time>2021-03-21T10:28:36Z</time>
      </trkpt>
      <trkpt lat="43.5223" lon="5.72928">
        <ele>336.7</ele>
        <time>2021-03-21T10:28:39Z</time>
      </trkpt>
      <trkpt lat="43.5221" lon="5.72937">
        <ele>333.97</ele>
        <time>2021-03-21T10:28:42Z</time>
      </trkpt>
      <trkpt lat="43.52192" lon="5.72946">
        <ele>331.27</ele>
        <time>2021-03-21T10:28:45Z</time>
      </trkpt>
      <trkpt lat="43.5217" lon="5.72952">
        <ele>327.24</ele>
        <time>2021-03-21T10:28:49Z</time>
      </trkpt>
      <trkpt lat="43.52149" lon="5.72952">
        <ele>323.42</ele>
        <time>2021-03-21T10:28:53Z</time>
      </trkpt>
      <trkpt lat="43.5213" lon="5.72949">
        <ele>318.82</ele>
        <time>2021-03-21T10:28:56Z</time>
      </trkpt>
      <trkpt lat="43.52111" lon="5.72945">
        <ele>315.44</ele>
        <time>2021-03-21T10:28:59Z</time>
      </trkpt>
      <trkpt lat="43.5209" lon="5.72933">
        <ele>311.34</ele>
        <time>2021-03-21T10:29:03Z</time>
      </trkpt>
      <trkpt lat="43.52075" lon="5.72915">
        <ele>308.1</ele>
        <time>2021-03-21T10:29:06Z</time>
      </trkpt>
      <trkpt lat="43.52055" lon="5.72907">
        <ele>305.96</ele>
        <time>2021-03-21T10:29:10Z</time>
      </trkpt>
      <trkpt lat="43.52034" lon="5.7291">
        <ele>305.48</ele>
        <time>2021-03-21T10:29:14Z</time>
      </trkpt>
      <trkpt lat="43.52016" lon="5.72919">
        <ele>304.45</ele>
        <time>2021-03-21T10:29:18Z</time>
      </trkpt>
      <trkpt lat="43.51998" lon="5.72919">
        <ele>302.37</ele>
        <time>2021-03-21T10:29:21Z</time>
      </trkpt>
      <trkpt lat="43.51979" lon="5.7291">
        <ele>299.61</ele>
        <time>2021-03-21T10:29:24Z</time>
      </trkpt>
      <trkpt lat="43.51956" lon="5.72902">
        <ele>296.84</ele>
        <time>2021-03-21T10:29:28Z</time>
      </trkpt>
      <trkpt lat="43.51932" lon="5.72899">
        <ele>293.57</ele>
        <time>2021-03-21T10:29:31Z</time>
      </trkpt>
      <trkpt lat="43.51906" lon="5.72899">
        <ele>290.96</ele>
        <time>2021-03-21T10:29:34Z</time>
      </trkpt>
      <trkpt lat="43.5188" lon="5.72901">
        <ele>289.77</ele>
        <time>2021-03-21T10:29:37Z</time>
      </trkpt>
      <trkpt lat="43.51855" lon="5.72905">
        <ele>288.46</ele>
        <time>2021-03-21T10:29:40Z</time>
      </trkpt>
      <trkpt lat="43.51833" lon="5.72911">
        <ele>287.62</ele>
        <time>2021-03-21T10:29:43Z</time>
      </trkpt>
      <trkpt lat="43.51811" lon="5.72913">
        <ele>286.41</ele>
        <time>2021-03-21T10:29:46Z</time>
      </trkpt>
      <trkpt lat="43.51788" lon="5.72915">
        <ele>285.64</ele>
        <time>2021-03-21T10:29:49Z</time>
      </trkpt>
      <trkpt lat="43.51767" lon="5.72917">
        <ele>285.4</ele>
        <time>2021-03-21T10:29:52Z</time>
      </trkpt>
      <trkpt lat="43.51746" lon="5.7292">
        <ele>285.14</ele>
        <time>2021-03-21T10:29:55Z</time>
      </trkpt>
      <trkpt lat="43.51728" lon="5.72922">
        <ele>284.92</ele>
        <time>2021-03-21T10:29:58Z</time>
      </trkpt>
      <trkpt lat="43.51708" lon="5.72925">
        <ele>284.95</ele>
        <time>2021-03-21T10:30:02Z</time>
      </trkpt>
      <trkpt lat="43.51688" lon="5.72928">
        <ele>285.78</ele>
        <time>2021-03-21T10:30:07Z</time>
      </trkpt>
      <trkpt lat="43.51667" lon="5.72931">
        <ele>286.51</ele>
        <time>2021-03-21T10:30:12Z</time>
      </trkpt>
      <trkpt lat="43.51648" lon="5.72934">
        <ele>288.15</ele>
        <time>2021-03-21T10:30:17Z</time>
      </trkpt>
      <trkpt lat="43.51629" lon="5.7294">
        <ele>292.1</ele>
        <time>2021-03-21T10:30:24Z</time>
      </trkpt>
      <trkpt lat="43.51613" lon="5.72951">
        <ele>299.41</ele>
        <time>2021-03-21T10:30:37Z</time>
      </trkpt>
      <trkpt lat="43.51594" lon="5.7296">
        <ele>303.1</ele>
        <time>2021-03-21T10:30:45Z</time>
      </trkpt>
      <trkpt lat="43.51574" lon="5.72967">
        <ele>306.01</ele>
        <time>2021-03-21T10:30:52Z</time>
      </trkpt>
      <trkpt lat="43.51553" lon="5.72977">
        <ele>305.82</ele>
        <time>2021-03-21T10:30:55Z</time>
      </trkpt>
      <trkpt lat="43.51537" lon="5.7299">
        <ele>305.06</ele>
        <time>2021-03-21T10:30:58Z</time>
      </trkpt>
      <trkpt lat="43.51521" lon="5.73007">
        <ele>304.21</ele>
        <time>2021-03-21T10:31:01Z</time>
      </trkpt>
      <trkpt lat="43.51505" lon="5.73023">
        <ele>303.49</ele>
        <time>2021-03-21T10:31:04Z</time>
      </trkpt>
      <trkpt lat="43.51489" lon="5.73039">
        <ele>303.63</ele>
        <time>2021-03-21T10:31:07Z</time>
      </trkpt>
      <trkpt lat="43.51474" lon="5.73057">
        <ele>303.96</ele>
        <time>2021-03-21T10:31:10Z</time>
      </trkpt>
      <trkpt lat="43.51457" lon="5.73076">
        <ele>304.21</ele>
        <time>2021-03-21T10:31:13Z</time>
      </trkpt>
      <trkpt lat="43.51436" lon="5.73089">
        <ele>303.7</ele>
        <time>2021-03-21T10:31:16Z</time>
      </trkpt>
      <trkpt lat="43.51414" lon="5.73102">
        <ele>302.98</ele>
        <time>2021-03-21T10:31:19Z</time>
      </trkpt>
      <trkpt lat="43.51397" lon="5.73113">
        <ele>300.23</ele>
        <time>2021-03-21T10:31:21Z</time>
      </trkpt>
      <trkpt lat="43.5138" lon="5.73126">
        <ele>297.46</ele>
        <time>2021-03-21T10:31:23Z</time>
      </trkpt>
      <trkpt lat="43.51363" lon="5.73141">
        <ele>295.4</ele>
        <time>2021-03-21T10:31:25Z</time>
      </trkpt>
      <trkpt lat="43.51347" lon="5.73157">
        <ele>294.08</ele>
        <time>2021-03-21T10:31:27Z</time>
      </trkpt>
      <trkpt lat="43.51331" lon="5.7317">
        <ele>293.25</ele>
        <time>2021-03-21T10:31:29Z</time>
      </trkpt>
      <trkpt lat="43.51308" lon="5.73185">
        <ele>291.65</ele>
        <time>2021-03-21T10:31:32Z</time>
      </trkpt>
      <trkpt lat="43.51287" lon="5.73194">
        <ele>290.61</ele>
        <time>2021-03-21T10:31:35Z</time>
      </trkpt>
      <trkpt lat="43.51261" lon="5.73207">
        <ele>289.51</ele>
        <time>2021-03-21T10:31:38Z</time>
      </trkpt>
      <trkpt lat="43.51246" lon="5.73219">
        <ele>289</ele>
        <time>2021-03-21T10:31:40Z</time>
      </trkpt>
      <trkpt lat="43.51226" lon="5.73235">
        <ele>287.71</ele>
        <time>2021-03-21T10:31:43Z</time>
      </trkpt>
      <trkpt lat="43.51206" lon="5.73253">
        <ele>286.43</ele>
        <time>2021-03-21T10:31:46Z</time>
      </trkpt>
      <trkpt lat="43.51181" lon="5.73265">
        <ele>284.42</ele>
        <time>2021-03-21T10:31:49Z</time>
      </trkpt>
      <trkpt lat="43.51163" lon="5.73269">
        <ele>282.75</ele>
        <time>2021-03-21T10:31:51Z</time>
      </trkpt>
      <trkpt lat="43.51139" lon="5.73275">
        <ele>279.17</ele>
        <time>2021-03-21T10:31:54Z</time>
      </trkpt>
      <trkpt lat="43.5112" lon="5.73284">
        <ele>275.83</ele>
        <time>2021-03-21T10:31:57Z</time>
      </trkpt>
      <trkpt lat="43.51101" lon="5.73294">
        <ele>273.53</ele>
        <time>2021-03-21T10:32:00Z</time>
      </trkpt>
      <trkpt lat="43.51083" lon="5.73304">
        <ele>271.65</ele>
        <time>2021-03-21T10:32:03Z</time>
      </trkpt>
      <trkpt lat="43.51062" lon="5.73309">
        <ele>271.35</ele>
        <time>2021-03-21T10:32:06Z</time>
      </trkpt>
      <trkpt lat="43.51042" lon="5.73317">
        <ele>270.09</ele>
        <time>2021-03-21T10:32:10Z</time>
      </trkpt>
      <trkpt lat="43.51023" lon="5.73328">
        <ele>265.66</ele>
        <time>2021-03-21T10:32:19Z</time>
      </trkpt>
      <trkpt lat="43.51004" lon="5.73326">
        <ele>263.59</ele>
        <time>2021-03-21T10:32:25Z</time>
      </trkpt>
      <trkpt lat="43.50984" lon="5.73326">
        <ele>262.74</ele>
        <time>2021-03-21T10:32:30Z</time>
      </trkpt>
      <trkpt lat="43.50965" lon="5.73323">
        <ele>262.36</ele>
        <time>2021-03-21T10:32:35Z</time>
      </trkpt>
      <trkpt lat="43.50944" lon="5.73318">
        <ele>262.01</ele>
        <time>2021-03-21T10:32:41Z</time>
      </trkpt>
      <trkpt lat="43.50922" lon="5.73314">
        <ele>260.05</ele>
        <time>2021-03-21T10:32:46Z</time>
      </trkpt>
      <trkpt lat="43.50903" lon="5.73313">
        <ele>259.49</ele>
        <time>2021-03-21T10:32:50Z</time>
      </trkpt>
      <trkpt lat="43.50882" lon="5.73314">
        <ele>260.42</ele>
        <time>2021-03-21T10:32:55Z</time>
      </trkpt>
      <trkpt lat="43.50861" lon="5.73318">
        <ele>262.38</ele>
        <time>2021-03-21T10:33:01Z</time>
      </trkpt>
      <trkpt lat="43.50844" lon="5.73327">
        <ele>264.22</ele>
        <time>2021-03-21T10:33:07Z</time>
      </trkpt>
      <trkpt lat="43.50827" lon="5.73337">
        <ele>265.32</ele>
        <time>2021-03-21T10:33:12Z</time>
      </trkpt>
      <trkpt lat="43.50809" lon="5.73348">
        <ele>267.33</ele>
        <time>2021-03-21T10:33:17Z</time>
      </trkpt>
      <trkpt lat="43.50791" lon="5.73357">
        <ele>266.78</ele>
        <time>2021-03-21T10:33:22Z</time>
      </trkpt>
      <trkpt lat="43.50772" lon="5.73368">
        <ele>266.23</ele>
        <time>2021-03-21T10:33:27Z</time>
      </trkpt>
      <trkpt lat="43.50751" lon="5.73378">
        <ele>266.34</ele>
        <time>2021-03-21T10:33:32Z</time>
      </trkpt>
      <trkpt lat="43.50731" lon="5.73391">
        <ele>267.39</ele>
        <time>2021-03-21T10:33:37Z</time>
      </trkpt>
      <trkpt lat="43.50713" lon="5.73402">
        <ele>267.76</ele>
        <time>2021-03-21T10:33:41Z</time>
      </trkpt>
      <trkpt lat="43.50696" lon="5.73411">
        <ele>266.96</ele>
        <time>2021-03-21T10:33:44Z</time>
      </trkpt>
      <trkpt lat="43.50675" lon="5.73424">
        <ele>267.42</ele>
        <time>2021-03-21T10:33:48Z</time>
      </trkpt>
      <trkpt lat="43.50657" lon="5.73432">
        <ele>267.4</ele>
        <time>2021-03-21T10:33:52Z</time>
      </trkpt>
    </trkseg>
  </trk>
</gpx>